Home > Products > Valid Products > OSO

000
SXUS55 KMSO 032023
OSOMSO
MONTANA AWOS SUMMARY
NATIONAL WEATHER SERVICE MISSOULA MT
123 PM MST TUE MAR 3 2015

Montana AWOS Reports

LAUREL      |K6S8 032015Z AUTO 29010G18KT 40SM M08/M22 A3001 RMK AO1 T10821221
ROUNDUP     |KRPX 032015Z AUTO 30017G21KT 40SM M07/M26 A2995 RMK AO1 T10711255






000
SXUS55 KMSO 032003
OSOMSO
MONTANA AWOS SUMMARY
NATIONAL WEATHER SERVICE MISSOULA MT
103 PM MST TUE MAR 3 2015

Montana AWOS Reports

LAUREL      |K6S8 031955Z AUTO 29011G16KT 40SM M08/M21 A3002 RMK AO1 T10821210
ROUNDUP     |KRPX 031955Z AUTO 34011G17KT 40SM M07/M24 A2996 RMK AO1 T10711238
SCOBEY      |K9S2 031955Z AUTO 29020G29KT 10SM M14/M23 A3000 RMK AO1 T11381227
TWIN BRIDGES|K7S1 031955Z AUTO 36005KT 40SM M08/M21 A2997 RMK AO1 T10771205






000
SXUS55 KMSO 031944
OSOMSO
MONTANA AWOS SUMMARY
NATIONAL WEATHER SERVICE MISSOULA MT
1243 PM MST TUE MAR 3 2015

Montana AWOS Reports

LAUREL      |K6S8 031935Z AUTO 27011G18KT 40SM M09/M20 A3003 RMK AO1 T10881199
ROUNDUP     |KRPX 031935Z AUTO 31010G22KT 40SM M08/M25 A2997 RMK AO1 T10771249






000
SXUS55 KMSO 031923
OSOMSO
MONTANA AWOS SUMMARY
NATIONAL WEATHER SERVICE MISSOULA MT
1223 PM MST TUE MAR 3 2015

Montana AWOS Reports

LAUREL      |K6S8 031915Z AUTO 26010G16KT 40SM M09/M21 A3004 RMK AO1 T10881210
ROUNDUP     |KRPX 031915Z AUTO 30013G18KT 40SM M08/M27 A2998 RMK AO1 T10771266






000
SXUS55 KMSO 031923
OSOMSO
MONTANA AWOS SUMMARY
NATIONAL WEATHER SERVICE MISSOULA MT
1223 PM MST TUE MAR 3 2015

Montana AWOS Reports

LAUREL      |K6S8 031915Z AUTO 26010G16KT 40SM M09/M21 A3004 RMK AO1 T10881210
ROUNDUP     |KRPX 031915Z AUTO 30013G18KT 40SM M08/M27 A2998 RMK AO1 T10771266






000
SXUS55 KMSO 031903
OSOMSO
MONTANA AWOS SUMMARY
NATIONAL WEATHER SERVICE MISSOULA MT
1203 PM MST TUE MAR 3 2015

Montana AWOS Reports

LAUREL      |K6S8 031855Z AUTO 28010G15KT 40SM M09/M22 A3005 RMK AO1 T10931216
ROUNDUP     |KRPX 031855Z AUTO 00000KT 40SM M08/M23 A2998 RMK AO1 T10821232
SCOBEY      |K9S2 031855Z AUTO 30016G25KT 4SM M15/M23 A3003 RMK AO1 T11491227
TWIN BRIDGES|K7S1 031855Z AUTO 34011KT 40SM M09/M22 A2998 RMK AO1 T10881216






000
SXUS55 KMSO 031903
OSOMSO
MONTANA AWOS SUMMARY
NATIONAL WEATHER SERVICE MISSOULA MT
1203 PM MST TUE MAR 3 2015

Montana AWOS Reports

LAUREL      |K6S8 031855Z AUTO 28010G15KT 40SM M09/M22 A3005 RMK AO1 T10931216
ROUNDUP     |KRPX 031855Z AUTO 00000KT 40SM M08/M23 A2998 RMK AO1 T10821232
SCOBEY      |K9S2 031855Z AUTO 30016G25KT 4SM M15/M23 A3003 RMK AO1 T11491227
TWIN BRIDGES|K7S1 031855Z AUTO 34011KT 40SM M09/M22 A2998 RMK AO1 T10881216






000
SXUS55 KMSO 031843
OSOMSO
MONTANA AWOS SUMMARY
NATIONAL WEATHER SERVICE MISSOULA MT
1142 AM MST TUE MAR 3 2015

Montana AWOS Reports

LAUREL      |K6S8 031835Z AUTO 31009G14KT 40SM M09/M21 A3006 RMK AO1 T10931205
ROUNDUP     |KRPX 031835Z AUTO 00000KT 40SM M08/M23 A2999 RMK AO1 T10821227






000
SXUS55 KMSO 031823
OSOMSO
MONTANA AWOS SUMMARY
NATIONAL WEATHER SERVICE MISSOULA MT
1123 AM MST TUE MAR 3 2015

Montana AWOS Reports

LAUREL      |K6S8 031815Z AUTO 31007KT 40SM M09/M21 A3007 RMK AO1 T10931210
ROUNDUP     |KRPX 031815Z AUTO 00000KT 40SM M08/M21 A3000 RMK AO1 T10821210






000
SXUS55 KMSO 031803
OSOMSO
MONTANA AWOS SUMMARY
NATIONAL WEATHER SERVICE MISSOULA MT
1103 AM MST TUE MAR 3 2015

Montana AWOS Reports

LAUREL      |K6S8 031755Z AUTO 33005KT 40SM M10/M21 A3008 RMK AO1 T10991210
TWIN BRIDGES|K7S1 031755Z AUTO 34011G16KT 40SM M10/M21 A2999 RMK AO1 T10991210
SCOBEY      |K9S2 031755Z AUTO 29022G30KT 15SM M16/M24 A3005 RMK AO1 T11551238
MALTA       |KM75 031755Z AUTO 29016G23KT 40SM M11/M22 A3014 RMK AO1 T11051221






000
SXUS55 KMSO 031743
OSOMSO
MONTANA AWOS SUMMARY
NATIONAL WEATHER SERVICE MISSOULA MT
1043 AM MST TUE MAR 3 2015

Montana AWOS Reports

LAUREL      |K6S8 031735Z AUTO 33007KT 40SM M11/M21 A3008 RMK AO1 T11051210
ROUNDUP     |KRPX 031735Z AUTO 00000KT 40SM M09/M22 A3001 RMK AO1 T10881221






000
SXUS55 KMSO 031743
OSOMSO
MONTANA AWOS SUMMARY
NATIONAL WEATHER SERVICE MISSOULA MT
1043 AM MST TUE MAR 3 2015

Montana AWOS Reports

LAUREL      |K6S8 031735Z AUTO 33007KT 40SM M11/M21 A3008 RMK AO1 T11051210
ROUNDUP     |KRPX 031735Z AUTO 00000KT 40SM M09/M22 A3001 RMK AO1 T10881221






000
SXUS55 KMSO 031733
OSOMSO
MONTANA AWOS SUMMARY
NATIONAL WEATHER SERVICE MISSOULA MT
1033 AM MST TUE MAR 3 2015

Montana AWOS Reports

MALTA       |KM75 031655Z AUTO 29020G24KT 40SM M12/M23 A3015 RMK AO1 T11161232






000
SXUS55 KMSO 031733
OSOMSO
MONTANA AWOS SUMMARY
NATIONAL WEATHER SERVICE MISSOULA MT
1033 AM MST TUE MAR 3 2015

Montana AWOS Reports

MALTA       |KM75 031655Z AUTO 29020G24KT 40SM M12/M23 A3015 RMK AO1 T11161232






000
SXUS55 KMSO 031723
OSOMSO
MONTANA AWOS SUMMARY
NATIONAL WEATHER SERVICE MISSOULA MT
1022 AM MST TUE MAR 3 2015

Montana AWOS Reports

LAUREL      |K6S8 031715Z AUTO 28004KT 40SM M11/M21 A3008 RMK AO1 T11051205
ROUNDUP     |KRPX 031715Z AUTO 31009G13KT 40SM M09/M23 A3001 RMK AO1 T10931227






000
SXUS55 KMSO 031723
OSOMSO
MONTANA AWOS SUMMARY
NATIONAL WEATHER SERVICE MISSOULA MT
1022 AM MST TUE MAR 3 2015

Montana AWOS Reports

LAUREL      |K6S8 031715Z AUTO 28004KT 40SM M11/M21 A3008 RMK AO1 T11051205
ROUNDUP     |KRPX 031715Z AUTO 31009G13KT 40SM M09/M23 A3001 RMK AO1 T10931227






000
SXUS55 KMSO 031703
OSOMSO
MONTANA AWOS SUMMARY
NATIONAL WEATHER SERVICE MISSOULA MT
1003 AM MST TUE MAR 3 2015

Montana AWOS Reports

LAUREL      |K6S8 031655Z AUTO 28006KT 40SM M11/M21 A3008 RMK AO1 T11101210
ROUNDUP     |KRPX 031655Z AUTO 30010KT 40SM M10/M25 A3002 RMK AO1 T10991249
SCOBEY      |K9S2 031655Z AUTO 30024G28KT 25SM M16/M24 A3006 RMK AO1 T11551243
TWIN BRIDGES|K7S1 031655Z AUTO 33014G18KT 40SM M11/M21 A3000 RMK AO1 T11101205






000
SXUS55 KMSO 031643
OSOMSO
MONTANA AWOS SUMMARY
NATIONAL WEATHER SERVICE MISSOULA MT
943 AM MST TUE MAR 3 2015

Montana AWOS Reports

LAUREL      |K6S8 031635Z AUTO 31005KT 40SM M12/M21 A3009 RMK AO1 T11161210
ROUNDUP     |KRPX 031635Z AUTO 33011G15KT 40SM M10/M26 A3002 RMK AO1 T10991255






000
SXUS55 KMSO 031633
OSOMSO
MONTANA AWOS SUMMARY
NATIONAL WEATHER SERVICE MISSOULA MT
932 AM MST TUE MAR 3 2015

Montana AWOS Reports

MALTA       |KM75 031355Z AUTO 27010KT 40SM M14/M21 A3017 RMK AO1 T11431210






000
SXUS55 KMSO 031633
OSOMSO
MONTANA AWOS SUMMARY
NATIONAL WEATHER SERVICE MISSOULA MT
932 AM MST TUE MAR 3 2015

Montana AWOS Reports

MALTA       |KM75 031355Z AUTO 27010KT 40SM M14/M21 A3017 RMK AO1 T11431210






000
SXUS55 KMSO 031623
OSOMSO
MONTANA AWOS SUMMARY
NATIONAL WEATHER SERVICE MISSOULA MT
922 AM MST TUE MAR 3 2015

Montana AWOS Reports

LAUREL      |K6S8 031615Z AUTO 29004KT 40SM M13/M21 A3009 RMK AO1 T11271210
ROUNDUP     |KRPX 031615Z AUTO 32015G20KT 40SM M11/M24 A3002 RMK AO1 T11051243






000
SXUS55 KMSO 031603
OSOMSO
MONTANA AWOS SUMMARY
NATIONAL WEATHER SERVICE MISSOULA MT
903 AM MST TUE MAR 3 2015

Montana AWOS Reports

LAUREL      |K6S8 031555Z AUTO 27005KT 40SM M13/M22 A3009 RMK AO1 T11271216
SCOBEY      |K9S2 031555Z AUTO 30018G27KT 10SM M16/M24 A3007 RMK AO1 T11601238
TWIN BRIDGES|K7S1 031555Z AUTO 35014G19KT 40SM M13/M21 A3000 RMK AO1 T11271205






000
SXUS55 KMSO 031543
OSOMSO
MONTANA AWOS SUMMARY
NATIONAL WEATHER SERVICE MISSOULA MT
843 AM MST TUE MAR 3 2015

Montana AWOS Reports

LAUREL      |K6S8 031535Z AUTO 00000KT 25SM M12/M19 A3009 RMK AO1 T11211193
ROUNDUP     |KRPX 031535Z AUTO 30021G25KT 40SM M11/M24 A3002 RMK AO1 T11101243






000
SXUS55 KMSO 031523
OSOMSO
MONTANA AWOS SUMMARY
NATIONAL WEATHER SERVICE MISSOULA MT
822 AM MST TUE MAR 3 2015

Montana AWOS Reports

LAUREL      |K6S8 031515Z AUTO 00000KT 7SM M12/M17 A3009 RMK AO1 T11211166
ROUNDUP     |KRPX 031515Z AUTO 31015G19KT 40SM M12/M23 A3001 RMK AO1 T11211232






000
SXUS55 KMSO 031504
OSOMSO
MONTANA AWOS SUMMARY
NATIONAL WEATHER SERVICE MISSOULA MT
803 AM MST TUE MAR 3 2015

Montana AWOS Reports

LAUREL      |K6S8 031455Z AUTO 00000KT 3 1/2SM M12/M17 A3009 RMK AO1 T11211166
ROUNDUP     |KRPX 031455Z AUTO 33014G23KT 40SM M12/M23 A3001 RMK AO1 T11211227
SCOBEY      |K9S2 031455Z AUTO 29015G20KT 15SM M17/M24 A3006 RMK AO1 T11711238
TWIN BRIDGES|K7S1 031455Z AUTO 35015G21KT 40SM M13/M20 A2998 RMK AO1 T11321199






000
SXUS55 KMSO 031443
OSOMSO
MONTANA AWOS SUMMARY
NATIONAL WEATHER SERVICE MISSOULA MT
743 AM MST TUE MAR 3 2015

Montana AWOS Reports

LAUREL      |K6S8 031435Z AUTO 00000KT 1 1/4SM M12/M17 A3009 RMK AO1 T11211166
ROUNDUP     |KRPX 031435Z AUTO 33012G18KT 40SM M13/M23 A3002 RMK AO1 T11321227






000
SXUS55 KMSO 031443
OSOMSO
MONTANA AWOS SUMMARY
NATIONAL WEATHER SERVICE MISSOULA MT
743 AM MST TUE MAR 3 2015

Montana AWOS Reports

LAUREL      |K6S8 031435Z AUTO 00000KT 1 1/4SM M12/M17 A3009 RMK AO1 T11211166
ROUNDUP     |KRPX 031435Z AUTO 33012G18KT 40SM M13/M23 A3002 RMK AO1 T11321227






000
SXUS55 KMSO 031423
OSOMSO
MONTANA AWOS SUMMARY
NATIONAL WEATHER SERVICE MISSOULA MT
723 AM MST TUE MAR 3 2015

Montana AWOS Reports

LAUREL      |K6S8 031415Z AUTO 00000KT 1 1/4SM M12/M17 A3009 RMK AO1 T11211166
ROUNDUP     |KRPX 031415Z AUTO 34008KT 40SM M14/M23 A3003 RMK AO1 T11381227






000
SXUS55 KMSO 031423
OSOMSO
MONTANA AWOS SUMMARY
NATIONAL WEATHER SERVICE MISSOULA MT
723 AM MST TUE MAR 3 2015

Montana AWOS Reports

LAUREL      |K6S8 031415Z AUTO 00000KT 1 1/4SM M12/M17 A3009 RMK AO1 T11211166
ROUNDUP     |KRPX 031415Z AUTO 34008KT 40SM M14/M23 A3003 RMK AO1 T11381227






000
SXUS55 KMSO 031413
OSOMSO
MONTANA AWOS SUMMARY
NATIONAL WEATHER SERVICE MISSOULA MT
713 AM MST TUE MAR 3 2015

Montana AWOS Reports

SCOBEY      |K9S2 031355Z AUTO 30012G18KT 40SM M18/M24 A3006 RMK AO1 T11771243






000
SXUS55 KMSO 031403
OSOMSO
MONTANA AWOS SUMMARY
NATIONAL WEATHER SERVICE MISSOULA MT
703 AM MST TUE MAR 3 2015

Montana AWOS Reports

ROUNDUP     |KRPX 031355Z AUTO 34007KT 40SM M14/M22 A3003 RMK AO1 T11381221
TWIN BRIDGES|K7S1 031355Z AUTO 34016G20KT 40SM M14/M19 A2996 RMK AO1 T11381193






000
SXUS55 KMSO 031403
OSOMSO
MONTANA AWOS SUMMARY
NATIONAL WEATHER SERVICE MISSOULA MT
703 AM MST TUE MAR 3 2015

Montana AWOS Reports

ROUNDUP     |KRPX 031355Z AUTO 34007KT 40SM M14/M22 A3003 RMK AO1 T11381221
TWIN BRIDGES|K7S1 031355Z AUTO 34016G20KT 40SM M14/M19 A2996 RMK AO1 T11381193






000
SXUS55 KMSO 031344
OSOMSO
MONTANA AWOS SUMMARY
NATIONAL WEATHER SERVICE MISSOULA MT
643 AM MST TUE MAR 3 2015

Montana AWOS Reports

LAUREL      |K6S8 031335Z AUTO 00000KT 1 3/4SM M12/M17 A3009 RMK AO1 T11211166
ROUNDUP     |KRPX 031335Z AUTO 34008KT 40SM M13/M22 A3003 RMK AO1 T11321216






000
SXUS55 KMSO 031344
OSOMSO
MONTANA AWOS SUMMARY
NATIONAL WEATHER SERVICE MISSOULA MT
643 AM MST TUE MAR 3 2015

Montana AWOS Reports

LAUREL      |K6S8 031335Z AUTO 00000KT 1 3/4SM M12/M17 A3009 RMK AO1 T11211166
ROUNDUP     |KRPX 031335Z AUTO 34008KT 40SM M13/M22 A3003 RMK AO1 T11321216






000
SXUS55 KMSO 031323
OSOMSO
MONTANA AWOS SUMMARY
NATIONAL WEATHER SERVICE MISSOULA MT
623 AM MST TUE MAR 3 2015

Montana AWOS Reports

LAUREL      |K6S8 031315Z AUTO 00000KT 2SM M12/M17 A3008 RMK AO1 T11211166
ROUNDUP     |KRPX 031315Z AUTO 02004KT 40SM M14/M21 A3004 RMK AO1 T11381205






000
SXUS55 KMSO 031303
OSOMSO
MONTANA AWOS SUMMARY
NATIONAL WEATHER SERVICE MISSOULA MT
603 AM MST TUE MAR 3 2015

Montana AWOS Reports

LAUREL      |K6S8 031255Z AUTO 00000KT 1 1/4SM M12/M17 A3008 RMK AO1 T11161171
ROUNDUP     |KRPX 031255Z AUTO 00000KT 40SM M14/M21 A3004 RMK AO1 T11381205
TWIN BRIDGES|K7S1 031255Z AUTO 34019G26KT 40SM M13/M19 A2996 RMK AO1 T11271188
SCOBEY      |K9S2 031255Z AUTO 30014G21KT 40SM M17/M24 A3006 RMK AO1 T11711238






000
SXUS55 KMSO 031243
OSOMSO
MONTANA AWOS SUMMARY
NATIONAL WEATHER SERVICE MISSOULA MT
543 AM MST TUE MAR 3 2015

Montana AWOS Reports

LAUREL      |K6S8 031235Z AUTO 00000KT 3SM M12/M17 A3008 RMK AO1 T11161171
ROUNDUP     |KRPX 031235Z AUTO 34005KT 40SM M14/M20 A3003 RMK AO1 T11381199






000
SXUS55 KMSO 031243
OSOMSO
MONTANA AWOS SUMMARY
NATIONAL WEATHER SERVICE MISSOULA MT
543 AM MST TUE MAR 3 2015

Montana AWOS Reports

LAUREL      |K6S8 031235Z AUTO 00000KT 3SM M12/M17 A3008 RMK AO1 T11161171
ROUNDUP     |KRPX 031235Z AUTO 34005KT 40SM M14/M20 A3003 RMK AO1 T11381199






000
SXUS55 KMSO 031223
OSOMSO
MONTANA AWOS SUMMARY
NATIONAL WEATHER SERVICE MISSOULA MT
522 AM MST TUE MAR 3 2015

Montana AWOS Reports

LAUREL      |K6S8 031215Z AUTO 00000KT 2SM M12/M18 A3007 RMK AO1 T11161182
ROUNDUP     |KRPX 031215Z AUTO 00000KT 40SM M14/M20 A3002 RMK AO1 T11381199






000
SXUS55 KMSO 031223
OSOMSO
MONTANA AWOS SUMMARY
NATIONAL WEATHER SERVICE MISSOULA MT
522 AM MST TUE MAR 3 2015

Montana AWOS Reports

LAUREL      |K6S8 031215Z AUTO 00000KT 2SM M12/M18 A3007 RMK AO1 T11161182
ROUNDUP     |KRPX 031215Z AUTO 00000KT 40SM M14/M20 A3002 RMK AO1 T11381199






000
SXUS55 KMSO 031213
OSOMSO
MONTANA AWOS SUMMARY
NATIONAL WEATHER SERVICE MISSOULA MT
513 AM MST TUE MAR 3 2015

Montana AWOS Reports

MALTA       |KM75 031155Z AUTO 27011KT 40SM M14/M20 A3017 RMK AO1 T11381199






000
SXUS55 KMSO 031213
OSOMSO
MONTANA AWOS SUMMARY
NATIONAL WEATHER SERVICE MISSOULA MT
513 AM MST TUE MAR 3 2015

Montana AWOS Reports

MALTA       |KM75 031155Z AUTO 27011KT 40SM M14/M20 A3017 RMK AO1 T11381199






000
SXUS55 KMSO 031203
OSOMSO
MONTANA AWOS SUMMARY
NATIONAL WEATHER SERVICE MISSOULA MT
502 AM MST TUE MAR 3 2015

Montana AWOS Reports

LAUREL      |K6S8 031155Z AUTO 00000KT 10SM M12/M18 A3007 RMK AO1 T11161182
ROUNDUP     |KRPX 031155Z AUTO 35005KT 40SM M13/M18 A3002 RMK AO1 T11271182






000
SXUS55 KMSO 031203
OSOMSO
MONTANA AWOS SUMMARY
NATIONAL WEATHER SERVICE MISSOULA MT
502 AM MST TUE MAR 3 2015

Montana AWOS Reports

LAUREL      |K6S8 031155Z AUTO 00000KT 10SM M12/M18 A3007 RMK AO1 T11161182
ROUNDUP     |KRPX 031155Z AUTO 35005KT 40SM M13/M18 A3002 RMK AO1 T11271182






000
SXUS55 KMSO 031143
OSOMSO
MONTANA AWOS SUMMARY
NATIONAL WEATHER SERVICE MISSOULA MT
443 AM MST TUE MAR 3 2015

Montana AWOS Reports

LAUREL      |K6S8 031135Z AUTO 00000KT 40SM M11/M18 A3006 RMK AO1 T11101182
ROUNDUP     |KRPX 031135Z AUTO 35009KT 40SM M12/M18 A3002 RMK AO1 T11211177






000
SXUS55 KMSO 031143
OSOMSO
MONTANA AWOS SUMMARY
NATIONAL WEATHER SERVICE MISSOULA MT
443 AM MST TUE MAR 3 2015

Montana AWOS Reports

LAUREL      |K6S8 031135Z AUTO 00000KT 40SM M11/M18 A3006 RMK AO1 T11101182
ROUNDUP     |KRPX 031135Z AUTO 35009KT 40SM M12/M18 A3002 RMK AO1 T11211177






000
SXUS55 KMSO 031123
OSOMSO
MONTANA AWOS SUMMARY
NATIONAL WEATHER SERVICE MISSOULA MT
422 AM MST TUE MAR 3 2015

Montana AWOS Reports

LAUREL      |K6S8 031115Z AUTO 00000KT 25SM M11/M18 A3005 RMK AO1 T11101177
ROUNDUP     |KRPX 031115Z AUTO 34008KT 10SM M12/M18 A3001 RMK AO1 T11211177






000
SXUS55 KMSO 031113
OSOMSO
MONTANA AWOS SUMMARY
NATIONAL WEATHER SERVICE MISSOULA MT
413 AM MST TUE MAR 3 2015

Montana AWOS Reports

MALTA       |KM75 031055Z AUTO 26007KT 40SM M14/M20 A3016 RMK AO1 T11381199






000
SXUS55 KMSO 031113
OSOMSO
MONTANA AWOS SUMMARY
NATIONAL WEATHER SERVICE MISSOULA MT
413 AM MST TUE MAR 3 2015

Montana AWOS Reports

MALTA       |KM75 031055Z AUTO 26007KT 40SM M14/M20 A3016 RMK AO1 T11381199






000
SXUS55 KMSO 031103
OSOMSO
MONTANA AWOS SUMMARY
NATIONAL WEATHER SERVICE MISSOULA MT
403 AM MST TUE MAR 3 2015

Montana AWOS Reports

LAUREL      |K6S8 031055Z AUTO 35007KT 15SM M11/M17 A3004 RMK AO1 T11101171
ROUNDUP     |KRPX 031055Z AUTO 35008KT 40SM M12/M18 A3001 RMK AO1 T11211182
SCOBEY      |K9S2 031055Z AUTO 30014G20KT 25SM M16/M22 A3004 RMK AO1 T11601221
TWIN BRIDGES|K7S1 031055Z AUTO 34018G24KT 25SM M12/M18 A2992 RMK AO1 T11211177






000
SXUS55 KMSO 031103
OSOMSO
MONTANA AWOS SUMMARY
NATIONAL WEATHER SERVICE MISSOULA MT
403 AM MST TUE MAR 3 2015

Montana AWOS Reports

LAUREL      |K6S8 031055Z AUTO 35007KT 15SM M11/M17 A3004 RMK AO1 T11101171
ROUNDUP     |KRPX 031055Z AUTO 35008KT 40SM M12/M18 A3001 RMK AO1 T11211182
SCOBEY      |K9S2 031055Z AUTO 30014G20KT 25SM M16/M22 A3004 RMK AO1 T11601221
TWIN BRIDGES|K7S1 031055Z AUTO 34018G24KT 25SM M12/M18 A2992 RMK AO1 T11211177






000
SXUS55 KMSO 031043
OSOMSO
MONTANA AWOS SUMMARY
NATIONAL WEATHER SERVICE MISSOULA MT
343 AM MST TUE MAR 3 2015

Montana AWOS Reports

LAUREL      |K6S8 031035Z AUTO 35006KT 10SM M11/M17 A3004 RMK AO1 T11051166
ROUNDUP     |KRPX 031035Z AUTO 36010G15KT 40SM M12/M18 A3000 RMK AO1 T11161182






000
SXUS55 KMSO 031024
OSOMSO
MONTANA AWOS SUMMARY
NATIONAL WEATHER SERVICE MISSOULA MT
323 AM MST TUE MAR 3 2015

Montana AWOS Reports

LAUREL      |K6S8 031015Z AUTO 36010KT 1SM M10/M14 A3004 RMK AO1 T10991143
ROUNDUP     |KRPX 031015Z AUTO 34011KT 40SM M12/M18 A3000 RMK AO1 T11161182
MALTA       |KM75 030955Z AUTO 26008KT 40SM M13/M19 A3015 RMK AO1 T11271193






000
SXUS55 KMSO 031024
OSOMSO
MONTANA AWOS SUMMARY
NATIONAL WEATHER SERVICE MISSOULA MT
323 AM MST TUE MAR 3 2015

Montana AWOS Reports

LAUREL      |K6S8 031015Z AUTO 36010KT 1SM M10/M14 A3004 RMK AO1 T10991143
ROUNDUP     |KRPX 031015Z AUTO 34011KT 40SM M12/M18 A3000 RMK AO1 T11161182
MALTA       |KM75 030955Z AUTO 26008KT 40SM M13/M19 A3015 RMK AO1 T11271193






000
SXUS55 KMSO 031013
OSOMSO
MONTANA AWOS SUMMARY
NATIONAL WEATHER SERVICE MISSOULA MT
313 AM MST TUE MAR 3 2015

Montana AWOS Reports

SCOBEY      |K9S2 030955Z AUTO 30015G19KT 25SM M16/M22 A3003 RMK AO1 T11551216
TWIN BRIDGES|K7S1 030955Z AUTO 34017G27KT 15SM M11/M16 A2990 RMK AO1 T11051155






000
SXUS55 KMSO 031013
OSOMSO
MONTANA AWOS SUMMARY
NATIONAL WEATHER SERVICE MISSOULA MT
313 AM MST TUE MAR 3 2015

Montana AWOS Reports

SCOBEY      |K9S2 030955Z AUTO 30015G19KT 25SM M16/M22 A3003 RMK AO1 T11551216
TWIN BRIDGES|K7S1 030955Z AUTO 34017G27KT 15SM M11/M16 A2990 RMK AO1 T11051155






000
SXUS55 KMSO 031003
OSOMSO
MONTANA AWOS SUMMARY
NATIONAL WEATHER SERVICE MISSOULA MT
302 AM MST TUE MAR 3 2015

Montana AWOS Reports

LAUREL      |K6S8 030955Z AUTO 00000KT 2SM M09/M13 A3003 RMK AO1 T10931132
ROUNDUP     |KRPX 030955Z AUTO 35010G14KT 40SM M12/M19 A2999 RMK AO1 T11161188






000
SXUS55 KMSO 031003
OSOMSO
MONTANA AWOS SUMMARY
NATIONAL WEATHER SERVICE MISSOULA MT
302 AM MST TUE MAR 3 2015

Montana AWOS Reports

LAUREL      |K6S8 030955Z AUTO 00000KT 2SM M09/M13 A3003 RMK AO1 T10931132
ROUNDUP     |KRPX 030955Z AUTO 35010G14KT 40SM M12/M19 A2999 RMK AO1 T11161188






000
SXUS55 KMSO 030943
OSOMSO
MONTANA AWOS SUMMARY
NATIONAL WEATHER SERVICE MISSOULA MT
243 AM MST TUE MAR 3 2015

Montana AWOS Reports

LAUREL      |K6S8 030935Z AUTO 00000KT 1 3/4SM M09/M13 A3003 RMK AO1 T10931132
ROUNDUP     |KRPX 030935Z AUTO 34009G16KT 40SM M11/M19 A3000 RMK AO1 T11101188






000
SXUS55 KMSO 030923
OSOMSO
MONTANA AWOS SUMMARY
NATIONAL WEATHER SERVICE MISSOULA MT
223 AM MST TUE MAR 3 2015

Montana AWOS Reports

LAUREL      |K6S8 030915Z AUTO 00000KT 1 1/2SM M09/M13 A3003 RMK AO1 T10931132
ROUNDUP     |KRPX 030915Z AUTO 34010G16KT 40SM M11/M19 A3000 RMK AO1 T11101188






000
SXUS55 KMSO 030903
OSOMSO
MONTANA AWOS SUMMARY
NATIONAL WEATHER SERVICE MISSOULA MT
202 AM MST TUE MAR 3 2015

Montana AWOS Reports

SCOBEY      |K9S2 030855Z AUTO 31010G16KT 25SM M15/M21 A3002 RMK AO1 T11491205
MALTA       |KM75 030855Z AUTO 29008KT 40SM M12/M20 A3015 RMK AO1 T11211199
TWIN BRIDGES|K7S1 030855Z AUTO 34020G28KT 15SM M10/M14 A2989 RMK AO1 T10991143






000
SXUS55 KMSO 030843
OSOMSO
MONTANA AWOS SUMMARY
NATIONAL WEATHER SERVICE MISSOULA MT
143 AM MST TUE MAR 3 2015

Montana AWOS Reports

LAUREL      |K6S8 030835Z AUTO 00000KT 1 1/2SM M09/M14 A3003 RMK AO1 T10931138
ROUNDUP     |KRPX 030835Z AUTO 34012G20KT 40SM M10/M18 A2998 RMK AO1 T10991182






000
SXUS55 KMSO 030843
OSOMSO
MONTANA AWOS SUMMARY
NATIONAL WEATHER SERVICE MISSOULA MT
143 AM MST TUE MAR 3 2015

Montana AWOS Reports

LAUREL      |K6S8 030835Z AUTO 00000KT 1 1/2SM M09/M14 A3003 RMK AO1 T10931138
ROUNDUP     |KRPX 030835Z AUTO 34012G20KT 40SM M10/M18 A2998 RMK AO1 T10991182






000
SXUS55 KMSO 030823
OSOMSO
MONTANA AWOS SUMMARY
NATIONAL WEATHER SERVICE MISSOULA MT
123 AM MST TUE MAR 3 2015

Montana AWOS Reports

LAUREL      |K6S8 030815Z AUTO 02004KT 1 1/2SM M09/M14 A3002 RMK AO1 T10931138
ROUNDUP     |KRPX 030815Z AUTO 34011G21KT 40SM M09/M16 A2998 RMK AO1 T10931160






000
SXUS55 KMSO 030823
OSOMSO
MONTANA AWOS SUMMARY
NATIONAL WEATHER SERVICE MISSOULA MT
123 AM MST TUE MAR 3 2015

Montana AWOS Reports

LAUREL      |K6S8 030815Z AUTO 02004KT 1 1/2SM M09/M14 A3002 RMK AO1 T10931138
ROUNDUP     |KRPX 030815Z AUTO 34011G21KT 40SM M09/M16 A2998 RMK AO1 T10931160






000
SXUS55 KMSO 030803
OSOMSO
MONTANA AWOS SUMMARY
NATIONAL WEATHER SERVICE MISSOULA MT
103 AM MST TUE MAR 3 2015

Montana AWOS Reports

LAUREL      |K6S8 030755Z AUTO 01007KT 2SM M09/M14 A3002 RMK AO1 T10931143
ROUNDUP     |KRPX 030755Z AUTO 34011G17KT 15SM M09/M14 A2997 RMK AO1 T10881138
SCOBEY      |K9S2 030755Z AUTO 31014KT 25SM M14/M20 A3003 RMK AO1 T11431199
TWIN BRIDGES|K7S1 030755Z AUTO 34021G28KT 10SM M10/M14 A2988 RMK AO1 T10991143






000
SXUS55 KMSO 030803
OSOMSO
MONTANA AWOS SUMMARY
NATIONAL WEATHER SERVICE MISSOULA MT
103 AM MST TUE MAR 3 2015

Montana AWOS Reports

LAUREL      |K6S8 030755Z AUTO 01007KT 2SM M09/M14 A3002 RMK AO1 T10931143
ROUNDUP     |KRPX 030755Z AUTO 34011G17KT 15SM M09/M14 A2997 RMK AO1 T10881138
SCOBEY      |K9S2 030755Z AUTO 31014KT 25SM M14/M20 A3003 RMK AO1 T11431199
TWIN BRIDGES|K7S1 030755Z AUTO 34021G28KT 10SM M10/M14 A2988 RMK AO1 T10991143






000
SXUS55 KMSO 030743
OSOMSO
MONTANA AWOS SUMMARY
NATIONAL WEATHER SERVICE MISSOULA MT
1243 AM MST TUE MAR 3 2015

Montana AWOS Reports

LAUREL      |K6S8 030735Z AUTO 01009G13KT 5SM M09/M13 A3001 RMK AO1 T10881132
ROUNDUP     |KRPX 030735Z AUTO 34009G13KT 40SM M09/M14 A2996 RMK AO1 T10881143






000
SXUS55 KMSO 030743
OSOMSO
MONTANA AWOS SUMMARY
NATIONAL WEATHER SERVICE MISSOULA MT
1243 AM MST TUE MAR 3 2015

Montana AWOS Reports

LAUREL      |K6S8 030735Z AUTO 01009G13KT 5SM M09/M13 A3001 RMK AO1 T10881132
ROUNDUP     |KRPX 030735Z AUTO 34009G13KT 40SM M09/M14 A2996 RMK AO1 T10881143






000
SXUS55 KMSO 030723
OSOMSO
MONTANA AWOS SUMMARY
NATIONAL WEATHER SERVICE MISSOULA MT
1223 AM MST TUE MAR 3 2015

Montana AWOS Reports

LAUREL      |K6S8 030715Z AUTO 01007KT 3SM M09/M13 A3001 RMK AO1 T10881127
ROUNDUP     |KRPX 030715Z AUTO 34011G16KT 40SM M09/M14 A2995 RMK AO1 T10881143






000
SXUS55 KMSO 030723
OSOMSO
MONTANA AWOS SUMMARY
NATIONAL WEATHER SERVICE MISSOULA MT
1223 AM MST TUE MAR 3 2015

Montana AWOS Reports

LAUREL      |K6S8 030715Z AUTO 01007KT 3SM M09/M13 A3001 RMK AO1 T10881127
ROUNDUP     |KRPX 030715Z AUTO 34011G16KT 40SM M09/M14 A2995 RMK AO1 T10881143






000
SXUS55 KMSO 030713
OSOMSO
MONTANA AWOS SUMMARY
NATIONAL WEATHER SERVICE MISSOULA MT
1212 AM MST TUE MAR 3 2015

Montana AWOS Reports

SCOBEY      |K9S2 030655Z AUTO 33016KT 10SM M13/M20 A3001 RMK AO1 T11321199
MALTA       |KM75 030655Z AUTO 30013G17KT 40SM M11/M20 A3014 RMK AO1 T11051199






000
SXUS55 KMSO 030713
OSOMSO
MONTANA AWOS SUMMARY
NATIONAL WEATHER SERVICE MISSOULA MT
1212 AM MST TUE MAR 3 2015

Montana AWOS Reports

SCOBEY      |K9S2 030655Z AUTO 33016KT 10SM M13/M20 A3001 RMK AO1 T11321199
MALTA       |KM75 030655Z AUTO 30013G17KT 40SM M11/M20 A3014 RMK AO1 T11051199






000
SXUS55 KMSO 030703
OSOMSO
MONTANA AWOS SUMMARY
NATIONAL WEATHER SERVICE MISSOULA MT
1203 AM MST TUE MAR 3 2015

Montana AWOS Reports

LAUREL      |K6S8 030655Z AUTO 01006KT 3 1/2SM M09/M13 A3000 RMK AO1 T10881127
ROUNDUP     |KRPX 030655Z AUTO 34010G16KT 40SM M09/M14 A2995 RMK AO1 T10881138
TWIN BRIDGES|K7S1 030655Z AUTO 34021G26KT 300V020 3 1/2SM M09/M14 A2986 RMK AO1 T10931143






000
SXUS55 KMSO 030703
OSOMSO
MONTANA AWOS SUMMARY
NATIONAL WEATHER SERVICE MISSOULA MT
1203 AM MST TUE MAR 3 2015

Montana AWOS Reports

LAUREL      |K6S8 030655Z AUTO 01006KT 3 1/2SM M09/M13 A3000 RMK AO1 T10881127
ROUNDUP     |KRPX 030655Z AUTO 34010G16KT 40SM M09/M14 A2995 RMK AO1 T10881138
TWIN BRIDGES|K7S1 030655Z AUTO 34021G26KT 300V020 3 1/2SM M09/M14 A2986 RMK AO1 T10931143






000
SXUS55 KMSO 030643
OSOMSO
MONTANA AWOS SUMMARY
NATIONAL WEATHER SERVICE MISSOULA MT
1143 PM MST MON MAR 2 2015

Montana AWOS Reports

LAUREL      |K6S8 030635Z AUTO 01004KT 3 1/2SM M09/M13 A3000 RMK AO1 T10881132
ROUNDUP     |KRPX 030635Z AUTO 36013G19KT 15SM M09/M14 A2995 RMK AO1 T10881138






000
SXUS55 KMSO 030643
OSOMSO
MONTANA AWOS SUMMARY
NATIONAL WEATHER SERVICE MISSOULA MT
1143 PM MST MON MAR 2 2015

Montana AWOS Reports

LAUREL      |K6S8 030635Z AUTO 01004KT 3 1/2SM M09/M13 A3000 RMK AO1 T10881132
ROUNDUP     |KRPX 030635Z AUTO 36013G19KT 15SM M09/M14 A2995 RMK AO1 T10881138






000
SXUS55 KMSO 030623
OSOMSO
MONTANA AWOS SUMMARY
NATIONAL WEATHER SERVICE MISSOULA MT
1123 PM MST MON MAR 2 2015

Montana AWOS Reports

ROUNDUP     |KRPX 030615Z AUTO 34016KT 15SM M09/M13 A2994 RMK AO1 T10881132
LAUREL      |K6S8 030615Z AUTO 36008KT 1 3/4SM M09/M13 A2999 RMK AO1 T10881127






000
SXUS55 KMSO 030623
OSOMSO
MONTANA AWOS SUMMARY
NATIONAL WEATHER SERVICE MISSOULA MT
1123 PM MST MON MAR 2 2015

Montana AWOS Reports

ROUNDUP     |KRPX 030615Z AUTO 34016KT 15SM M09/M13 A2994 RMK AO1 T10881132
LAUREL      |K6S8 030615Z AUTO 36008KT 1 3/4SM M09/M13 A2999 RMK AO1 T10881127






000
SXUS55 KMSO 030614
OSOMSO
MONTANA AWOS SUMMARY
NATIONAL WEATHER SERVICE MISSOULA MT
1113 PM MST MON MAR 2 2015

Montana AWOS Reports

MALTA       |KM75 030555Z AUTO 33013G19KT 40SM M08/M16 A3009 RMK AO1 T10821160






000
SXUS55 KMSO 030614
OSOMSO
MONTANA AWOS SUMMARY
NATIONAL WEATHER SERVICE MISSOULA MT
1113 PM MST MON MAR 2 2015

Montana AWOS Reports

MALTA       |KM75 030555Z AUTO 33013G19KT 40SM M08/M16 A3009 RMK AO1 T10821160






000
SXUS55 KMSO 030603
OSOMSO
MONTANA AWOS SUMMARY
NATIONAL WEATHER SERVICE MISSOULA MT
1103 PM MST MON MAR 2 2015

Montana AWOS Reports

LAUREL      |K6S8 030555Z AUTO 36012G17KT 1 3/4SM M09/M13 A2998 RMK AO1 T10881132
ROUNDUP     |KRPX 030555Z AUTO 34008KT 1SM M08/M12 A2994 RMK AO1 T10821121
SCOBEY      |K9S2 030555Z AUTO 32021KT 25SM M12/M19 A3000 RMK AO1 T11211193






000
SXUS55 KMSO 030603
OSOMSO
MONTANA AWOS SUMMARY
NATIONAL WEATHER SERVICE MISSOULA MT
1103 PM MST MON MAR 2 2015

Montana AWOS Reports

LAUREL      |K6S8 030555Z AUTO 36012G17KT 1 3/4SM M09/M13 A2998 RMK AO1 T10881132
ROUNDUP     |KRPX 030555Z AUTO 34008KT 1SM M08/M12 A2994 RMK AO1 T10821121
SCOBEY      |K9S2 030555Z AUTO 32021KT 25SM M12/M19 A3000 RMK AO1 T11211193






000
SXUS55 KMSO 030543
OSOMSO
MONTANA AWOS SUMMARY
NATIONAL WEATHER SERVICE MISSOULA MT
1043 PM MST MON MAR 2 2015

Montana AWOS Reports

ROUNDUP     |KRPX 030535Z AUTO 17012G17KT 080V260 3SM M08/M13 A2993 RMK AO1 T10821127
LAUREL      |K6S8 030535Z AUTO 34013G19KT 3/4SM M07/M11 A2998 RMK AO1 T10711110






000
SXUS55 KMSO 030543
OSOMSO
MONTANA AWOS SUMMARY
NATIONAL WEATHER SERVICE MISSOULA MT
1043 PM MST MON MAR 2 2015

Montana AWOS Reports

ROUNDUP     |KRPX 030535Z AUTO 17012G17KT 080V260 3SM M08/M13 A2993 RMK AO1 T10821127
LAUREL      |K6S8 030535Z AUTO 34013G19KT 3/4SM M07/M11 A2998 RMK AO1 T10711110






000
SXUS55 KMSO 030523
OSOMSO
MONTANA AWOS SUMMARY
NATIONAL WEATHER SERVICE MISSOULA MT
1023 PM MST MON MAR 2 2015

Montana AWOS Reports

ROUNDUP     |KRPX 030515Z AUTO 34018KT 7SM M08/M13 A2992 RMK AO1 T10821132
LAUREL      |K6S8 030515Z AUTO 35007KT 3/4SM M07/M13 A2997 RMK AO1 T10711127






000
SXUS55 KMSO 030514
OSOMSO
MONTANA AWOS SUMMARY
NATIONAL WEATHER SERVICE MISSOULA MT
1013 PM MST MON MAR 2 2015

Montana AWOS Reports

SCOBEY      |K9S2 030455Z AUTO 33020G26KT 7SM M12/M17 A2996 RMK AO1 T11161171
MALTA       |KM75 030455Z AUTO 32009G19KT 40SM M08/M16 A3006 RMK AO1 T10771155
TWIN BRIDGES|K7S1 030455Z AUTO 34023G31KT 2 1/2SM M08/M13 A2980 RMK AO1 T10821132






000
SXUS55 KMSO 030514
OSOMSO
MONTANA AWOS SUMMARY
NATIONAL WEATHER SERVICE MISSOULA MT
1013 PM MST MON MAR 2 2015

Montana AWOS Reports

SCOBEY      |K9S2 030455Z AUTO 33020G26KT 7SM M12/M17 A2996 RMK AO1 T11161171
MALTA       |KM75 030455Z AUTO 32009G19KT 40SM M08/M16 A3006 RMK AO1 T10771155
TWIN BRIDGES|K7S1 030455Z AUTO 34023G31KT 2 1/2SM M08/M13 A2980 RMK AO1 T10821132






000
SXUS55 KMSO 030503
OSOMSO
MONTANA AWOS SUMMARY
NATIONAL WEATHER SERVICE MISSOULA MT
1003 PM MST MON MAR 2 2015

Montana AWOS Reports

LAUREL      |K6S8 030455Z AUTO 36007KT 1 1/2SM M07/M11 A2996 RMK AO1 T10661105
ROUNDUP     |KRPX 030455Z AUTO 17015G21KT 080V260 15SM M08/M13 A2991 RMK AO1 T10771127






000
SXUS55 KMSO 030503
OSOMSO
MONTANA AWOS SUMMARY
NATIONAL WEATHER SERVICE MISSOULA MT
1003 PM MST MON MAR 2 2015

Montana AWOS Reports

LAUREL      |K6S8 030455Z AUTO 36007KT 1 1/2SM M07/M11 A2996 RMK AO1 T10661105
ROUNDUP     |KRPX 030455Z AUTO 17015G21KT 080V260 15SM M08/M13 A2991 RMK AO1 T10771127






000
SXUS55 KMSO 030443
OSOMSO
MONTANA AWOS SUMMARY
NATIONAL WEATHER SERVICE MISSOULA MT
942 PM MST MON MAR 2 2015

Montana AWOS Reports

LAUREL      |K6S8 030435Z AUTO 35007KT 3/4SM M06/M10 A2994 RMK AO1 T10601099
ROUNDUP     |KRPX 030435Z AUTO 36013G21KT 7SM M08/M12 A2990 RMK AO1 T10771121






000
SXUS55 KMSO 030443
OSOMSO
MONTANA AWOS SUMMARY
NATIONAL WEATHER SERVICE MISSOULA MT
942 PM MST MON MAR 2 2015

Montana AWOS Reports

LAUREL      |K6S8 030435Z AUTO 35007KT 3/4SM M06/M10 A2994 RMK AO1 T10601099
ROUNDUP     |KRPX 030435Z AUTO 36013G21KT 7SM M08/M12 A2990 RMK AO1 T10771121






000
SXUS55 KMSO 030423
OSOMSO
MONTANA AWOS SUMMARY
NATIONAL WEATHER SERVICE MISSOULA MT
923 PM MST MON MAR 2 2015

Montana AWOS Reports

LAUREL      |K6S8 030415Z AUTO 36008KT 1 1/4SM M06/M10 A2993 RMK AO1 T10601099
ROUNDUP     |KRPX 030415Z AUTO 34011G19KT 5SM M08/M12 A2988 RMK AO1 T10771121






000
SXUS55 KMSO 030423
OSOMSO
MONTANA AWOS SUMMARY
NATIONAL WEATHER SERVICE MISSOULA MT
923 PM MST MON MAR 2 2015

Montana AWOS Reports

LAUREL      |K6S8 030415Z AUTO 36008KT 1 1/4SM M06/M10 A2993 RMK AO1 T10601099
ROUNDUP     |KRPX 030415Z AUTO 34011G19KT 5SM M08/M12 A2988 RMK AO1 T10771121






000
SXUS55 KMSO 030413
OSOMSO
MONTANA AWOS SUMMARY
NATIONAL WEATHER SERVICE MISSOULA MT
913 PM MST MON MAR 2 2015

Montana AWOS Reports

TWIN BRIDGES|K7S1 030355Z AUTO 35023G33KT 40SM M07/M15 A2976 RMK AO1 T10661149
SCOBEY      |K9S2 030355Z AUTO 33021G29KT 15SM M11/M17 A2993 RMK AO1 T11101171
MALTA       |KM75 030355Z AUTO 32006KT 40SM M06/M13 A3002 RMK AO1 T10601127






000
SXUS55 KMSO 030403
OSOMSO
MONTANA AWOS SUMMARY
NATIONAL WEATHER SERVICE MISSOULA MT
903 PM MST MON MAR 2 2015

Montana AWOS Reports

LAUREL      |K6S8 030355Z AUTO 36010KT 1SM M06/M09 A2990 RMK AO1 T10551093
ROUNDUP     |KRPX 030355Z AUTO 34016G27KT 5SM M08/M13 A2987 RMK AO1 T10771127






000
SXUS55 KMSO 030343
OSOMSO
MONTANA AWOS SUMMARY
NATIONAL WEATHER SERVICE MISSOULA MT
843 PM MST MON MAR 2 2015

Montana AWOS Reports

ROUNDUP     |KRPX 030335Z AUTO 34016G23KT 25SM M07/M13 A2986 RMK AO1 T10711127
LAUREL      |K6S8 030335Z AUTO 35012G16KT 1 1/2SM M05/M10 A2988 RMK AO1 T10491099






000
SXUS55 KMSO 030323
OSOMSO
MONTANA AWOS SUMMARY
NATIONAL WEATHER SERVICE MISSOULA MT
822 PM MST MON MAR 2 2015

Montana AWOS Reports

LAUREL      |K6S8 030315Z AUTO 36014G21KT 2SM M04/M11 A2988 RMK AO1 T10431105
ROUNDUP     |KRPX 030315Z AUTO 34021G27KT 40SM M07/M13 A2985 RMK AO1 T10661132






000
SXUS55 KMSO 030313
OSOMSO
MONTANA AWOS SUMMARY
NATIONAL WEATHER SERVICE MISSOULA MT
813 PM MST MON MAR 2 2015

Montana AWOS Reports

TWIN BRIDGES|K7S1 030255Z AUTO 35024G34KT 40SM M06/M14 A2973 RMK AO1 T10601143
MALTA       |KM75 030255Z AUTO 32009G15KT 40SM M06/M13 A3002 RMK AO1 T10601132






000
SXUS55 KMSO 030313
OSOMSO
MONTANA AWOS SUMMARY
NATIONAL WEATHER SERVICE MISSOULA MT
813 PM MST MON MAR 2 2015

Montana AWOS Reports

TWIN BRIDGES|K7S1 030255Z AUTO 35024G34KT 40SM M06/M14 A2973 RMK AO1 T10601143
MALTA       |KM75 030255Z AUTO 32009G15KT 40SM M06/M13 A3002 RMK AO1 T10601132






000
SXUS55 KMSO 030303
OSOMSO
MONTANA AWOS SUMMARY
NATIONAL WEATHER SERVICE MISSOULA MT
802 PM MST MON MAR 2 2015

Montana AWOS Reports

LAUREL      |K6S8 030255Z AUTO 36015G20KT 4SM M04/M11 A2987 RMK AO1 T10381105
ROUNDUP     |KRPX 030255Z AUTO 34018G26KT 40SM M06/M13 A2984 RMK AO1 T10551127
SCOBEY      |K9S2 030255Z AUTO 31022G26KT 10SM M09/M15 A2992 RMK AO1 T10931149






000
SXUS55 KMSO 030243
OSOMSO
MONTANA AWOS SUMMARY
NATIONAL WEATHER SERVICE MISSOULA MT
743 PM MST MON MAR 2 2015

Montana AWOS Reports

ROUNDUP     |KRPX 030235Z AUTO 34015G26KT 40SM M06/M12 A2983 RMK AO1 T10551121
LAUREL      |K6S8 030235Z AUTO 01012G18KT 5SM M03/M10 A2987 RMK AO1 T10271099






000
SXUS55 KMSO 030243
OSOMSO
MONTANA AWOS SUMMARY
NATIONAL WEATHER SERVICE MISSOULA MT
743 PM MST MON MAR 2 2015

Montana AWOS Reports

ROUNDUP     |KRPX 030235Z AUTO 34015G26KT 40SM M06/M12 A2983 RMK AO1 T10551121
LAUREL      |K6S8 030235Z AUTO 01012G18KT 5SM M03/M10 A2987 RMK AO1 T10271099






000
SXUS55 KMSO 030223
OSOMSO
MONTANA AWOS SUMMARY
NATIONAL WEATHER SERVICE MISSOULA MT
722 PM MST MON MAR 2 2015

Montana AWOS Reports

LAUREL      |K6S8 030215Z AUTO 01012G18KT 25SM M02/M09 A2986 RMK AO1 T10211093
ROUNDUP     |KRPX 030215Z AUTO 34016G24KT 40SM M06/M12 A2983 RMK AO1 T10551121






000
SXUS55 KMSO 030213
OSOMSO
MONTANA AWOS SUMMARY
NATIONAL WEATHER SERVICE MISSOULA MT
713 PM MST MON MAR 2 2015

Montana AWOS Reports

SCOBEY      |K9S2 030155Z AUTO 33022G27KT 25SM M09/M16 A2990 RMK AO1 T10931155
MALTA       |KM75 030155Z AUTO 33012G23KT 40SM M06/M15 A3000 RMK AO1 T10601149






000
SXUS55 KMSO 030203
OSOMSO
MONTANA AWOS SUMMARY
NATIONAL WEATHER SERVICE MISSOULA MT
703 PM MST MON MAR 2 2015

Montana AWOS Reports

LAUREL      |K6S8 030155Z AUTO 34017KT 40SM M02/M10 A2984 RMK AO1 T10161099
ROUNDUP     |KRPX 030155Z AUTO 34023G27KT 40SM M05/M12 A2982 RMK AO1 T10491121
TWIN BRIDGES|K7S1 030155Z AUTO 35026G33KT 40SM M04/M12 A2971 RMK AO1 T10381121






000
SXUS55 KMSO 030153
OSOMSO
MONTANA AWOS SUMMARY
NATIONAL WEATHER SERVICE MISSOULA MT
653 PM MST MON MAR 2 2015

Montana AWOS Reports

LAUREL      |K6S8 030135Z AUTO 36013G19KT 40SM M01/M10 A2983 RMK AO1 T10101099






000
SXUS55 KMSO 030153
OSOMSO
MONTANA AWOS SUMMARY
NATIONAL WEATHER SERVICE MISSOULA MT
653 PM MST MON MAR 2 2015

Montana AWOS Reports

LAUREL      |K6S8 030135Z AUTO 36013G19KT 40SM M01/M10 A2983 RMK AO1 T10101099






000
SXUS55 KMSO 030143
OSOMSO
MONTANA AWOS SUMMARY
NATIONAL WEATHER SERVICE MISSOULA MT
642 PM MST MON MAR 2 2015

Montana AWOS Reports

ROUNDUP     |KRPX 030135Z AUTO 34022G30KT 40SM M04/M11 A2981 RMK AO1 T10431110






000
SXUS55 KMSO 030143
OSOMSO
MONTANA AWOS SUMMARY
NATIONAL WEATHER SERVICE MISSOULA MT
642 PM MST MON MAR 2 2015

Montana AWOS Reports

ROUNDUP     |KRPX 030135Z AUTO 34022G30KT 40SM M04/M11 A2981 RMK AO1 T10431110






000
SXUS55 KMSO 030123
OSOMSO
MONTANA AWOS SUMMARY
NATIONAL WEATHER SERVICE MISSOULA MT
623 PM MST MON MAR 2 2015

Montana AWOS Reports

ROUNDUP     |KRPX 030115Z AUTO 34021G26KT 40SM M04/M09 A2980 RMK AO1 T10381093
LAUREL      |K6S8 030115Z AUTO 01016G22KT 40SM M01/M10 A2982 RMK AO1 T10051099






000
SXUS55 KMSO 030113
OSOMSO
MONTANA AWOS SUMMARY
NATIONAL WEATHER SERVICE MISSOULA MT
613 PM MST MON MAR 2 2015

Montana AWOS Reports

SCOBEY      |K9S2 030055Z AUTO 33018G24KT 10SM M08/M13 A2986 RMK AO1 T10771127
MALTA       |KM75 030055Z AUTO 33012G21KT 40SM M06/M14 A2998 RMK AO1 T10551138






000
SXUS55 KMSO 030103
OSOMSO
MONTANA AWOS SUMMARY
NATIONAL WEATHER SERVICE MISSOULA MT
602 PM MST MON MAR 2 2015

Montana AWOS Reports

ROUNDUP     |KRPX 030055Z AUTO 34012G25KT 40SM M03/M09 A2979 RMK AO1 T10321088
LAUREL      |K6S8 030055Z AUTO 35011G17KT 40SM 00/M11 A2981 RMK AO1 T00001105
TWIN BRIDGES|K7S1 030055Z AUTO 34022G28KT 40SM M02/M12 A2970 RMK AO1 T10211116






000
SXUS55 KMSO 030103
OSOMSO
MONTANA AWOS SUMMARY
NATIONAL WEATHER SERVICE MISSOULA MT
602 PM MST MON MAR 2 2015

Montana AWOS Reports

ROUNDUP     |KRPX 030055Z AUTO 34012G25KT 40SM M03/M09 A2979 RMK AO1 T10321088
LAUREL      |K6S8 030055Z AUTO 35011G17KT 40SM 00/M11 A2981 RMK AO1 T00001105
TWIN BRIDGES|K7S1 030055Z AUTO 34022G28KT 40SM M02/M12 A2970 RMK AO1 T10211116






000
SXUS55 KMSO 030043
OSOMSO
MONTANA AWOS SUMMARY
NATIONAL WEATHER SERVICE MISSOULA MT
543 PM MST MON MAR 2 2015

Montana AWOS Reports

LAUREL      |K6S8 030035Z AUTO 36014G20KT 40SM 01/M10 A2979 RMK AO1 T00111099
ROUNDUP     |KRPX 030035Z AUTO 34014G26KT 40SM M02/M08 A2978 RMK AO1 T10211077






000
SXUS55 KMSO 030043
OSOMSO
MONTANA AWOS SUMMARY
NATIONAL WEATHER SERVICE MISSOULA MT
543 PM MST MON MAR 2 2015

Montana AWOS Reports

LAUREL      |K6S8 030035Z AUTO 36014G20KT 40SM 01/M10 A2979 RMK AO1 T00111099
ROUNDUP     |KRPX 030035Z AUTO 34014G26KT 40SM M02/M08 A2978 RMK AO1 T10211077






000
SXUS55 KMSO 030024
OSOMSO
MONTANA AWOS SUMMARY
NATIONAL WEATHER SERVICE MISSOULA MT
523 PM MST MON MAR 2 2015

Montana AWOS Reports

ROUNDUP     |KRPX 030015Z AUTO 34016G23KT 40SM M02/M09 A2977 RMK AO1 T10161088
LAUREL      |K6S8 030015Z AUTO 34012G17KT 40SM 02/M10 A2978 RMK AO1 T00221099






000
SXUS55 KMSO 030004
OSOMSO
MONTANA AWOS SUMMARY
NATIONAL WEATHER SERVICE MISSOULA MT
503 PM MST MON MAR 2 2015

Montana AWOS Reports

LAUREL      |K6S8 022355Z AUTO 36013KT 40SM 03/M11 A2977 RMK AO1 T00281105
ROUNDUP     |KRPX 022355Z AUTO 33017G26KT 40SM 00/M08 A2975 RMK AO1 T00001082
SCOBEY      |K9S2 022355Z AUTO 34020G24KT 3 1/2SM M08/M13 A2983 RMK AO1 T10771132
MALTA       |KM75 022355Z AUTO 32014G22KT 40SM M04/M12 A2994 RMK AO1 T10381121
TWIN BRIDGES|K7S1 022355Z AUTO 36020G28KT 320V040 40SM 01/M12 A2969 RMK AO1 T00061116






000
SXUS55 KMSO 030004
OSOMSO
MONTANA AWOS SUMMARY
NATIONAL WEATHER SERVICE MISSOULA MT
503 PM MST MON MAR 2 2015

Montana AWOS Reports

LAUREL      |K6S8 022355Z AUTO 36013KT 40SM 03/M11 A2977 RMK AO1 T00281105
ROUNDUP     |KRPX 022355Z AUTO 33017G26KT 40SM 00/M08 A2975 RMK AO1 T00001082
SCOBEY      |K9S2 022355Z AUTO 34020G24KT 3 1/2SM M08/M13 A2983 RMK AO1 T10771132
MALTA       |KM75 022355Z AUTO 32014G22KT 40SM M04/M12 A2994 RMK AO1 T10381121
TWIN BRIDGES|K7S1 022355Z AUTO 36020G28KT 320V040 40SM 01/M12 A2969 RMK AO1 T00061116






000
SXUS55 KMSO 022343
OSOMSO
MONTANA AWOS SUMMARY
NATIONAL WEATHER SERVICE MISSOULA MT
442 PM MST MON MAR 2 2015

Montana AWOS Reports

LAUREL      |K6S8 022335Z AUTO 36014G18KT 40SM 04/M11 A2976 RMK AO1 T00391105
ROUNDUP     |KRPX 022335Z AUTO 34024G28KT 40SM 01/M08 A2974 RMK AO1 T00061082






000
SXUS55 KMSO 022343
OSOMSO
MONTANA AWOS SUMMARY
NATIONAL WEATHER SERVICE MISSOULA MT
442 PM MST MON MAR 2 2015

Montana AWOS Reports

LAUREL      |K6S8 022335Z AUTO 36014G18KT 40SM 04/M11 A2976 RMK AO1 T00391105
ROUNDUP     |KRPX 022335Z AUTO 34024G28KT 40SM 01/M08 A2974 RMK AO1 T00061082






000
SXUS55 KMSO 022333
OSOMSO
MONTANA AWOS SUMMARY
NATIONAL WEATHER SERVICE MISSOULA MT
433 PM MST MON MAR 2 2015

Montana AWOS Reports

SCOBEY      |K9S2 022255Z AUTO 31023G31KT 15SM M06/M12 A2982 RMK AO1 T10551116
MALTA       |KM75 022255Z AUTO 31013G20KT 40SM M02/M11 A2990 RMK AO1 T10211110






000
SXUS55 KMSO 022323
OSOMSO
MONTANA AWOS SUMMARY
NATIONAL WEATHER SERVICE MISSOULA MT
423 PM MST MON MAR 2 2015

Montana AWOS Reports

LAUREL      |K6S8 022315Z AUTO 36013G18KT 40SM 06/M12 A2975 RMK AO1 T00611116
ROUNDUP     |KRPX 022315Z AUTO 33018G24KT 40SM 01/M08 A2974 RMK AO1 T00111082






000
SXUS55 KMSO 022314
OSOMSO
MONTANA AWOS SUMMARY
NATIONAL WEATHER SERVICE MISSOULA MT
413 PM MST MON MAR 2 2015

Montana AWOS Reports

TWIN BRIDGES|K7S1 022255Z AUTO 34017G23KT 40SM 06/M14 A2969 RMK AO1 T00561138






000
SXUS55 KMSO 022314
OSOMSO
MONTANA AWOS SUMMARY
NATIONAL WEATHER SERVICE MISSOULA MT
413 PM MST MON MAR 2 2015

Montana AWOS Reports

TWIN BRIDGES|K7S1 022255Z AUTO 34017G23KT 40SM 06/M14 A2969 RMK AO1 T00561138






000
SXUS55 KMSO 022303
OSOMSO
MONTANA AWOS SUMMARY
NATIONAL WEATHER SERVICE MISSOULA MT
403 PM MST MON MAR 2 2015

Montana AWOS Reports

LAUREL      |K6S8 022255Z AUTO 35008KT 40SM 07/M12 A2975 RMK AO1 T00721116
ROUNDUP     |KRPX 022255Z AUTO 34021G27KT 40SM 02/M09 A2973 RMK AO1 T00171093






000
SXUS55 KMSO 022303
OSOMSO
MONTANA AWOS SUMMARY
NATIONAL WEATHER SERVICE MISSOULA MT
403 PM MST MON MAR 2 2015

Montana AWOS Reports

LAUREL      |K6S8 022255Z AUTO 35008KT 40SM 07/M12 A2975 RMK AO1 T00721116
ROUNDUP     |KRPX 022255Z AUTO 34021G27KT 40SM 02/M09 A2973 RMK AO1 T00171093






000
SXUS55 KMSO 022244
OSOMSO
MONTANA AWOS SUMMARY
NATIONAL WEATHER SERVICE MISSOULA MT
343 PM MST MON MAR 2 2015

Montana AWOS Reports

LAUREL      |K6S8 022235Z AUTO 00000KT 40SM 08/M13 A2974 RMK AO1 T00781132
ROUNDUP     |KRPX 022235Z AUTO 34022G27KT 40SM 02/M09 A2972 RMK AO1 T00171093






000
SXUS55 KMSO 022244
OSOMSO
MONTANA AWOS SUMMARY
NATIONAL WEATHER SERVICE MISSOULA MT
343 PM MST MON MAR 2 2015

Montana AWOS Reports

LAUREL      |K6S8 022235Z AUTO 00000KT 40SM 08/M13 A2974 RMK AO1 T00781132
ROUNDUP     |KRPX 022235Z AUTO 34022G27KT 40SM 02/M09 A2972 RMK AO1 T00171093






000
SXUS55 KMSO 022223
OSOMSO
MONTANA AWOS SUMMARY
NATIONAL WEATHER SERVICE MISSOULA MT
323 PM MST MON MAR 2 2015

Montana AWOS Reports

LAUREL      |K6S8 022215Z AUTO 00000KT 40SM 08/M13 A2973 RMK AO1 T00781132
ROUNDUP     |KRPX 022215Z AUTO 33019G24KT 40SM 02/M09 A2971 RMK AO1 T00221093






000
SXUS55 KMSO 022203
OSOMSO
MONTANA AWOS SUMMARY
NATIONAL WEATHER SERVICE MISSOULA MT
303 PM MST MON MAR 2 2015

Montana AWOS Reports

LAUREL      |K6S8 022155Z AUTO 00000KT 40SM 08/M13 A2973 RMK AO1 T00831127
SCOBEY      |K9S2 022155Z AUTO 31017G22KT 15SM M03/M09 A2978 RMK AO1 T10321093
TWIN BRIDGES|K7S1 022155Z AUTO 34008KT 40SM 06/M16 A2971 RMK AO1 T00611160






000
SXUS55 KMSO 022143
OSOMSO
MONTANA AWOS SUMMARY
NATIONAL WEATHER SERVICE MISSOULA MT
243 PM MST MON MAR 2 2015

Montana AWOS Reports

LAUREL      |K6S8 022135Z AUTO 00000KT 40SM 08/M13 A2975 RMK AO1 T00781132
ROUNDUP     |KRPX 022135Z AUTO 33017G27KT 40SM 03/M09 A2972 RMK AO1 T00281093






000
SXUS55 KMSO 022123
OSOMSO
MONTANA AWOS SUMMARY
NATIONAL WEATHER SERVICE MISSOULA MT
222 PM MST MON MAR 2 2015

Montana AWOS Reports

MALTA       |KM75 022055Z AUTO 31013G24KT 40SM 01/M08 A2982 RMK AO1 T00111082
LAUREL      |K6S8 022115Z AUTO 28004KT 40SM 08/M13 A2975 RMK AO1 T00781127
ROUNDUP     |KRPX 022115Z AUTO 32016G26KT 40SM 04/M10 A2971 RMK AO1 T00441099






000
SXUS55 KMSO 022113
OSOMSO
MONTANA AWOS SUMMARY
NATIONAL WEATHER SERVICE MISSOULA MT
213 PM MST MON MAR 2 2015

Montana AWOS Reports

SCOBEY      |K9S2 022055Z AUTO 29020G24KT 25SM 00/M09 A2974 RMK AO1 T00001088






000
SXUS55 KMSO 022113
OSOMSO
MONTANA AWOS SUMMARY
NATIONAL WEATHER SERVICE MISSOULA MT
213 PM MST MON MAR 2 2015

Montana AWOS Reports

SCOBEY      |K9S2 022055Z AUTO 29020G24KT 25SM 00/M09 A2974 RMK AO1 T00001088






000
SXUS55 KMSO 022103
OSOMSO
MONTANA AWOS SUMMARY
NATIONAL WEATHER SERVICE MISSOULA MT
202 PM MST MON MAR 2 2015

Montana AWOS Reports

LAUREL      |K6S8 022055Z AUTO 00000KT 40SM 07/M13 A2975 RMK AO1 T00671127
ROUNDUP     |KRPX 022055Z AUTO 33017G25KT 40SM 05/M11 A2972 RMK AO1 T00501105
TWIN BRIDGES|K7S1 022055Z AUTO 00000KT 40SM 05/M17 A2974 RMK AO1 T00501171






000
SXUS55 KMSO 022043
OSOMSO
MONTANA AWOS SUMMARY
NATIONAL WEATHER SERVICE MISSOULA MT
143 PM MST MON MAR 2 2015

Montana AWOS Reports

LAUREL      |K6S8 022035Z AUTO 00000KT 40SM 07/M13 A2977 RMK AO1 T00671127






000
SXUS55 KMSO 022043
OSOMSO
MONTANA AWOS SUMMARY
NATIONAL WEATHER SERVICE MISSOULA MT
143 PM MST MON MAR 2 2015

Montana AWOS Reports

LAUREL      |K6S8 022035Z AUTO 00000KT 40SM 07/M13 A2977 RMK AO1 T00671127






000
SXUS55 KMSO 022023
OSOMSO
MONTANA AWOS SUMMARY
NATIONAL WEATHER SERVICE MISSOULA MT
123 PM MST MON MAR 2 2015

Montana AWOS Reports

LAUREL      |K6S8 022015Z AUTO 00000KT 40SM 07/M12 A2977 RMK AO1 T00721116
ROUNDUP     |KRPX 022015Z AUTO 34009G14KT 40SM 06/M12 A2971 RMK AO1 T00561121






000
SXUS55 KMSO 022013
OSOMSO
MONTANA AWOS SUMMARY
NATIONAL WEATHER SERVICE MISSOULA MT
113 PM MST MON MAR 2 2015

Montana AWOS Reports

MALTA       |KM75 021955Z AUTO 30018G22KT 40SM 02/M07 A2981 RMK AO1 T00221071






000
SXUS55 KMSO 022013
OSOMSO
MONTANA AWOS SUMMARY
NATIONAL WEATHER SERVICE MISSOULA MT
113 PM MST MON MAR 2 2015

Montana AWOS Reports

MALTA       |KM75 021955Z AUTO 30018G22KT 40SM 02/M07 A2981 RMK AO1 T00221071






000
SXUS55 KMSO 022003
OSOMSO
MONTANA AWOS SUMMARY
NATIONAL WEATHER SERVICE MISSOULA MT
102 PM MST MON MAR 2 2015

Montana AWOS Reports

LAUREL      |K6S8 021955Z AUTO 00000KT 40SM 07/M12 A2977 RMK AO1 T00671121
ROUNDUP     |KRPX 021955Z AUTO 34011G17KT 40SM 06/M12 A2970 RMK AO1 T00561121
SCOBEY      |K9S2 021955Z AUTO 28016G25KT 40SM 01/M11 A2973 RMK AO1 T00111105
TWIN BRIDGES|K7S1 021955Z AUTO 00000KT 40SM 04/M16 A2974 RMK AO1 T00391160






000
SXUS55 KMSO 022003
OSOMSO
MONTANA AWOS SUMMARY
NATIONAL WEATHER SERVICE MISSOULA MT
102 PM MST MON MAR 2 2015

Montana AWOS Reports

LAUREL      |K6S8 021955Z AUTO 00000KT 40SM 07/M12 A2977 RMK AO1 T00671121
ROUNDUP     |KRPX 021955Z AUTO 34011G17KT 40SM 06/M12 A2970 RMK AO1 T00561121
SCOBEY      |K9S2 021955Z AUTO 28016G25KT 40SM 01/M11 A2973 RMK AO1 T00111105
TWIN BRIDGES|K7S1 021955Z AUTO 00000KT 40SM 04/M16 A2974 RMK AO1 T00391160






000
SXUS55 KMSO 021943
OSOMSO
MONTANA AWOS SUMMARY
NATIONAL WEATHER SERVICE MISSOULA MT
1243 PM MST MON MAR 2 2015

Montana AWOS Reports

LAUREL      |K6S8 021935Z AUTO 23004KT 40SM 07/M12 A2978 RMK AO1 T00671116
ROUNDUP     |KRPX 021935Z AUTO 34013G18KT 40SM 05/M13 A2972 RMK AO1 T00501127






000
SXUS55 KMSO 021923
OSOMSO
MONTANA AWOS SUMMARY
NATIONAL WEATHER SERVICE MISSOULA MT
1223 PM MST MON MAR 2 2015

Montana AWOS Reports

LAUREL      |K6S8 021915Z AUTO 00000KT 40SM 07/M11 A2977 RMK AO1 T00671110
ROUNDUP     |KRPX 021915Z AUTO 34009G14KT 40SM 05/M13 A2973 RMK AO1 T00501127






000
SXUS55 KMSO 021923
OSOMSO
MONTANA AWOS SUMMARY
NATIONAL WEATHER SERVICE MISSOULA MT
1223 PM MST MON MAR 2 2015

Montana AWOS Reports

LAUREL      |K6S8 021915Z AUTO 00000KT 40SM 07/M11 A2977 RMK AO1 T00671110
ROUNDUP     |KRPX 021915Z AUTO 34009G14KT 40SM 05/M13 A2973 RMK AO1 T00501127






000
SXUS55 KMSO 021913
OSOMSO
MONTANA AWOS SUMMARY
NATIONAL WEATHER SERVICE MISSOULA MT
1213 PM MST MON MAR 2 2015

Montana AWOS Reports

TWIN BRIDGES|K7S1 021855Z AUTO 00000KT 40SM 02/M17 A2980 RMK AO1 T00171171
MALTA       |KM75 021855Z AUTO 29011G19KT 40SM 02/M08 A2979 RMK AO1 T00221082






000
SXUS55 KMSO 021913
OSOMSO
MONTANA AWOS SUMMARY
NATIONAL WEATHER SERVICE MISSOULA MT
1213 PM MST MON MAR 2 2015

Montana AWOS Reports

TWIN BRIDGES|K7S1 021855Z AUTO 00000KT 40SM 02/M17 A2980 RMK AO1 T00171171
MALTA       |KM75 021855Z AUTO 29011G19KT 40SM 02/M08 A2979 RMK AO1 T00221082






000
SXUS55 KMSO 021903
OSOMSO
MONTANA AWOS SUMMARY
NATIONAL WEATHER SERVICE MISSOULA MT
1203 PM MST MON MAR 2 2015

Montana AWOS Reports

LAUREL      |K6S8 021855Z AUTO 21009G14KT 40SM 06/M12 A2980 RMK AO1 T00611116
ROUNDUP     |KRPX 021855Z AUTO 33011G16KT 40SM 07/M13 A2973 RMK AO1 T00671127
SCOBEY      |K9S2 021855Z AUTO 24012G17KT 40SM 02/M11 A2972 RMK AO1 T00171110






000
SXUS55 KMSO 021903
OSOMSO
MONTANA AWOS SUMMARY
NATIONAL WEATHER SERVICE MISSOULA MT
1203 PM MST MON MAR 2 2015

Montana AWOS Reports

LAUREL      |K6S8 021855Z AUTO 21009G14KT 40SM 06/M12 A2980 RMK AO1 T00611116
ROUNDUP     |KRPX 021855Z AUTO 33011G16KT 40SM 07/M13 A2973 RMK AO1 T00671127
SCOBEY      |K9S2 021855Z AUTO 24012G17KT 40SM 02/M11 A2972 RMK AO1 T00171110






000
SXUS55 KMSO 021844
OSOMSO
MONTANA AWOS SUMMARY
NATIONAL WEATHER SERVICE MISSOULA MT
1143 AM MST MON MAR 2 2015

Montana AWOS Reports

LAUREL      |K6S8 021835Z AUTO 22009G14KT 40SM 06/M11 A2980 RMK AO1 T00611110






000
SXUS55 KMSO 021844
OSOMSO
MONTANA AWOS SUMMARY
NATIONAL WEATHER SERVICE MISSOULA MT
1143 AM MST MON MAR 2 2015

Montana AWOS Reports

LAUREL      |K6S8 021835Z AUTO 22009G14KT 40SM 06/M11 A2980 RMK AO1 T00611110






000
SXUS55 KMSO 021823
OSOMSO
MONTANA AWOS SUMMARY
NATIONAL WEATHER SERVICE MISSOULA MT
1123 AM MST MON MAR 2 2015

Montana AWOS Reports

LAUREL      |K6S8 021815Z AUTO 21011G15KT 40SM 06/M12 A2981 RMK AO1 T00561116
ROUNDUP     |KRPX 021815Z AUTO 00000KT 40SM 05/M14 A2975 RMK AO1 T00501143






000
SXUS55 KMSO 021823
OSOMSO
MONTANA AWOS SUMMARY
NATIONAL WEATHER SERVICE MISSOULA MT
1123 AM MST MON MAR 2 2015

Montana AWOS Reports

LAUREL      |K6S8 021815Z AUTO 21011G15KT 40SM 06/M12 A2981 RMK AO1 T00561116
ROUNDUP     |KRPX 021815Z AUTO 00000KT 40SM 05/M14 A2975 RMK AO1 T00501143






000
SXUS55 KMSO 021813
OSOMSO
MONTANA AWOS SUMMARY
NATIONAL WEATHER SERVICE MISSOULA MT
1113 AM MST MON MAR 2 2015

Montana AWOS Reports

MALTA       |KM75 021755Z AUTO 26021G28KT 40SM 00/M09 A2976 RMK AO1 T00001088






000
SXUS55 KMSO 021813
OSOMSO
MONTANA AWOS SUMMARY
NATIONAL WEATHER SERVICE MISSOULA MT
1113 AM MST MON MAR 2 2015

Montana AWOS Reports

MALTA       |KM75 021755Z AUTO 26021G28KT 40SM 00/M09 A2976 RMK AO1 T00001088






000
SXUS55 KMSO 021803
OSOMSO
MONTANA AWOS SUMMARY
NATIONAL WEATHER SERVICE MISSOULA MT
1103 AM MST MON MAR 2 2015

Montana AWOS Reports

LAUREL      |K6S8 021755Z AUTO 23010G16KT 40SM 04/M12 A2981 RMK AO1 T00441116
ROUNDUP     |KRPX 021755Z AUTO 15005KT 40SM 05/M13 A2974 RMK AO1 T00501132
SCOBEY      |K9S2 021755Z AUTO 20013G17KT 40SM M02/M12 A2974 RMK AO1 T10161121
TWIN BRIDGES|K7S1 021755Z AUTO 00000KT 40SM M01/M17 A2981 RMK AO1 T10051171






000
SXUS55 KMSO 021803
OSOMSO
MONTANA AWOS SUMMARY
NATIONAL WEATHER SERVICE MISSOULA MT
1103 AM MST MON MAR 2 2015

Montana AWOS Reports

LAUREL      |K6S8 021755Z AUTO 23010G16KT 40SM 04/M12 A2981 RMK AO1 T00441116
ROUNDUP     |KRPX 021755Z AUTO 15005KT 40SM 05/M13 A2974 RMK AO1 T00501132
SCOBEY      |K9S2 021755Z AUTO 20013G17KT 40SM M02/M12 A2974 RMK AO1 T10161121
TWIN BRIDGES|K7S1 021755Z AUTO 00000KT 40SM M01/M17 A2981 RMK AO1 T10051171






000
SXUS55 KMSO 021744
OSOMSO
MONTANA AWOS SUMMARY
NATIONAL WEATHER SERVICE MISSOULA MT
1043 AM MST MON MAR 2 2015

Montana AWOS Reports

LAUREL      |K6S8 021735Z AUTO 22014G19KT 40SM 04/M12 A2982 RMK AO1 T00391121
ROUNDUP     |KRPX 021735Z AUTO 18005KT 40SM 03/M14 A2974 RMK AO1 T00281143






000
SXUS55 KMSO 021744
OSOMSO
MONTANA AWOS SUMMARY
NATIONAL WEATHER SERVICE MISSOULA MT
1043 AM MST MON MAR 2 2015

Montana AWOS Reports

LAUREL      |K6S8 021735Z AUTO 22014G19KT 40SM 04/M12 A2982 RMK AO1 T00391121
ROUNDUP     |KRPX 021735Z AUTO 18005KT 40SM 03/M14 A2974 RMK AO1 T00281143






000
SXUS55 KMSO 021723
OSOMSO
MONTANA AWOS SUMMARY
NATIONAL WEATHER SERVICE MISSOULA MT
1023 AM MST MON MAR 2 2015

Montana AWOS Reports

LAUREL      |K6S8 021715Z AUTO 20012G17KT 40SM 03/M12 A2982 RMK AO1 T00281116
ROUNDUP     |KRPX 021715Z AUTO 19005KT 40SM 02/M13 A2974 RMK AO1 T00221132
MALTA       |KM75 021655Z AUTO 24015G20KT 40SM M01/M10 A2976 RMK AO1 T10101099






000
SXUS55 KMSO 021723
OSOMSO
MONTANA AWOS SUMMARY
NATIONAL WEATHER SERVICE MISSOULA MT
1023 AM MST MON MAR 2 2015

Montana AWOS Reports

LAUREL      |K6S8 021715Z AUTO 20012G17KT 40SM 03/M12 A2982 RMK AO1 T00281116
ROUNDUP     |KRPX 021715Z AUTO 19005KT 40SM 02/M13 A2974 RMK AO1 T00221132
MALTA       |KM75 021655Z AUTO 24015G20KT 40SM M01/M10 A2976 RMK AO1 T10101099






000
SXUS55 KMSO 021703
OSOMSO
MONTANA AWOS SUMMARY
NATIONAL WEATHER SERVICE MISSOULA MT
1003 AM MST MON MAR 2 2015

Montana AWOS Reports

LAUREL      |K6S8 021655Z AUTO 20013G20KT 40SM 02/M12 A2981 RMK AO1 T00221116
ROUNDUP     |KRPX 021655Z AUTO 22012G17KT 40SM 01/M15 A2974 RMK AO1 T00111149






000
SXUS55 KMSO 021703
OSOMSO
MONTANA AWOS SUMMARY
NATIONAL WEATHER SERVICE MISSOULA MT
1003 AM MST MON MAR 2 2015

Montana AWOS Reports

LAUREL      |K6S8 021655Z AUTO 20013G20KT 40SM 02/M12 A2981 RMK AO1 T00221116
ROUNDUP     |KRPX 021655Z AUTO 22012G17KT 40SM 01/M15 A2974 RMK AO1 T00111149






000
SXUS55 KMSO 021643
OSOMSO
MONTANA AWOS SUMMARY
NATIONAL WEATHER SERVICE MISSOULA MT
942 AM MST MON MAR 2 2015

Montana AWOS Reports

LAUREL      |K6S8 021635Z AUTO 20014G18KT 40SM 01/M13 A2982 RMK AO1 T00111127






000
SXUS55 KMSO 021633
OSOMSO
MONTANA AWOS SUMMARY
NATIONAL WEATHER SERVICE MISSOULA MT
933 AM MST MON MAR 2 2015

Montana AWOS Reports

MALTA       |KM75 021555Z AUTO 25005KT 40SM M03/M10 A2977 RMK AO1 T10321099






000
SXUS55 KMSO 021633
OSOMSO
MONTANA AWOS SUMMARY
NATIONAL WEATHER SERVICE MISSOULA MT
933 AM MST MON MAR 2 2015

Montana AWOS Reports

MALTA       |KM75 021555Z AUTO 25005KT 40SM M03/M10 A2977 RMK AO1 T10321099






000
SXUS55 KMSO 021623
OSOMSO
MONTANA AWOS SUMMARY
NATIONAL WEATHER SERVICE MISSOULA MT
923 AM MST MON MAR 2 2015

Montana AWOS Reports

ROUNDUP     |KRPX 021615Z AUTO 20005KT 40SM M02/M14 A2974 RMK AO1 T10161138
LAUREL      |K6S8 021615Z AUTO 20010G14KT 40SM 00/M13 A2981 RMK AO1 T00001127






000
SXUS55 KMSO 021613
OSOMSO
MONTANA AWOS SUMMARY
NATIONAL WEATHER SERVICE MISSOULA MT
913 AM MST MON MAR 2 2015

Montana AWOS Reports

LAUREL      |K6S8 021555Z AUTO 19008KT 40SM M01/M12 A2982 RMK AO1 T10051121
TWIN BRIDGES|K7S1 021555Z AUTO 17004KT 40SM M07/M16 A2984 RMK AO1 T10711160
SCOBEY      |K9S2 021555Z AUTO 16005KT 40SM M08/M15 A2977 RMK AO1 T10821149






000
SXUS55 KMSO 021603
OSOMSO
MONTANA AWOS SUMMARY
NATIONAL WEATHER SERVICE MISSOULA MT
902 AM MST MON MAR 2 2015

Montana AWOS Reports

ROUNDUP     |KRPX 021555Z AUTO 19012G17KT 40SM M03/M14 A2973 RMK AO1 T10321138






000
SXUS55 KMSO 021543
OSOMSO
MONTANA AWOS SUMMARY
NATIONAL WEATHER SERVICE MISSOULA MT
843 AM MST MON MAR 2 2015

Montana AWOS Reports

LAUREL      |K6S8 021535Z AUTO 20004KT 40SM M02/M13 A2981 RMK AO1 T10161127
ROUNDUP     |KRPX 021535Z AUTO 19009G16KT 40SM M05/M14 A2974 RMK AO1 T10491138






000
SXUS55 KMSO 021543
OSOMSO
MONTANA AWOS SUMMARY
NATIONAL WEATHER SERVICE MISSOULA MT
843 AM MST MON MAR 2 2015

Montana AWOS Reports

LAUREL      |K6S8 021535Z AUTO 20004KT 40SM M02/M13 A2981 RMK AO1 T10161127
ROUNDUP     |KRPX 021535Z AUTO 19009G16KT 40SM M05/M14 A2974 RMK AO1 T10491138






000
SXUS55 KMSO 021523
OSOMSO
MONTANA AWOS SUMMARY
NATIONAL WEATHER SERVICE MISSOULA MT
822 AM MST MON MAR 2 2015

Montana AWOS Reports

ROUNDUP     |KRPX 021515Z AUTO 20008KT 40SM M06/M14 A2974 RMK AO1 T10601143
LAUREL      |K6S8 021515Z AUTO 23007KT 40SM M02/M12 A2981 RMK AO1 T10161121






000
SXUS55 KMSO 021503
OSOMSO
MONTANA AWOS SUMMARY
NATIONAL WEATHER SERVICE MISSOULA MT
803 AM MST MON MAR 2 2015

Montana AWOS Reports

LAUREL      |K6S8 021455Z AUTO 00000KT 40SM M03/M13 A2982 RMK AO1 T10271127
SCOBEY      |K9S2 021455Z AUTO 15009G16KT 40SM M10/M16 A2980 RMK AO1 T10991160
TWIN BRIDGES|K7S1 021455Z AUTO 00000KT 40SM M13/M19 A2984 RMK AO1 T11271188






000
SXUS55 KMSO 021503
OSOMSO
MONTANA AWOS SUMMARY
NATIONAL WEATHER SERVICE MISSOULA MT
803 AM MST MON MAR 2 2015

Montana AWOS Reports

LAUREL      |K6S8 021455Z AUTO 00000KT 40SM M03/M13 A2982 RMK AO1 T10271127
SCOBEY      |K9S2 021455Z AUTO 15009G16KT 40SM M10/M16 A2980 RMK AO1 T10991160
TWIN BRIDGES|K7S1 021455Z AUTO 00000KT 40SM M13/M19 A2984 RMK AO1 T11271188






000
SXUS55 KMSO 021443
OSOMSO
MONTANA AWOS SUMMARY
NATIONAL WEATHER SERVICE MISSOULA MT
743 AM MST MON MAR 2 2015

Montana AWOS Reports

LAUREL      |K6S8 021435Z AUTO 20007KT 40SM M04/M13 A2981 RMK AO1 T10381132
ROUNDUP     |KRPX 021435Z AUTO 19005KT 40SM M09/M16 A2974 RMK AO1 T10931155






000
SXUS55 KMSO 021443
OSOMSO
MONTANA AWOS SUMMARY
NATIONAL WEATHER SERVICE MISSOULA MT
743 AM MST MON MAR 2 2015

Montana AWOS Reports

LAUREL      |K6S8 021435Z AUTO 20007KT 40SM M04/M13 A2981 RMK AO1 T10381132
ROUNDUP     |KRPX 021435Z AUTO 19005KT 40SM M09/M16 A2974 RMK AO1 T10931155






000
SXUS55 KMSO 021423
OSOMSO
MONTANA AWOS SUMMARY
NATIONAL WEATHER SERVICE MISSOULA MT
722 AM MST MON MAR 2 2015

Montana AWOS Reports

LAUREL      |K6S8 021415Z AUTO 21008KT 40SM M04/M13 A2981 RMK AO1 T10431132
ROUNDUP     |KRPX 021415Z AUTO 19007KT 40SM M10/M16 A2975 RMK AO1 T10991155
MALTA       |KM75 021355Z AUTO 00000KT 40SM M09/M14 A2978 RMK AO1 T10931143






000
SXUS55 KMSO 021423
OSOMSO
MONTANA AWOS SUMMARY
NATIONAL WEATHER SERVICE MISSOULA MT
722 AM MST MON MAR 2 2015

Montana AWOS Reports

LAUREL      |K6S8 021415Z AUTO 21008KT 40SM M04/M13 A2981 RMK AO1 T10431132
ROUNDUP     |KRPX 021415Z AUTO 19007KT 40SM M10/M16 A2975 RMK AO1 T10991155
MALTA       |KM75 021355Z AUTO 00000KT 40SM M09/M14 A2978 RMK AO1 T10931143






000
SXUS55 KMSO 021403
OSOMSO
MONTANA AWOS SUMMARY
NATIONAL WEATHER SERVICE MISSOULA MT
703 AM MST MON MAR 2 2015

Montana AWOS Reports

LAUREL      |K6S8 021355Z AUTO 22007KT 40SM M06/M13 A2982 RMK AO1 T10551132
ROUNDUP     |KRPX 021355Z AUTO 18013G17KT 40SM M11/M16 A2975 RMK AO1 T11051160
SCOBEY      |K9S2 021355Z AUTO 14006KT 25SM M11/M17 A2982 RMK AO1 T11051166
TWIN BRIDGES|K7S1 021355Z AUTO 00000KT 40SM M11/M18 A2985 RMK AO1 T11051182






000
SXUS55 KMSO 021343
OSOMSO
MONTANA AWOS SUMMARY
NATIONAL WEATHER SERVICE MISSOULA MT
643 AM MST MON MAR 2 2015

Montana AWOS Reports

LAUREL      |K6S8 021335Z AUTO 20006KT 40SM M07/M14 A2983 RMK AO1 T10711138
ROUNDUP     |KRPX 021335Z AUTO 19012G18KT 40SM M11/M16 A2976 RMK AO1 T11051160






000
SXUS55 KMSO 021323
OSOMSO
MONTANA AWOS SUMMARY
NATIONAL WEATHER SERVICE MISSOULA MT
622 AM MST MON MAR 2 2015

Montana AWOS Reports

MALTA       |KM75 021255Z AUTO 00000KT 40SM M08/M14 A2979 RMK AO1 T10821143
LAUREL      |K6S8 021315Z AUTO 00000KT 40SM M08/M15 A2984 RMK AO1 T10771149
ROUNDUP     |KRPX 021315Z AUTO 20009G15KT 40SM M11/M16 A2977 RMK AO1 T11051160






000
SXUS55 KMSO 021323
OSOMSO
MONTANA AWOS SUMMARY
NATIONAL WEATHER SERVICE MISSOULA MT
622 AM MST MON MAR 2 2015

Montana AWOS Reports

MALTA       |KM75 021255Z AUTO 00000KT 40SM M08/M14 A2979 RMK AO1 T10821143
LAUREL      |K6S8 021315Z AUTO 00000KT 40SM M08/M15 A2984 RMK AO1 T10771149
ROUNDUP     |KRPX 021315Z AUTO 20009G15KT 40SM M11/M16 A2977 RMK AO1 T11051160






000
SXUS55 KMSO 021303
OSOMSO
MONTANA AWOS SUMMARY
NATIONAL WEATHER SERVICE MISSOULA MT
602 AM MST MON MAR 2 2015

Montana AWOS Reports

LAUREL      |K6S8 021255Z AUTO 00000KT 40SM M07/M16 A2985 RMK AO1 T10711155
ROUNDUP     |KRPX 021255Z AUTO 19012G17KT 40SM M11/M17 A2977 RMK AO1 T11051166






000
SXUS55 KMSO 021243
OSOMSO
MONTANA AWOS SUMMARY
NATIONAL WEATHER SERVICE MISSOULA MT
543 AM MST MON MAR 2 2015

Montana AWOS Reports

LAUREL      |K6S8 021235Z AUTO 00000KT 40SM M07/M16 A2985 RMK AO1 T10661155
ROUNDUP     |KRPX 021235Z AUTO 20004KT 40SM M09/M16 A2978 RMK AO1 T10931155






000
SXUS55 KMSO 021243
OSOMSO
MONTANA AWOS SUMMARY
NATIONAL WEATHER SERVICE MISSOULA MT
543 AM MST MON MAR 2 2015

Montana AWOS Reports

LAUREL      |K6S8 021235Z AUTO 00000KT 40SM M07/M16 A2985 RMK AO1 T10661155
ROUNDUP     |KRPX 021235Z AUTO 20004KT 40SM M09/M16 A2978 RMK AO1 T10931155






000
SXUS55 KMSO 021223
OSOMSO
MONTANA AWOS SUMMARY
NATIONAL WEATHER SERVICE MISSOULA MT
522 AM MST MON MAR 2 2015

Montana AWOS Reports

SCOBEY      |K9S2 021155Z AUTO 13006KT 25SM M12/M17 A2988 RMK AO1 T11161171
LAUREL      |K6S8 021215Z AUTO 00000KT 40SM M06/M15 A2985 RMK AO1 T10601149
ROUNDUP     |KRPX 021215Z AUTO 21004KT 40SM M09/M16 A2978 RMK AO1 T10931160
MALTA       |KM75 021055Z AUTO 00000KT 40SM M05/M13 A2983 RMK AO1 T10491127






000
SXUS55 KMSO 021213
OSOMSO
MONTANA AWOS SUMMARY
NATIONAL WEATHER SERVICE MISSOULA MT
513 AM MST MON MAR 2 2015

Montana AWOS Reports

TWIN BRIDGES|K7S1 021155Z AUTO 00000KT 40SM M12/M18 A2988 RMK AO1 T11161182






000
SXUS55 KMSO 021213
OSOMSO
MONTANA AWOS SUMMARY
NATIONAL WEATHER SERVICE MISSOULA MT
513 AM MST MON MAR 2 2015

Montana AWOS Reports

TWIN BRIDGES|K7S1 021155Z AUTO 00000KT 40SM M12/M18 A2988 RMK AO1 T11161182






000
SXUS55 KMSO 021203
OSOMSO
MONTANA AWOS SUMMARY
NATIONAL WEATHER SERVICE MISSOULA MT
502 AM MST MON MAR 2 2015

Montana AWOS Reports

LAUREL      |K6S8 021155Z AUTO 00000KT 40SM M06/M15 A2986 RMK AO1 T10601149
ROUNDUP     |KRPX 021155Z AUTO 00000KT 40SM M09/M16 A2978 RMK AO1 T10881155






000
SXUS55 KMSO 021143
OSOMSO
MONTANA AWOS SUMMARY
NATIONAL WEATHER SERVICE MISSOULA MT
443 AM MST MON MAR 2 2015

Montana AWOS Reports

ROUNDUP     |KRPX 021135Z AUTO 20011KT 40SM M09/M16 A2979 RMK AO1 T10881155
LAUREL      |K6S8 021135Z AUTO 00000KT 40SM M05/M15 A2986 RMK AO1 T10491149






000
SXUS55 KMSO 021133
OSOMSO
MONTANA AWOS SUMMARY
NATIONAL WEATHER SERVICE MISSOULA MT
432 AM MST MON MAR 2 2015

Montana AWOS Reports

TWIN BRIDGES|K7S1 021055Z AUTO 18006KT 40SM M12/M18 A2988 RMK AO1 T11211182






000
SXUS55 KMSO 021133
OSOMSO
MONTANA AWOS SUMMARY
NATIONAL WEATHER SERVICE MISSOULA MT
432 AM MST MON MAR 2 2015

Montana AWOS Reports

TWIN BRIDGES|K7S1 021055Z AUTO 18006KT 40SM M12/M18 A2988 RMK AO1 T11211182






000
SXUS55 KMSO 021123
OSOMSO
MONTANA AWOS SUMMARY
NATIONAL WEATHER SERVICE MISSOULA MT
423 AM MST MON MAR 2 2015

Montana AWOS Reports

LAUREL      |K6S8 021115Z AUTO 22005KT 40SM M04/M15 A2986 RMK AO1 T10431149






000
SXUS55 KMSO 021123
OSOMSO
MONTANA AWOS SUMMARY
NATIONAL WEATHER SERVICE MISSOULA MT
423 AM MST MON MAR 2 2015

Montana AWOS Reports

LAUREL      |K6S8 021115Z AUTO 22005KT 40SM M04/M15 A2986 RMK AO1 T10431149






000
SXUS55 KMSO 021103
OSOMSO
MONTANA AWOS SUMMARY
NATIONAL WEATHER SERVICE MISSOULA MT
403 AM MST MON MAR 2 2015

Montana AWOS Reports

LAUREL      |K6S8 021055Z AUTO 19009G16KT 40SM M04/M15 A2986 RMK AO1 T10431149
ROUNDUP     |KRPX 021055Z AUTO 20005KT 40SM M08/M16 A2980 RMK AO1 T10771155
SCOBEY      |K9S2 021055Z AUTO 14006KT 40SM M11/M17 A2991 RMK AO1 T11051171






000
SXUS55 KMSO 021103
OSOMSO
MONTANA AWOS SUMMARY
NATIONAL WEATHER SERVICE MISSOULA MT
403 AM MST MON MAR 2 2015

Montana AWOS Reports

LAUREL      |K6S8 021055Z AUTO 19009G16KT 40SM M04/M15 A2986 RMK AO1 T10431149
ROUNDUP     |KRPX 021055Z AUTO 20005KT 40SM M08/M16 A2980 RMK AO1 T10771155
SCOBEY      |K9S2 021055Z AUTO 14006KT 40SM M11/M17 A2991 RMK AO1 T11051171






000
SXUS55 KMSO 021043
OSOMSO
MONTANA AWOS SUMMARY
NATIONAL WEATHER SERVICE MISSOULA MT
343 AM MST MON MAR 2 2015

Montana AWOS Reports

LAUREL      |K6S8 021035Z AUTO 19011G17KT 40SM M04/M14 A2987 RMK AO1 T10431143
ROUNDUP     |KRPX 021035Z AUTO 00000KT 40SM M08/M16 A2981 RMK AO1 T10821155






000
SXUS55 KMSO 021033
OSOMSO
MONTANA AWOS SUMMARY
NATIONAL WEATHER SERVICE MISSOULA MT
333 AM MST MON MAR 2 2015

Montana AWOS Reports

MALTA       |KM75 020955Z AUTO 14008KT 40SM M05/M13 A2986 RMK AO1 T10491132






000
SXUS55 KMSO 021023
OSOMSO
MONTANA AWOS SUMMARY
NATIONAL WEATHER SERVICE MISSOULA MT
323 AM MST MON MAR 2 2015

Montana AWOS Reports

ROUNDUP     |KRPX 021015Z AUTO 19007KT 40SM M09/M16 A2981 RMK AO1 T10881160
LAUREL      |K6S8 021015Z AUTO 20012G20KT 40SM M04/M15 A2988 RMK AO1 T10431149






000
SXUS55 KMSO 021023
OSOMSO
MONTANA AWOS SUMMARY
NATIONAL WEATHER SERVICE MISSOULA MT
323 AM MST MON MAR 2 2015

Montana AWOS Reports

ROUNDUP     |KRPX 021015Z AUTO 19007KT 40SM M09/M16 A2981 RMK AO1 T10881160
LAUREL      |K6S8 021015Z AUTO 20012G20KT 40SM M04/M15 A2988 RMK AO1 T10431149






000
SXUS55 KMSO 020943
OSOMSO
MONTANA AWOS SUMMARY
NATIONAL WEATHER SERVICE MISSOULA MT
243 AM MST MON MAR 2 2015

Montana AWOS Reports

LAUREL      |K6S8 020935Z AUTO 18010KT 40SM M04/M15 A2990 RMK AO1 T10431149
ROUNDUP     |KRPX 020935Z AUTO 00000KT 40SM M10/M17 A2984 RMK AO1 T10991171






000
SXUS55 KMSO 020923
OSOMSO
MONTANA AWOS SUMMARY
NATIONAL WEATHER SERVICE MISSOULA MT
223 AM MST MON MAR 2 2015

Montana AWOS Reports

LAUREL      |K6S8 020915Z AUTO 19007KT 40SM M05/M15 A2991 RMK AO1 T10491149
ROUNDUP     |KRPX 020915Z AUTO 00000KT 40SM M09/M17 A2985 RMK AO1 T10881171






000
SXUS55 KMSO 020923
OSOMSO
MONTANA AWOS SUMMARY
NATIONAL WEATHER SERVICE MISSOULA MT
223 AM MST MON MAR 2 2015

Montana AWOS Reports

LAUREL      |K6S8 020915Z AUTO 19007KT 40SM M05/M15 A2991 RMK AO1 T10491149
ROUNDUP     |KRPX 020915Z AUTO 00000KT 40SM M09/M17 A2985 RMK AO1 T10881171






000
SXUS55 KMSO 020913
OSOMSO
MONTANA AWOS SUMMARY
NATIONAL WEATHER SERVICE MISSOULA MT
213 AM MST MON MAR 2 2015

Montana AWOS Reports

MALTA       |KM75 020855Z AUTO 15005KT 40SM M05/M13 A2990 RMK AO1 T10491127






000
SXUS55 KMSO 020913
OSOMSO
MONTANA AWOS SUMMARY
NATIONAL WEATHER SERVICE MISSOULA MT
213 AM MST MON MAR 2 2015

Montana AWOS Reports

MALTA       |KM75 020855Z AUTO 15005KT 40SM M05/M13 A2990 RMK AO1 T10491127






000
SXUS55 KMSO 020903
OSOMSO
MONTANA AWOS SUMMARY
NATIONAL WEATHER SERVICE MISSOULA MT
202 AM MST MON MAR 2 2015

Montana AWOS Reports

ROUNDUP     |KRPX 020855Z AUTO 00000KT 40SM M09/M17 A2986 RMK AO1 T10881171






000
SXUS55 KMSO 020843
OSOMSO
MONTANA AWOS SUMMARY
NATIONAL WEATHER SERVICE MISSOULA MT
143 AM MST MON MAR 2 2015

Montana AWOS Reports

LAUREL      |K6S8 020835Z AUTO 20010G14KT 40SM M05/M15 A2993 RMK AO1 T10491149
ROUNDUP     |KRPX 020835Z AUTO 00000KT 40SM M08/M17 A2987 RMK AO1 T10821166






000
SXUS55 KMSO 020843
OSOMSO
MONTANA AWOS SUMMARY
NATIONAL WEATHER SERVICE MISSOULA MT
143 AM MST MON MAR 2 2015

Montana AWOS Reports

LAUREL      |K6S8 020835Z AUTO 20010G14KT 40SM M05/M15 A2993 RMK AO1 T10491149
ROUNDUP     |KRPX 020835Z AUTO 00000KT 40SM M08/M17 A2987 RMK AO1 T10821166






000
SXUS55 KMSO 020823
OSOMSO
MONTANA AWOS SUMMARY
NATIONAL WEATHER SERVICE MISSOULA MT
122 AM MST MON MAR 2 2015

Montana AWOS Reports

LAUREL      |K6S8 020815Z AUTO 19005KT 25SM M05/M14 A2994 RMK AO1 T10491143






000
SXUS55 KMSO 020823
OSOMSO
MONTANA AWOS SUMMARY
NATIONAL WEATHER SERVICE MISSOULA MT
122 AM MST MON MAR 2 2015

Montana AWOS Reports

LAUREL      |K6S8 020815Z AUTO 19005KT 25SM M05/M14 A2994 RMK AO1 T10491143






000
SXUS55 KMSO 020813
OSOMSO
MONTANA AWOS SUMMARY
NATIONAL WEATHER SERVICE MISSOULA MT
113 AM MST MON MAR 2 2015

Montana AWOS Reports

MALTA       |KM75 020755Z AUTO 00000KT 40SM M06/M13 A2994 RMK AO1 T10601132






000
SXUS55 KMSO 020803
OSOMSO
MONTANA AWOS SUMMARY
NATIONAL WEATHER SERVICE MISSOULA MT
102 AM MST MON MAR 2 2015

Montana AWOS Reports

ROUNDUP     |KRPX 020755Z AUTO 00000KT 40SM M08/M17 A2989 RMK AO1 T10771171
LAUREL      |K6S8 020755Z AUTO 17004KT 40SM M05/M15 A2994 RMK AO1 T10491149
SCOBEY      |K9S2 020755Z AUTO 13014G18KT 40SM M11/M17 A3004 RMK AO1 T11051166






000
SXUS55 KMSO 020803
OSOMSO
MONTANA AWOS SUMMARY
NATIONAL WEATHER SERVICE MISSOULA MT
102 AM MST MON MAR 2 2015

Montana AWOS Reports

ROUNDUP     |KRPX 020755Z AUTO 00000KT 40SM M08/M17 A2989 RMK AO1 T10771171
LAUREL      |K6S8 020755Z AUTO 17004KT 40SM M05/M15 A2994 RMK AO1 T10491149
SCOBEY      |K9S2 020755Z AUTO 13014G18KT 40SM M11/M17 A3004 RMK AO1 T11051166






000
SXUS55 KMSO 020743
OSOMSO
MONTANA AWOS SUMMARY
NATIONAL WEATHER SERVICE MISSOULA MT
1243 AM MST MON MAR 2 2015

Montana AWOS Reports

LAUREL      |K6S8 020735Z AUTO 19007KT 40SM M04/M15 A2995 RMK AO1 T10431149
ROUNDUP     |KRPX 020735Z AUTO 00000KT 40SM M08/M17 A2990 RMK AO1 T10771171






000
SXUS55 KMSO 020724
OSOMSO
MONTANA AWOS SUMMARY
NATIONAL WEATHER SERVICE MISSOULA MT
1223 AM MST MON MAR 2 2015

Montana AWOS Reports

LAUREL      |K6S8 020715Z AUTO 21005KT 40SM M04/M15 A2996 RMK AO1 T10431149
ROUNDUP     |KRPX 020715Z AUTO 00000KT 40SM M08/M17 A2991 RMK AO1 T10771171






000
SXUS55 KMSO 020713
OSOMSO
MONTANA AWOS SUMMARY
NATIONAL WEATHER SERVICE MISSOULA MT
1213 AM MST MON MAR 2 2015

Montana AWOS Reports

SCOBEY      |K9S2 020655Z AUTO 00000KT 40SM M12/M18 A3007 RMK AO1 T11211182
MALTA       |KM75 020655Z AUTO 05004KT 40SM M06/M13 A2996 RMK AO1 T10551132






000
SXUS55 KMSO 020703
OSOMSO
MONTANA AWOS SUMMARY
NATIONAL WEATHER SERVICE MISSOULA MT
1202 AM MST MON MAR 2 2015

Montana AWOS Reports

TWIN BRIDGES|K7S1 020655Z AUTO 00000KT 40SM M08/M17 A2994 RMK AO1 T10821171
ROUNDUP     |KRPX 020655Z AUTO 00000KT 40SM M07/M18 A2992 RMK AO1 T10711177






000
SXUS55 KMSO 020703
OSOMSO
MONTANA AWOS SUMMARY
NATIONAL WEATHER SERVICE MISSOULA MT
1202 AM MST MON MAR 2 2015

Montana AWOS Reports

TWIN BRIDGES|K7S1 020655Z AUTO 00000KT 40SM M08/M17 A2994 RMK AO1 T10821171
ROUNDUP     |KRPX 020655Z AUTO 00000KT 40SM M07/M18 A2992 RMK AO1 T10711177






000
SXUS55 KMSO 020643
OSOMSO
MONTANA AWOS SUMMARY
NATIONAL WEATHER SERVICE MISSOULA MT
1143 PM MST SUN MAR 1 2015

Montana AWOS Reports

ROUNDUP     |KRPX 020635Z AUTO 00000KT 40SM M06/M18 A2992 RMK AO1 T10601182






000
SXUS55 KMSO 020643
OSOMSO
MONTANA AWOS SUMMARY
NATIONAL WEATHER SERVICE MISSOULA MT
1143 PM MST SUN MAR 1 2015

Montana AWOS Reports

ROUNDUP     |KRPX 020635Z AUTO 00000KT 40SM M06/M18 A2992 RMK AO1 T10601182






000
SXUS55 KMSO 020623
OSOMSO
MONTANA AWOS SUMMARY
NATIONAL WEATHER SERVICE MISSOULA MT
1122 PM MST SUN MAR 1 2015

Montana AWOS Reports

LAUREL      |K6S8 020615Z AUTO 00000KT 40SM M04/M16 A2998 RMK AO1 T10381155
ROUNDUP     |KRPX 020615Z AUTO 00000KT 40SM M06/M17 A2993 RMK AO1 T10601171






000
SXUS55 KMSO 020623
OSOMSO
MONTANA AWOS SUMMARY
NATIONAL WEATHER SERVICE MISSOULA MT
1122 PM MST SUN MAR 1 2015

Montana AWOS Reports

LAUREL      |K6S8 020615Z AUTO 00000KT 40SM M04/M16 A2998 RMK AO1 T10381155
ROUNDUP     |KRPX 020615Z AUTO 00000KT 40SM M06/M17 A2993 RMK AO1 T10601171






000
SXUS55 KMSO 020613
OSOMSO
MONTANA AWOS SUMMARY
NATIONAL WEATHER SERVICE MISSOULA MT
1113 PM MST SUN MAR 1 2015

Montana AWOS Reports

SCOBEY      |K9S2 020555Z AUTO 00000KT 25SM M12/M18 A3010 RMK AO1 T11161177
MALTA       |KM75 020555Z AUTO 00000KT 40SM M06/M13 A3001 RMK AO1 T10551132
TWIN BRIDGES|K7S1 020555Z AUTO 00000KT 40SM M09/M18 A2995 RMK AO1 T10931177






000
SXUS55 KMSO 020613
OSOMSO
MONTANA AWOS SUMMARY
NATIONAL WEATHER SERVICE MISSOULA MT
1113 PM MST SUN MAR 1 2015

Montana AWOS Reports

SCOBEY      |K9S2 020555Z AUTO 00000KT 25SM M12/M18 A3010 RMK AO1 T11161177
MALTA       |KM75 020555Z AUTO 00000KT 40SM M06/M13 A3001 RMK AO1 T10551132
TWIN BRIDGES|K7S1 020555Z AUTO 00000KT 40SM M09/M18 A2995 RMK AO1 T10931177






000
SXUS55 KMSO 020603
OSOMSO
MONTANA AWOS SUMMARY
NATIONAL WEATHER SERVICE MISSOULA MT
1102 PM MST SUN MAR 1 2015

Montana AWOS Reports

ROUNDUP     |KRPX 020555Z AUTO 00000KT 40SM M06/M18 A2994 RMK AO1 T10601182






000
SXUS55 KMSO 020603
OSOMSO
MONTANA AWOS SUMMARY
NATIONAL WEATHER SERVICE MISSOULA MT
1102 PM MST SUN MAR 1 2015

Montana AWOS Reports

ROUNDUP     |KRPX 020555Z AUTO 00000KT 40SM M06/M18 A2994 RMK AO1 T10601182






000
SXUS55 KMSO 020543
OSOMSO
MONTANA AWOS SUMMARY
NATIONAL WEATHER SERVICE MISSOULA MT
1043 PM MST SUN MAR 1 2015

Montana AWOS Reports

ROUNDUP     |KRPX 020535Z AUTO 00000KT 40SM M07/M18 A2995 RMK AO1 T10661182






000
SXUS55 KMSO 020543
OSOMSO
MONTANA AWOS SUMMARY
NATIONAL WEATHER SERVICE MISSOULA MT
1043 PM MST SUN MAR 1 2015

Montana AWOS Reports

ROUNDUP     |KRPX 020535Z AUTO 00000KT 40SM M07/M18 A2995 RMK AO1 T10661182






000
SXUS55 KMSO 020523
OSOMSO
MONTANA AWOS SUMMARY
NATIONAL WEATHER SERVICE MISSOULA MT
1023 PM MST SUN MAR 1 2015

Montana AWOS Reports

ROUNDUP     |KRPX 020515Z AUTO 00000KT 40SM M06/M19 A2995 RMK AO1 T10601188






000
SXUS55 KMSO 020513
OSOMSO
MONTANA AWOS SUMMARY
NATIONAL WEATHER SERVICE MISSOULA MT
1012 PM MST SUN MAR 1 2015

Montana AWOS Reports

ROUNDUP     |KRPX 020455Z AUTO 00000KT 40SM M05/M18 A2996 RMK AO1 T10491182
SCOBEY      |K9S2 020455Z AUTO 00000KT 40SM M11/M17 A3013 RMK AO1 T11101171
MALTA       |KM75 020455Z AUTO 00000KT 40SM M06/M13 A3004 RMK AO1 T10551132
TWIN BRIDGES|K7S1 020455Z AUTO 00000KT 25SM M10/M17 A2995 RMK AO1 T10991171






000
SXUS55 KMSO 020513
OSOMSO
MONTANA AWOS SUMMARY
NATIONAL WEATHER SERVICE MISSOULA MT
1012 PM MST SUN MAR 1 2015

Montana AWOS Reports

ROUNDUP     |KRPX 020455Z AUTO 00000KT 40SM M05/M18 A2996 RMK AO1 T10491182
SCOBEY      |K9S2 020455Z AUTO 00000KT 40SM M11/M17 A3013 RMK AO1 T11101171
MALTA       |KM75 020455Z AUTO 00000KT 40SM M06/M13 A3004 RMK AO1 T10551132
TWIN BRIDGES|K7S1 020455Z AUTO 00000KT 25SM M10/M17 A2995 RMK AO1 T10991171






000
SXUS55 KMSO 020503
OSOMSO
MONTANA AWOS SUMMARY
NATIONAL WEATHER SERVICE MISSOULA MT
1002 PM MST SUN MAR 1 2015

Montana AWOS Reports

LAUREL      |K6S8 020455Z AUTO 00000KT 40SM M04/M16 A3002 RMK AO1 T10431160






000
SXUS55 KMSO 020443
OSOMSO
MONTANA AWOS SUMMARY
NATIONAL WEATHER SERVICE MISSOULA MT
943 PM MST SUN MAR 1 2015

Montana AWOS Reports

ROUNDUP     |KRPX 020435Z AUTO 00000KT 40SM M04/M18 A2996 RMK AO1 T10431182






000
SXUS55 KMSO 020424
OSOMSO
MONTANA AWOS SUMMARY
NATIONAL WEATHER SERVICE MISSOULA MT
923 PM MST SUN MAR 1 2015

Montana AWOS Reports

ROUNDUP     |KRPX 020415Z AUTO 00000KT 40SM M04/M18 A2997 RMK AO1 T10431182






000
SXUS55 KMSO 020413
OSOMSO
MONTANA AWOS SUMMARY
NATIONAL WEATHER SERVICE MISSOULA MT
913 PM MST SUN MAR 1 2015

Montana AWOS Reports

MALTA       |KM75 020355Z AUTO 12005KT 40SM M05/M13 A3006 RMK AO1 T10491127






000
SXUS55 KMSO 020413
OSOMSO
MONTANA AWOS SUMMARY
NATIONAL WEATHER SERVICE MISSOULA MT
913 PM MST SUN MAR 1 2015

Montana AWOS Reports

MALTA       |KM75 020355Z AUTO 12005KT 40SM M05/M13 A3006 RMK AO1 T10491127






000
SXUS55 KMSO 020404
OSOMSO
MONTANA AWOS SUMMARY
NATIONAL WEATHER SERVICE MISSOULA MT
903 PM MST SUN MAR 1 2015

Montana AWOS Reports

ROUNDUP     |KRPX 020355Z AUTO 00000KT 40SM M04/M18 A2997 RMK AO1 T10381182
TWIN BRIDGES|K7S1 020355Z AUTO 09004KT 40SM M08/M17 A2996 RMK AO1 T10771166






000
SXUS55 KMSO 020343
OSOMSO
MONTANA AWOS SUMMARY
NATIONAL WEATHER SERVICE MISSOULA MT
843 PM MST SUN MAR 1 2015

Montana AWOS Reports

LAUREL      |K6S8 020335Z AUTO 00000KT 40SM M06/M17 A3004 RMK AO1 T10551171






000
SXUS55 KMSO 020333
OSOMSO
MONTANA AWOS SUMMARY
NATIONAL WEATHER SERVICE MISSOULA MT
832 PM MST SUN MAR 1 2015

Montana AWOS Reports

ROUNDUP     |KRPX 020315Z AUTO 00000KT 40SM M04/M19 A2998 RMK AO1 T10381188






000
SXUS55 KMSO 020323
OSOMSO
MONTANA AWOS SUMMARY
NATIONAL WEATHER SERVICE MISSOULA MT
822 PM MST SUN MAR 1 2015

Montana AWOS Reports

LAUREL      |K6S8 020315Z AUTO 00000KT 40SM M06/M17 A3005 RMK AO1 T10601171






000
SXUS55 KMSO 020323
OSOMSO
MONTANA AWOS SUMMARY
NATIONAL WEATHER SERVICE MISSOULA MT
822 PM MST SUN MAR 1 2015

Montana AWOS Reports

LAUREL      |K6S8 020315Z AUTO 00000KT 40SM M06/M17 A3005 RMK AO1 T10601171






000
SXUS55 KMSO 020313
OSOMSO
MONTANA AWOS SUMMARY
NATIONAL WEATHER SERVICE MISSOULA MT
813 PM MST SUN MAR 1 2015

Montana AWOS Reports

ROUNDUP     |KRPX 020255Z AUTO 00000KT 40SM M03/M19 A2999 RMK AO1 T10321188
TWIN BRIDGES|K7S1 020255Z AUTO 05004KT 40SM M07/M17 A2997 RMK AO1 T10711166
MALTA       |KM75 020255Z AUTO 00000KT 40SM M06/M13 A3008 RMK AO1 T10551132






000
SXUS55 KMSO 020313
OSOMSO
MONTANA AWOS SUMMARY
NATIONAL WEATHER SERVICE MISSOULA MT
813 PM MST SUN MAR 1 2015

Montana AWOS Reports

ROUNDUP     |KRPX 020255Z AUTO 00000KT 40SM M03/M19 A2999 RMK AO1 T10321188
TWIN BRIDGES|K7S1 020255Z AUTO 05004KT 40SM M07/M17 A2997 RMK AO1 T10711166
MALTA       |KM75 020255Z AUTO 00000KT 40SM M06/M13 A3008 RMK AO1 T10551132






000
SXUS55 KMSO 020303
OSOMSO
MONTANA AWOS SUMMARY
NATIONAL WEATHER SERVICE MISSOULA MT
802 PM MST SUN MAR 1 2015

Montana AWOS Reports

LAUREL      |K6S8 020255Z AUTO 00000KT 40SM M04/M16 A3006 RMK AO1 T10431160
SCOBEY      |K9S2 020255Z AUTO 00000KT 40SM M11/M17 A3015 RMK AO1 T11051171






000
SXUS55 KMSO 020303
OSOMSO
MONTANA AWOS SUMMARY
NATIONAL WEATHER SERVICE MISSOULA MT
802 PM MST SUN MAR 1 2015

Montana AWOS Reports

LAUREL      |K6S8 020255Z AUTO 00000KT 40SM M04/M16 A3006 RMK AO1 T10431160
SCOBEY      |K9S2 020255Z AUTO 00000KT 40SM M11/M17 A3015 RMK AO1 T11051171






000
SXUS55 KMSO 020243
OSOMSO
MONTANA AWOS SUMMARY
NATIONAL WEATHER SERVICE MISSOULA MT
743 PM MST SUN MAR 1 2015

Montana AWOS Reports

LAUREL      |K6S8 020235Z AUTO 00000KT 40SM M04/M17 A3007 RMK AO1 T10381166
ROUNDUP     |KRPX 020235Z AUTO 00000KT 40SM M03/M19 A3000 RMK AO1 T10321188






000
SXUS55 KMSO 020223
OSOMSO
MONTANA AWOS SUMMARY
NATIONAL WEATHER SERVICE MISSOULA MT
723 PM MST SUN MAR 1 2015

Montana AWOS Reports

LAUREL      |K6S8 020215Z AUTO 00000KT 40SM M03/M17 A3007 RMK AO1 T10271171
ROUNDUP     |KRPX 020215Z AUTO 00000KT 40SM M03/M19 A3000 RMK AO1 T10271188






000
SXUS55 KMSO 020203
OSOMSO
MONTANA AWOS SUMMARY
NATIONAL WEATHER SERVICE MISSOULA MT
703 PM MST SUN MAR 1 2015

Montana AWOS Reports

LAUREL      |K6S8 020155Z AUTO 00000KT 40SM M02/M17 A3008 RMK AO1 T10211166
ROUNDUP     |KRPX 020155Z AUTO 00000KT 40SM M03/M19 A3000 RMK AO1 T10271188
SCOBEY      |K9S2 020155Z AUTO 27006KT 40SM M11/M18 A3016 RMK AO1 T11051182
MALTA       |KM75 020155Z AUTO 00000KT 40SM M05/M13 A3010 RMK AO1 T10491127
TWIN BRIDGES|K7S1 020155Z AUTO 05004KT 40SM M06/M17 A2998 RMK AO1 T10551171






000
SXUS55 KMSO 020203
OSOMSO
MONTANA AWOS SUMMARY
NATIONAL WEATHER SERVICE MISSOULA MT
703 PM MST SUN MAR 1 2015

Montana AWOS Reports

LAUREL      |K6S8 020155Z AUTO 00000KT 40SM M02/M17 A3008 RMK AO1 T10211166
ROUNDUP     |KRPX 020155Z AUTO 00000KT 40SM M03/M19 A3000 RMK AO1 T10271188
SCOBEY      |K9S2 020155Z AUTO 27006KT 40SM M11/M18 A3016 RMK AO1 T11051182
MALTA       |KM75 020155Z AUTO 00000KT 40SM M05/M13 A3010 RMK AO1 T10491127
TWIN BRIDGES|K7S1 020155Z AUTO 05004KT 40SM M06/M17 A2998 RMK AO1 T10551171






000
SXUS55 KMSO 020143
OSOMSO
MONTANA AWOS SUMMARY
NATIONAL WEATHER SERVICE MISSOULA MT
643 PM MST SUN MAR 1 2015

Montana AWOS Reports

LAUREL      |K6S8 020135Z AUTO 00000KT 40SM M03/M17 A3008 RMK AO1 T10321166
ROUNDUP     |KRPX 020135Z AUTO 00000KT 40SM M02/M18 A3000 RMK AO1 T10211182






000
SXUS55 KMSO 020143
OSOMSO
MONTANA AWOS SUMMARY
NATIONAL WEATHER SERVICE MISSOULA MT
643 PM MST SUN MAR 1 2015

Montana AWOS Reports

LAUREL      |K6S8 020135Z AUTO 00000KT 40SM M03/M17 A3008 RMK AO1 T10321166
ROUNDUP     |KRPX 020135Z AUTO 00000KT 40SM M02/M18 A3000 RMK AO1 T10211182






000
SXUS55 KMSO 020123
OSOMSO
MONTANA AWOS SUMMARY
NATIONAL WEATHER SERVICE MISSOULA MT
623 PM MST SUN MAR 1 2015

Montana AWOS Reports

TWIN BRIDGES|K7S1 020055Z AUTO 00000KT 40SM 00/M18 A2999 RMK AO1 T00001177
LAUREL      |K6S8 020115Z AUTO 00000KT 40SM M02/M17 A3008 RMK AO1 T10211166
ROUNDUP     |KRPX 020115Z AUTO 00000KT 40SM M02/M18 A3001 RMK AO1 T10161182






000
SXUS55 KMSO 020103
OSOMSO
MONTANA AWOS SUMMARY
NATIONAL WEATHER SERVICE MISSOULA MT
603 PM MST SUN MAR 1 2015

Montana AWOS Reports

SCOBEY      |K9S2 020055Z AUTO 00000KT 40SM M06/M16 A3018 RMK AO1 T10601160
MALTA       |KM75 020055Z AUTO 00000KT 40SM M03/M12 A3012 RMK AO1 T10271121
ROUNDUP     |KRPX 020055Z AUTO 00000KT 40SM M01/M18 A3001 RMK AO1 T10051177






000
SXUS55 KMSO 020103
OSOMSO
MONTANA AWOS SUMMARY
NATIONAL WEATHER SERVICE MISSOULA MT
603 PM MST SUN MAR 1 2015

Montana AWOS Reports

SCOBEY      |K9S2 020055Z AUTO 00000KT 40SM M06/M16 A3018 RMK AO1 T10601160
MALTA       |KM75 020055Z AUTO 00000KT 40SM M03/M12 A3012 RMK AO1 T10271121
ROUNDUP     |KRPX 020055Z AUTO 00000KT 40SM M01/M18 A3001 RMK AO1 T10051177






000
SXUS55 KMSO 020043
OSOMSO
MONTANA AWOS SUMMARY
NATIONAL WEATHER SERVICE MISSOULA MT
543 PM MST SUN MAR 1 2015

Montana AWOS Reports

ROUNDUP     |KRPX 020035Z AUTO 00000KT 40SM 01/M20 A3002 RMK AO1 T00061199






000
SXUS55 KMSO 020043
OSOMSO
MONTANA AWOS SUMMARY
NATIONAL WEATHER SERVICE MISSOULA MT
543 PM MST SUN MAR 1 2015

Montana AWOS Reports

ROUNDUP     |KRPX 020035Z AUTO 00000KT 40SM 01/M20 A3002 RMK AO1 T00061199






000
SXUS55 KMSO 020023
OSOMSO
MONTANA AWOS SUMMARY
NATIONAL WEATHER SERVICE MISSOULA MT
523 PM MST SUN MAR 1 2015

Montana AWOS Reports

ROUNDUP     |KRPX 020015Z AUTO 00000KT 40SM 01/M21 A3002 RMK AO1 T00111210






000
SXUS55 KMSO 020023
OSOMSO
MONTANA AWOS SUMMARY
NATIONAL WEATHER SERVICE MISSOULA MT
523 PM MST SUN MAR 1 2015

Montana AWOS Reports

ROUNDUP     |KRPX 020015Z AUTO 00000KT 40SM 01/M21 A3002 RMK AO1 T00111210






000
SXUS55 KMSO 020014
OSOMSO
MONTANA AWOS SUMMARY
NATIONAL WEATHER SERVICE MISSOULA MT
513 PM MST SUN MAR 1 2015

Montana AWOS Reports

ROUNDUP     |KRPX 012355Z AUTO 00000KT 40SM 02/M21 A3003 RMK AO1 T00171210
SCOBEY      |K9S2 012355Z AUTO 00000KT 40SM M04/M17 A3019 RMK AO1 T10381166
TWIN BRIDGES|K7S1 012355Z AUTO 00000KT 40SM 01/M18 A3002 RMK AO1 T00111177
MALTA       |KM75 012355Z AUTO 13004KT 40SM M01/M12 A3014 RMK AO1 T10101121






000
SXUS55 KMSO 020014
OSOMSO
MONTANA AWOS SUMMARY
NATIONAL WEATHER SERVICE MISSOULA MT
513 PM MST SUN MAR 1 2015

Montana AWOS Reports

ROUNDUP     |KRPX 012355Z AUTO 00000KT 40SM 02/M21 A3003 RMK AO1 T00171210
SCOBEY      |K9S2 012355Z AUTO 00000KT 40SM M04/M17 A3019 RMK AO1 T10381166
TWIN BRIDGES|K7S1 012355Z AUTO 00000KT 40SM 01/M18 A3002 RMK AO1 T00111177
MALTA       |KM75 012355Z AUTO 13004KT 40SM M01/M12 A3014 RMK AO1 T10101121






000
SXUS55 KMSO 020003
OSOMSO
MONTANA AWOS SUMMARY
NATIONAL WEATHER SERVICE MISSOULA MT
503 PM MST SUN MAR 1 2015

Montana AWOS Reports

LAUREL      |K6S8 012355Z AUTO 19006KT 40SM 01/M16 A3011 RMK AO1 T00111155






000
SXUS55 KMSO 020003
OSOMSO
MONTANA AWOS SUMMARY
NATIONAL WEATHER SERVICE MISSOULA MT
503 PM MST SUN MAR 1 2015

Montana AWOS Reports

LAUREL      |K6S8 012355Z AUTO 19006KT 40SM 01/M16 A3011 RMK AO1 T00111155






000
SXUS55 KMSO 012343
OSOMSO
MONTANA AWOS SUMMARY
NATIONAL WEATHER SERVICE MISSOULA MT
442 PM MST SUN MAR 1 2015

Montana AWOS Reports

ROUNDUP     |KRPX 012335Z AUTO 00000KT 40SM 02/M21 A3003 RMK AO1 T00171210
MALTA       |KM75 012255Z AUTO 18005KT 40SM M01/M13 A3017 RMK AO1 T10101127






000
SXUS55 KMSO 012343
OSOMSO
MONTANA AWOS SUMMARY
NATIONAL WEATHER SERVICE MISSOULA MT
442 PM MST SUN MAR 1 2015

Montana AWOS Reports

ROUNDUP     |KRPX 012335Z AUTO 00000KT 40SM 02/M21 A3003 RMK AO1 T00171210
MALTA       |KM75 012255Z AUTO 18005KT 40SM M01/M13 A3017 RMK AO1 T10101127






000
SXUS55 KMSO 012323
OSOMSO
MONTANA AWOS SUMMARY
NATIONAL WEATHER SERVICE MISSOULA MT
423 PM MST SUN MAR 1 2015

Montana AWOS Reports

LAUREL      |K6S8 012315Z AUTO 17005KT 40SM 01/M16 A3012 RMK AO1 T00111160
ROUNDUP     |KRPX 012315Z AUTO 00000KT 40SM 02/M21 A3004 RMK AO1 T00171205






000
SXUS55 KMSO 012303
OSOMSO
MONTANA AWOS SUMMARY
NATIONAL WEATHER SERVICE MISSOULA MT
403 PM MST SUN MAR 1 2015

Montana AWOS Reports

ROUNDUP     |KRPX 012255Z AUTO 18006KT 40SM 02/M20 A3005 RMK AO1 T00171199
TWIN BRIDGES|K7S1 012255Z AUTO 20005KT 40SM 01/M17 A3004 RMK AO1 T00111166






000
SXUS55 KMSO 012303
OSOMSO
MONTANA AWOS SUMMARY
NATIONAL WEATHER SERVICE MISSOULA MT
403 PM MST SUN MAR 1 2015

Montana AWOS Reports

ROUNDUP     |KRPX 012255Z AUTO 18006KT 40SM 02/M20 A3005 RMK AO1 T00171199
TWIN BRIDGES|K7S1 012255Z AUTO 20005KT 40SM 01/M17 A3004 RMK AO1 T00111166






000
SXUS55 KMSO 012244
OSOMSO
MONTANA AWOS SUMMARY
NATIONAL WEATHER SERVICE MISSOULA MT
343 PM MST SUN MAR 1 2015

Montana AWOS Reports

ROUNDUP     |KRPX 012235Z AUTO 00000KT 40SM 01/M21 A3006 RMK AO1 T00111205






000
SXUS55 KMSO 012233
OSOMSO
MONTANA AWOS SUMMARY
NATIONAL WEATHER SERVICE MISSOULA MT
333 PM MST SUN MAR 1 2015

Montana AWOS Reports

ROUNDUP     |KRPX 012215Z AUTO 00000KT 40SM 02/M19 A3006 RMK AO1 T00171193






000
SXUS55 KMSO 012223
OSOMSO
MONTANA AWOS SUMMARY
NATIONAL WEATHER SERVICE MISSOULA MT
323 PM MST SUN MAR 1 2015

Montana AWOS Reports

LAUREL      |K6S8 012215Z AUTO 21009G14KT 40SM 01/M17 A3014 RMK AO1 T00061166






000
SXUS55 KMSO 012214
OSOMSO
MONTANA AWOS SUMMARY
NATIONAL WEATHER SERVICE MISSOULA MT
313 PM MST SUN MAR 1 2015

Montana AWOS Reports

MALTA       |KM75 012055Z AUTO 21009G15KT 40SM M01/M12 A3021 RMK AO1 T10051116
MALTA       |KM75 012155Z AUTO 00000KT 40SM M01/M12 A3018 RMK AO1 T10051121






000
SXUS55 KMSO 012203
OSOMSO
MONTANA AWOS SUMMARY
NATIONAL WEATHER SERVICE MISSOULA MT
303 PM MST SUN MAR 1 2015

Montana AWOS Reports

SCOBEY      |K9S2 012155Z AUTO 27008KT 40SM M03/M15 A3021 RMK AO1 T10321149
TWIN BRIDGES|K7S1 012155Z AUTO 20005KT 40SM 00/M17 A3007 RMK AO1 T00001171
ROUNDUP     |KRPX 012155Z AUTO 15005KT 40SM 01/M19 A3007 RMK AO1 T00111188






000
SXUS55 KMSO 012144
OSOMSO
MONTANA AWOS SUMMARY
NATIONAL WEATHER SERVICE MISSOULA MT
243 PM MST SUN MAR 1 2015

Montana AWOS Reports

ROUNDUP     |KRPX 012135Z AUTO 16005KT 40SM 01/M19 A3007 RMK AO1 T00111188






000
SXUS55 KMSO 012123
OSOMSO
MONTANA AWOS SUMMARY
NATIONAL WEATHER SERVICE MISSOULA MT
223 PM MST SUN MAR 1 2015

Montana AWOS Reports

ROUNDUP     |KRPX 012115Z AUTO 00000KT 40SM 01/M19 A3008 RMK AO1 T00061188






000
SXUS55 KMSO 012123
OSOMSO
MONTANA AWOS SUMMARY
NATIONAL WEATHER SERVICE MISSOULA MT
223 PM MST SUN MAR 1 2015

Montana AWOS Reports

ROUNDUP     |KRPX 012115Z AUTO 00000KT 40SM 01/M19 A3008 RMK AO1 T00061188






000
SXUS55 KMSO 012103
OSOMSO
MONTANA AWOS SUMMARY
NATIONAL WEATHER SERVICE MISSOULA MT
203 PM MST SUN MAR 1 2015

Montana AWOS Reports

LAUREL      |K6S8 012055Z AUTO 19004KT 40SM 00/M16 A3017 RMK AO1 T00001155
SCOBEY      |K9S2 012055Z AUTO 34004KT 40SM M04/M16 A3022 RMK AO1 T10431160
ROUNDUP     |KRPX 012055Z AUTO 00000KT 40SM 01/M19 A3009 RMK AO1 T00061193
TWIN BRIDGES|K7S1 012055Z AUTO 00000KT 40SM M01/M18 A3010 RMK AO1 T10101177






000
SXUS55 KMSO 012044
OSOMSO
MONTANA AWOS SUMMARY
NATIONAL WEATHER SERVICE MISSOULA MT
143 PM MST SUN MAR 1 2015

Montana AWOS Reports

LAUREL      |K6S8 012035Z AUTO 18004KT 40SM 00/M16 A3018 RMK AO1 T00001155
ROUNDUP     |KRPX 012035Z AUTO 00000KT 40SM 00/M19 A3010 RMK AO1 T00001193






000
SXUS55 KMSO 012044
OSOMSO
MONTANA AWOS SUMMARY
NATIONAL WEATHER SERVICE MISSOULA MT
143 PM MST SUN MAR 1 2015

Montana AWOS Reports

LAUREL      |K6S8 012035Z AUTO 18004KT 40SM 00/M16 A3018 RMK AO1 T00001155
ROUNDUP     |KRPX 012035Z AUTO 00000KT 40SM 00/M19 A3010 RMK AO1 T00001193






000
SXUS55 KMSO 012023
OSOMSO
MONTANA AWOS SUMMARY
NATIONAL WEATHER SERVICE MISSOULA MT
123 PM MST SUN MAR 1 2015

Montana AWOS Reports

LAUREL      |K6S8 012015Z AUTO 17007KT 40SM 00/M16 A3019 RMK AO1 T00001155
ROUNDUP     |KRPX 012015Z AUTO 20005KT 40SM 00/M18 A3011 RMK AO1 T00001182






000
SXUS55 KMSO 012023
OSOMSO
MONTANA AWOS SUMMARY
NATIONAL WEATHER SERVICE MISSOULA MT
123 PM MST SUN MAR 1 2015

Montana AWOS Reports

LAUREL      |K6S8 012015Z AUTO 17007KT 40SM 00/M16 A3019 RMK AO1 T00001155
ROUNDUP     |KRPX 012015Z AUTO 20005KT 40SM 00/M18 A3011 RMK AO1 T00001182






000
SXUS55 KMSO 012013
OSOMSO
MONTANA AWOS SUMMARY
NATIONAL WEATHER SERVICE MISSOULA MT
113 PM MST SUN MAR 1 2015

Montana AWOS Reports

ROUNDUP     |KRPX 011955Z AUTO 25010KT 40SM M01/M19 A3012 RMK AO1 T10051193
TWIN BRIDGES|K7S1 011955Z AUTO VRB05KT 40SM M03/M19 A3014 RMK AO1 T10271188
MALTA       |KM75 011955Z AUTO 00000KT 40SM M02/M12 A3023 RMK AO1 T10161121






000
SXUS55 KMSO 012003
OSOMSO
MONTANA AWOS SUMMARY
NATIONAL WEATHER SERVICE MISSOULA MT
102 PM MST SUN MAR 1 2015

Montana AWOS Reports

LAUREL      |K6S8 011955Z AUTO 00000KT 40SM M01/M16 A3020 RMK AO1 T10051160
SCOBEY      |K9S2 011955Z AUTO 34005KT 40SM M05/M15 A3023 RMK AO1 T10491149






000
SXUS55 KMSO 011943
OSOMSO
MONTANA AWOS SUMMARY
NATIONAL WEATHER SERVICE MISSOULA MT
1243 PM MST SUN MAR 1 2015

Montana AWOS Reports

ROUNDUP     |KRPX 011935Z AUTO 00000KT 40SM M01/M19 A3013 RMK AO1 T10101188






000
SXUS55 KMSO 011923
OSOMSO
MONTANA AWOS SUMMARY
NATIONAL WEATHER SERVICE MISSOULA MT
1222 PM MST SUN MAR 1 2015

Montana AWOS Reports

ROUNDUP     |KRPX 011915Z AUTO 00000KT 40SM M01/M19 A3014 RMK AO1 T10101193






000
SXUS55 KMSO 011913
OSOMSO
MONTANA AWOS SUMMARY
NATIONAL WEATHER SERVICE MISSOULA MT
1213 PM MST SUN MAR 1 2015

Montana AWOS Reports

ROUNDUP     |KRPX 011855Z AUTO 00000KT 40SM M02/M18 A3015 RMK AO1 T10161182
SCOBEY      |K9S2 011855Z AUTO 31009G14KT 40SM M05/M14 A3023 RMK AO1 T10491143
MALTA       |KM75 011855Z AUTO 26004KT 40SM M03/M10 A3025 RMK AO1 T10271099
TWIN BRIDGES|K7S1 011855Z AUTO 00000KT 40SM M04/M18 A3017 RMK AO1 T10431177






000
SXUS55 KMSO 011903
OSOMSO
MONTANA AWOS SUMMARY
NATIONAL WEATHER SERVICE MISSOULA MT
1202 PM MST SUN MAR 1 2015

Montana AWOS Reports

LAUREL      |K6S8 011855Z AUTO 00000KT 40SM M02/M16 A3022 RMK AO1 T10161160






000
SXUS55 KMSO 011903
OSOMSO
MONTANA AWOS SUMMARY
NATIONAL WEATHER SERVICE MISSOULA MT
1202 PM MST SUN MAR 1 2015

Montana AWOS Reports

LAUREL      |K6S8 011855Z AUTO 00000KT 40SM M02/M16 A3022 RMK AO1 T10161160






000
SXUS55 KMSO 011844
OSOMSO
MONTANA AWOS SUMMARY
NATIONAL WEATHER SERVICE MISSOULA MT
1143 AM MST SUN MAR 1 2015

Montana AWOS Reports

ROUNDUP     |KRPX 011835Z AUTO 00000KT 40SM M02/M17 A3015 RMK AO1 T10161171






000
SXUS55 KMSO 011844
OSOMSO
MONTANA AWOS SUMMARY
NATIONAL WEATHER SERVICE MISSOULA MT
1143 AM MST SUN MAR 1 2015

Montana AWOS Reports

ROUNDUP     |KRPX 011835Z AUTO 00000KT 40SM M02/M17 A3015 RMK AO1 T10161171






000
SXUS55 KMSO 011823
OSOMSO
MONTANA AWOS SUMMARY
NATIONAL WEATHER SERVICE MISSOULA MT
1122 AM MST SUN MAR 1 2015

Montana AWOS Reports

ROUNDUP     |KRPX 011815Z AUTO 00000KT 40SM M02/M17 A3016 RMK AO1 T10211171






000
SXUS55 KMSO 011823
OSOMSO
MONTANA AWOS SUMMARY
NATIONAL WEATHER SERVICE MISSOULA MT
1122 AM MST SUN MAR 1 2015

Montana AWOS Reports

ROUNDUP     |KRPX 011815Z AUTO 00000KT 40SM M02/M17 A3016 RMK AO1 T10211171






000
SXUS55 KMSO 011813
OSOMSO
MONTANA AWOS SUMMARY
NATIONAL WEATHER SERVICE MISSOULA MT
1113 AM MST SUN MAR 1 2015

Montana AWOS Reports

MALTA       |KM75 011755Z AUTO 23006KT 40SM M04/M11 A3026 RMK AO1 T10431105






000
SXUS55 KMSO 011813
OSOMSO
MONTANA AWOS SUMMARY
NATIONAL WEATHER SERVICE MISSOULA MT
1113 AM MST SUN MAR 1 2015

Montana AWOS Reports

MALTA       |KM75 011755Z AUTO 23006KT 40SM M04/M11 A3026 RMK AO1 T10431105






000
SXUS55 KMSO 011803
OSOMSO
MONTANA AWOS SUMMARY
NATIONAL WEATHER SERVICE MISSOULA MT
1102 AM MST SUN MAR 1 2015

Montana AWOS Reports

LAUREL      |K6S8 011755Z AUTO 18005KT 40SM M03/M15 A3023 RMK AO1 T10321149
SCOBEY      |K9S2 011755Z AUTO 29008KT 25SM M06/M15 A3023 RMK AO1 T10601149






000
SXUS55 KMSO 011803
OSOMSO
MONTANA AWOS SUMMARY
NATIONAL WEATHER SERVICE MISSOULA MT
1102 AM MST SUN MAR 1 2015

Montana AWOS Reports

LAUREL      |K6S8 011755Z AUTO 18005KT 40SM M03/M15 A3023 RMK AO1 T10321149
SCOBEY      |K9S2 011755Z AUTO 29008KT 25SM M06/M15 A3023 RMK AO1 T10601149






000
SXUS55 KMSO 011743
OSOMSO
MONTANA AWOS SUMMARY
NATIONAL WEATHER SERVICE MISSOULA MT
1043 AM MST SUN MAR 1 2015

Montana AWOS Reports

ROUNDUP     |KRPX 011735Z AUTO 00000KT 40SM M03/M16 A3017 RMK AO1 T10271160






000
SXUS55 KMSO 011743
OSOMSO
MONTANA AWOS SUMMARY
NATIONAL WEATHER SERVICE MISSOULA MT
1043 AM MST SUN MAR 1 2015

Montana AWOS Reports

ROUNDUP     |KRPX 011735Z AUTO 00000KT 40SM M03/M16 A3017 RMK AO1 T10271160






000
SXUS55 KMSO 011723
OSOMSO
MONTANA AWOS SUMMARY
NATIONAL WEATHER SERVICE MISSOULA MT
1023 AM MST SUN MAR 1 2015

Montana AWOS Reports

ROUNDUP     |KRPX 011715Z AUTO 00000KT 40SM M03/M16 A3017 RMK AO1 T10321160






000
SXUS55 KMSO 011723
OSOMSO
MONTANA AWOS SUMMARY
NATIONAL WEATHER SERVICE MISSOULA MT
1023 AM MST SUN MAR 1 2015

Montana AWOS Reports

ROUNDUP     |KRPX 011715Z AUTO 00000KT 40SM M03/M16 A3017 RMK AO1 T10321160






000
SXUS55 KMSO 011703
OSOMSO
MONTANA AWOS SUMMARY
NATIONAL WEATHER SERVICE MISSOULA MT
1002 AM MST SUN MAR 1 2015

Montana AWOS Reports

LAUREL      |K6S8 011655Z AUTO 20010G14KT 40SM M06/M14 A3024 RMK AO1 T10551143






000
SXUS55 KMSO 011643
OSOMSO
MONTANA AWOS SUMMARY
NATIONAL WEATHER SERVICE MISSOULA MT
943 AM MST SUN MAR 1 2015

Montana AWOS Reports

ROUNDUP     |KRPX 011635Z AUTO 00000KT 40SM M05/M14 A3017 RMK AO1 T10491138






000
SXUS55 KMSO 011643
OSOMSO
MONTANA AWOS SUMMARY
NATIONAL WEATHER SERVICE MISSOULA MT
943 AM MST SUN MAR 1 2015

Montana AWOS Reports

ROUNDUP     |KRPX 011635Z AUTO 00000KT 40SM M05/M14 A3017 RMK AO1 T10491138






000
SXUS55 KMSO 011623
OSOMSO
MONTANA AWOS SUMMARY
NATIONAL WEATHER SERVICE MISSOULA MT
923 AM MST SUN MAR 1 2015

Montana AWOS Reports

LAUREL      |K6S8 011615Z AUTO 16006KT 40SM M08/M15 A3024 RMK AO1 T10771149
ROUNDUP     |KRPX 011615Z AUTO 00000KT 40SM M06/M14 A3017 RMK AO1 T10601138






000
SXUS55 KMSO 011613
OSOMSO
MONTANA AWOS SUMMARY
NATIONAL WEATHER SERVICE MISSOULA MT
913 AM MST SUN MAR 1 2015

Montana AWOS Reports

SCOBEY      |K9S2 011555Z AUTO 29010KT 7SM M09/M16 A3022 RMK AO1 T10881155






000
SXUS55 KMSO 011603
OSOMSO
MONTANA AWOS SUMMARY
NATIONAL WEATHER SERVICE MISSOULA MT
903 AM MST SUN MAR 1 2015

Montana AWOS Reports

ROUNDUP     |KRPX 011555Z AUTO 00000KT 40SM M07/M14 A3017 RMK AO1 T10711143
TWIN BRIDGES|K7S1 011555Z AUTO 16004KT 40SM M12/M18 A3021 RMK AO1 T11161177






000
SXUS55 KMSO 011553
OSOMSO
MONTANA AWOS SUMMARY
NATIONAL WEATHER SERVICE MISSOULA MT
852 AM MST SUN MAR 1 2015

Montana AWOS Reports

ROUNDUP     |KRPX 011535Z AUTO 00000KT 40SM M08/M16 A3017 RMK AO1 T10821155






000
SXUS55 KMSO 011553
OSOMSO
MONTANA AWOS SUMMARY
NATIONAL WEATHER SERVICE MISSOULA MT
852 AM MST SUN MAR 1 2015

Montana AWOS Reports

ROUNDUP     |KRPX 011535Z AUTO 00000KT 40SM M08/M16 A3017 RMK AO1 T10821155






000
SXUS55 KMSO 011543
OSOMSO
MONTANA AWOS SUMMARY
NATIONAL WEATHER SERVICE MISSOULA MT
843 AM MST SUN MAR 1 2015

Montana AWOS Reports

LAUREL      |K6S8 011535Z AUTO 24004KT 25SM M09/M15 A3023 RMK AO1 T10931149






000
SXUS55 KMSO 011533
OSOMSO
MONTANA AWOS SUMMARY
NATIONAL WEATHER SERVICE MISSOULA MT
833 AM MST SUN MAR 1 2015

Montana AWOS Reports

MALTA       |KM75 011355Z AUTO 23005KT 40SM M13/M17 A3022 RMK AO1 T11271166






000
SXUS55 KMSO 011523
OSOMSO
MONTANA AWOS SUMMARY
NATIONAL WEATHER SERVICE MISSOULA MT
823 AM MST SUN MAR 1 2015

Montana AWOS Reports

LAUREL      |K6S8 011515Z AUTO 00000KT 40SM M11/M17 A3023 RMK AO1 T11051171
ROUNDUP     |KRPX 011515Z AUTO 40SM M09/M15 A3016 RMK AO1 T10881149






000
SXUS55 KMSO 011503
OSOMSO
MONTANA AWOS SUMMARY
NATIONAL WEATHER SERVICE MISSOULA MT
803 AM MST SUN MAR 1 2015

Montana AWOS Reports

SCOBEY      |K9S2 011455Z AUTO 29009KT 7SM M10/M16 A3019 RMK AO1 T10991160
TWIN BRIDGES|K7S1 011455Z AUTO 00000KT 25SM M16/M21 A3020 RMK AO1 T11551205
ROUNDUP     |KRPX 011455Z AUTO 00000KT 40SM M11/M16 A3016 RMK AO1 T11051160






000
SXUS55 KMSO 011503
OSOMSO
MONTANA AWOS SUMMARY
NATIONAL WEATHER SERVICE MISSOULA MT
803 AM MST SUN MAR 1 2015

Montana AWOS Reports

SCOBEY      |K9S2 011455Z AUTO 29009KT 7SM M10/M16 A3019 RMK AO1 T10991160
TWIN BRIDGES|K7S1 011455Z AUTO 00000KT 25SM M16/M21 A3020 RMK AO1 T11551205
ROUNDUP     |KRPX 011455Z AUTO 00000KT 40SM M11/M16 A3016 RMK AO1 T11051160






000
SXUS55 KMSO 011444
OSOMSO
MONTANA AWOS SUMMARY
NATIONAL WEATHER SERVICE MISSOULA MT
743 AM MST SUN MAR 1 2015

Montana AWOS Reports

ROUNDUP     |KRPX 011435Z AUTO 00000KT 40SM M11/M17 A3015 RMK AO1 T11051166






000
SXUS55 KMSO 011423
OSOMSO
MONTANA AWOS SUMMARY
NATIONAL WEATHER SERVICE MISSOULA MT
723 AM MST SUN MAR 1 2015

Montana AWOS Reports

LAUREL      |K6S8 011415Z AUTO 25SM M13/M18 A3021 RMK AO1 T11321182
ROUNDUP     |KRPX 011415Z AUTO 21005KT 40SM M13/M18 A3015 RMK AO1 T11321182






000
SXUS55 KMSO 011423
OSOMSO
MONTANA AWOS SUMMARY
NATIONAL WEATHER SERVICE MISSOULA MT
723 AM MST SUN MAR 1 2015

Montana AWOS Reports

LAUREL      |K6S8 011415Z AUTO 25SM M13/M18 A3021 RMK AO1 T11321182
ROUNDUP     |KRPX 011415Z AUTO 21005KT 40SM M13/M18 A3015 RMK AO1 T11321182






000
SXUS55 KMSO 011414
OSOMSO
MONTANA AWOS SUMMARY
NATIONAL WEATHER SERVICE MISSOULA MT
713 AM MST SUN MAR 1 2015

Montana AWOS Reports

TWIN BRIDGES|K7S1 011355Z AUTO 00000KT 25SM M17/M23 A3020 RMK AO1 T11711227






000
SXUS55 KMSO 011414
OSOMSO
MONTANA AWOS SUMMARY
NATIONAL WEATHER SERVICE MISSOULA MT
713 AM MST SUN MAR 1 2015

Montana AWOS Reports

TWIN BRIDGES|K7S1 011355Z AUTO 00000KT 25SM M17/M23 A3020 RMK AO1 T11711227






000
SXUS55 KMSO 011403
OSOMSO
MONTANA AWOS SUMMARY
NATIONAL WEATHER SERVICE MISSOULA MT
703 AM MST SUN MAR 1 2015

Montana AWOS Reports

SCOBEY      |K9S2 011355Z AUTO 27009KT 15SM M10/M16 A3017 RMK AO1 T10991160
ROUNDUP     |KRPX 011355Z AUTO 00000KT 40SM M13/M19 A3014 RMK AO1 T11321188






000
SXUS55 KMSO 011344
OSOMSO
MONTANA AWOS SUMMARY
NATIONAL WEATHER SERVICE MISSOULA MT
643 AM MST SUN MAR 1 2015

Montana AWOS Reports

ROUNDUP     |KRPX 011335Z AUTO 00000KT 40SM M14/M19 A3014 RMK AO1 T11381193






000
SXUS55 KMSO 011333
OSOMSO
MONTANA AWOS SUMMARY
NATIONAL WEATHER SERVICE MISSOULA MT
633 AM MST SUN MAR 1 2015

Montana AWOS Reports

ROUNDUP     |KRPX 011315Z AUTO 00000KT 40SM M13/M19 A3014 RMK AO1 T11271188






000
SXUS55 KMSO 011323
OSOMSO
MONTANA AWOS SUMMARY
NATIONAL WEATHER SERVICE MISSOULA MT
623 AM MST SUN MAR 1 2015

Montana AWOS Reports

LAUREL      |K6S8 011315Z AUTO 00000KT 25SM M13/M19 A3021 RMK AO1 T11321188






000
SXUS55 KMSO 011314
OSOMSO
MONTANA AWOS SUMMARY
NATIONAL WEATHER SERVICE MISSOULA MT
613 AM MST SUN MAR 1 2015

Montana AWOS Reports

MALTA       |KM75 011255Z AUTO 00000KT 40SM M13/M17 A3022 RMK AO1 T11271171






000
SXUS55 KMSO 011314
OSOMSO
MONTANA AWOS SUMMARY
NATIONAL WEATHER SERVICE MISSOULA MT
613 AM MST SUN MAR 1 2015

Montana AWOS Reports

MALTA       |KM75 011255Z AUTO 00000KT 40SM M13/M17 A3022 RMK AO1 T11271171






000
SXUS55 KMSO 011303
OSOMSO
MONTANA AWOS SUMMARY
NATIONAL WEATHER SERVICE MISSOULA MT
603 AM MST SUN MAR 1 2015

Montana AWOS Reports

LAUREL      |K6S8 011255Z AUTO 00000KT 25SM M13/M19 A3021 RMK AO1 T11321188
ROUNDUP     |KRPX 011255Z AUTO 23007KT 40SM M12/M18 A3014 RMK AO1 T11211182






000
SXUS55 KMSO 011303
OSOMSO
MONTANA AWOS SUMMARY
NATIONAL WEATHER SERVICE MISSOULA MT
603 AM MST SUN MAR 1 2015

Montana AWOS Reports

LAUREL      |K6S8 011255Z AUTO 00000KT 25SM M13/M19 A3021 RMK AO1 T11321188
ROUNDUP     |KRPX 011255Z AUTO 23007KT 40SM M12/M18 A3014 RMK AO1 T11211182






000
SXUS55 KMSO 011244
OSOMSO
MONTANA AWOS SUMMARY
NATIONAL WEATHER SERVICE MISSOULA MT
543 AM MST SUN MAR 1 2015

Montana AWOS Reports

ROUNDUP     |KRPX 011235Z AUTO 22007KT 40SM M13/M18 A3014 RMK AO1 T11321182






000
SXUS55 KMSO 011244
OSOMSO
MONTANA AWOS SUMMARY
NATIONAL WEATHER SERVICE MISSOULA MT
543 AM MST SUN MAR 1 2015

Montana AWOS Reports

ROUNDUP     |KRPX 011235Z AUTO 22007KT 40SM M13/M18 A3014 RMK AO1 T11321182






000
SXUS55 KMSO 011223
OSOMSO
MONTANA AWOS SUMMARY
NATIONAL WEATHER SERVICE MISSOULA MT
523 AM MST SUN MAR 1 2015

Montana AWOS Reports

ROUNDUP     |KRPX 011215Z AUTO 20007KT 40SM M14/M19 A3013 RMK AO1 T11431193






000
SXUS55 KMSO 011213
OSOMSO
MONTANA AWOS SUMMARY
NATIONAL WEATHER SERVICE MISSOULA MT
513 AM MST SUN MAR 1 2015

Montana AWOS Reports

SCOBEY      |K9S2 011155Z AUTO 27006KT 15SM M12/M18 A3012 RMK AO1 T11161177
MALTA       |KM75 011155Z AUTO 27010G14KT 40SM M10/M14 A3020 RMK AO1 T10991138






000
SXUS55 KMSO 011213
OSOMSO
MONTANA AWOS SUMMARY
NATIONAL WEATHER SERVICE MISSOULA MT
513 AM MST SUN MAR 1 2015

Montana AWOS Reports

SCOBEY      |K9S2 011155Z AUTO 27006KT 15SM M12/M18 A3012 RMK AO1 T11161177
MALTA       |KM75 011155Z AUTO 27010G14KT 40SM M10/M14 A3020 RMK AO1 T10991138






000
SXUS55 KMSO 011203
OSOMSO
MONTANA AWOS SUMMARY
NATIONAL WEATHER SERVICE MISSOULA MT
503 AM MST SUN MAR 1 2015

Montana AWOS Reports

LAUREL      |K6S8 011155Z AUTO 00000KT 15SM M14/M18 A3018 RMK AO1 T11381182
ROUNDUP     |KRPX 011155Z AUTO 00000KT 40SM M14/M19 A3013 RMK AO1 T11431193
TWIN BRIDGES|K7S1 011155Z AUTO 00000KT 40SM M15/M21 A3019 RMK AO1 T11491210






000
SXUS55 KMSO 011143
OSOMSO
MONTANA AWOS SUMMARY
NATIONAL WEATHER SERVICE MISSOULA MT
443 AM MST SUN MAR 1 2015

Montana AWOS Reports

ROUNDUP     |KRPX 011135Z AUTO 00000KT 40SM M14/M19 A3012 RMK AO1 T11381193






000
SXUS55 KMSO 011123
OSOMSO
MONTANA AWOS SUMMARY
NATIONAL WEATHER SERVICE MISSOULA MT
423 AM MST SUN MAR 1 2015

Montana AWOS Reports

ROUNDUP     |KRPX 011115Z AUTO 21005KT 40SM M13/M19 A3012 RMK AO1 T11321188






000
SXUS55 KMSO 011123
OSOMSO
MONTANA AWOS SUMMARY
NATIONAL WEATHER SERVICE MISSOULA MT
423 AM MST SUN MAR 1 2015

Montana AWOS Reports

ROUNDUP     |KRPX 011115Z AUTO 21005KT 40SM M13/M19 A3012 RMK AO1 T11321188






000
SXUS55 KMSO 011113
OSOMSO
MONTANA AWOS SUMMARY
NATIONAL WEATHER SERVICE MISSOULA MT
413 AM MST SUN MAR 1 2015

Montana AWOS Reports

MALTA       |KM75 011055Z AUTO 26007KT 40SM M09/M13 A3018 RMK AO1 T10881132
SCOBEY      |K9S2 011055Z AUTO 00000KT 25SM M12/M18 A3011 RMK AO1 T11211182






000
SXUS55 KMSO 011103
OSOMSO
MONTANA AWOS SUMMARY
NATIONAL WEATHER SERVICE MISSOULA MT
403 AM MST SUN MAR 1 2015

Montana AWOS Reports

LAUREL      |K6S8 011055Z AUTO 00000KT 15SM M13/M19 A3017 RMK AO1 T11321188
ROUNDUP     |KRPX 011055Z AUTO 21006KT 40SM M13/M19 A3011 RMK AO1 T11321188
TWIN BRIDGES|K7S1 011055Z AUTO 00000KT 40SM M15/M21 A3018 RMK AO1 T11491210






000
SXUS55 KMSO 011043
OSOMSO
MONTANA AWOS SUMMARY
NATIONAL WEATHER SERVICE MISSOULA MT
343 AM MST SUN MAR 1 2015

Montana AWOS Reports

ROUNDUP     |KRPX 011035Z AUTO 21008KT 40SM M14/M19 A3010 RMK AO1 T11381188






000
SXUS55 KMSO 011023
OSOMSO
MONTANA AWOS SUMMARY
NATIONAL WEATHER SERVICE MISSOULA MT
323 AM MST SUN MAR 1 2015

Montana AWOS Reports

LAUREL      |K6S8 011015Z AUTO 00000KT 15SM M13/M18 A3017 RMK AO1 T11271177
ROUNDUP     |KRPX 011015Z AUTO 19005KT 40SM M13/M19 A3010 RMK AO1 T11321188






000
SXUS55 KMSO 011023
OSOMSO
MONTANA AWOS SUMMARY
NATIONAL WEATHER SERVICE MISSOULA MT
323 AM MST SUN MAR 1 2015

Montana AWOS Reports

LAUREL      |K6S8 011015Z AUTO 00000KT 15SM M13/M18 A3017 RMK AO1 T11271177
ROUNDUP     |KRPX 011015Z AUTO 19005KT 40SM M13/M19 A3010 RMK AO1 T11321188






000
SXUS55 KMSO 011013
OSOMSO
MONTANA AWOS SUMMARY
NATIONAL WEATHER SERVICE MISSOULA MT
312 AM MST SUN MAR 1 2015

Montana AWOS Reports

SCOBEY      |K9S2 010955Z AUTO 00000KT 25SM M11/M18 A3010 RMK AO1 T11101177
MALTA       |KM75 010955Z AUTO 26009KT 40SM M08/M12 A3017 RMK AO1 T10821116
TWIN BRIDGES|K7S1 010955Z AUTO 00000KT 25SM M14/M20 A3018 RMK AO1 T11431199






000
SXUS55 KMSO 011013
OSOMSO
MONTANA AWOS SUMMARY
NATIONAL WEATHER SERVICE MISSOULA MT
312 AM MST SUN MAR 1 2015

Montana AWOS Reports

SCOBEY      |K9S2 010955Z AUTO 00000KT 25SM M11/M18 A3010 RMK AO1 T11101177
MALTA       |KM75 010955Z AUTO 26009KT 40SM M08/M12 A3017 RMK AO1 T10821116
TWIN BRIDGES|K7S1 010955Z AUTO 00000KT 25SM M14/M20 A3018 RMK AO1 T11431199






000
SXUS55 KMSO 011003
OSOMSO
MONTANA AWOS SUMMARY
NATIONAL WEATHER SERVICE MISSOULA MT
303 AM MST SUN MAR 1 2015

Montana AWOS Reports

ROUNDUP     |KRPX 010955Z AUTO 00000KT 40SM M13/M19 A3010 RMK AO1 T11321188






000
SXUS55 KMSO 011003
OSOMSO
MONTANA AWOS SUMMARY
NATIONAL WEATHER SERVICE MISSOULA MT
303 AM MST SUN MAR 1 2015

Montana AWOS Reports

ROUNDUP     |KRPX 010955Z AUTO 00000KT 40SM M13/M19 A3010 RMK AO1 T11321188






000
SXUS55 KMSO 010953
OSOMSO
MONTANA AWOS SUMMARY
NATIONAL WEATHER SERVICE MISSOULA MT
253 AM MST SUN MAR 1 2015

Montana AWOS Reports

ROUNDUP     |KRPX 010935Z AUTO 00000KT 40SM M13/M19 A3010 RMK AO1 T11321188






000
SXUS55 KMSO 010953
OSOMSO
MONTANA AWOS SUMMARY
NATIONAL WEATHER SERVICE MISSOULA MT
253 AM MST SUN MAR 1 2015

Montana AWOS Reports

ROUNDUP     |KRPX 010935Z AUTO 00000KT 40SM M13/M19 A3010 RMK AO1 T11321188






000
SXUS55 KMSO 010943
OSOMSO
MONTANA AWOS SUMMARY
NATIONAL WEATHER SERVICE MISSOULA MT
243 AM MST SUN MAR 1 2015

Montana AWOS Reports

LAUREL      |K6S8 010935Z AUTO 23005KT 25SM M12/M17 A3016 RMK AO1 T11161166






000
SXUS55 KMSO 010923
OSOMSO
MONTANA AWOS SUMMARY
NATIONAL WEATHER SERVICE MISSOULA MT
223 AM MST SUN MAR 1 2015

Montana AWOS Reports

LAUREL      |K6S8 010915Z AUTO 00000KT 25SM M13/M19 A3016 RMK AO1 T11271193
ROUNDUP     |KRPX 010915Z AUTO 21006KT 40SM M13/M19 A3010 RMK AO1 T11321188






000
SXUS55 KMSO 010913
OSOMSO
MONTANA AWOS SUMMARY
NATIONAL WEATHER SERVICE MISSOULA MT
212 AM MST SUN MAR 1 2015

Montana AWOS Reports

MALTA       |KM75 010855Z AUTO 26005KT 40SM M08/M12 A3016 RMK AO1 T10821121
TWIN BRIDGES|K7S1 010855Z AUTO 08004KT 25SM M13/M19 A3017 RMK AO1 T11321193






000
SXUS55 KMSO 010913
OSOMSO
MONTANA AWOS SUMMARY
NATIONAL WEATHER SERVICE MISSOULA MT
212 AM MST SUN MAR 1 2015

Montana AWOS Reports

MALTA       |KM75 010855Z AUTO 26005KT 40SM M08/M12 A3016 RMK AO1 T10821121
TWIN BRIDGES|K7S1 010855Z AUTO 08004KT 25SM M13/M19 A3017 RMK AO1 T11321193






000
SXUS55 KMSO 010903
OSOMSO
MONTANA AWOS SUMMARY
NATIONAL WEATHER SERVICE MISSOULA MT
203 AM MST SUN MAR 1 2015

Montana AWOS Reports

ROUNDUP     |KRPX 010855Z AUTO 00000KT 40SM M13/M19 A3010 RMK AO1 T11271188
SCOBEY      |K9S2 010855Z AUTO 27004KT 25SM M09/M16 A3009 RMK AO1 T10931160






000
SXUS55 KMSO 010903
OSOMSO
MONTANA AWOS SUMMARY
NATIONAL WEATHER SERVICE MISSOULA MT
203 AM MST SUN MAR 1 2015

Montana AWOS Reports

ROUNDUP     |KRPX 010855Z AUTO 00000KT 40SM M13/M19 A3010 RMK AO1 T11271188
SCOBEY      |K9S2 010855Z AUTO 27004KT 25SM M09/M16 A3009 RMK AO1 T10931160






000
SXUS55 KMSO 010843
OSOMSO
MONTANA AWOS SUMMARY
NATIONAL WEATHER SERVICE MISSOULA MT
143 AM MST SUN MAR 1 2015

Montana AWOS Reports

ROUNDUP     |KRPX 010835Z AUTO 22006KT 40SM M12/M18 A3009 RMK AO1 T11211182






000
SXUS55 KMSO 010843
OSOMSO
MONTANA AWOS SUMMARY
NATIONAL WEATHER SERVICE MISSOULA MT
143 AM MST SUN MAR 1 2015

Montana AWOS Reports

ROUNDUP     |KRPX 010835Z AUTO 22006KT 40SM M12/M18 A3009 RMK AO1 T11211182






000
SXUS55 KMSO 010833
OSOMSO
MONTANA AWOS SUMMARY
NATIONAL WEATHER SERVICE MISSOULA MT
133 AM MST SUN MAR 1 2015

Montana AWOS Reports

ROUNDUP     |KRPX 010815Z AUTO 22004KT 40SM M12/M18 A3009 RMK AO1 T11161177






000
SXUS55 KMSO 010833
OSOMSO
MONTANA AWOS SUMMARY
NATIONAL WEATHER SERVICE MISSOULA MT
133 AM MST SUN MAR 1 2015

Montana AWOS Reports

ROUNDUP     |KRPX 010815Z AUTO 22004KT 40SM M12/M18 A3009 RMK AO1 T11161177






000
SXUS55 KMSO 010823
OSOMSO
MONTANA AWOS SUMMARY
NATIONAL WEATHER SERVICE MISSOULA MT
123 AM MST SUN MAR 1 2015

Montana AWOS Reports

LAUREL      |K6S8 010815Z AUTO 00000KT 40SM M11/M18 A3016 RMK AO1 T11051182






000
SXUS55 KMSO 010823
OSOMSO
MONTANA AWOS SUMMARY
NATIONAL WEATHER SERVICE MISSOULA MT
123 AM MST SUN MAR 1 2015

Montana AWOS Reports

LAUREL      |K6S8 010815Z AUTO 00000KT 40SM M11/M18 A3016 RMK AO1 T11051182






000
SXUS55 KMSO 010813
OSOMSO
MONTANA AWOS SUMMARY
NATIONAL WEATHER SERVICE MISSOULA MT
112 AM MST SUN MAR 1 2015

Montana AWOS Reports

SCOBEY      |K9S2 010755Z AUTO 27005KT 10SM M09/M16 A3009 RMK AO1 T10881155






000
SXUS55 KMSO 010813
OSOMSO
MONTANA AWOS SUMMARY
NATIONAL WEATHER SERVICE MISSOULA MT
112 AM MST SUN MAR 1 2015

Montana AWOS Reports

SCOBEY      |K9S2 010755Z AUTO 27005KT 10SM M09/M16 A3009 RMK AO1 T10881155






000
SXUS55 KMSO 010803
OSOMSO
MONTANA AWOS SUMMARY
NATIONAL WEATHER SERVICE MISSOULA MT
103 AM MST SUN MAR 1 2015

Montana AWOS Reports

LAUREL      |K6S8 010755Z AUTO 00000KT 40SM M10/M18 A3015 RMK AO1 T10991177
ROUNDUP     |KRPX 010755Z AUTO 00000KT 40SM M12/M18 A3009 RMK AO1 T11161177
MALTA       |KM75 010755Z AUTO 26005KT 40SM M08/M12 A3015 RMK AO1 T10771116
TWIN BRIDGES|K7S1 010755Z AUTO 00000KT 40SM M12/M20 A3016 RMK AO1 T11211199






000
SXUS55 KMSO 010803
OSOMSO
MONTANA AWOS SUMMARY
NATIONAL WEATHER SERVICE MISSOULA MT
103 AM MST SUN MAR 1 2015

Montana AWOS Reports

LAUREL      |K6S8 010755Z AUTO 00000KT 40SM M10/M18 A3015 RMK AO1 T10991177
ROUNDUP     |KRPX 010755Z AUTO 00000KT 40SM M12/M18 A3009 RMK AO1 T11161177
MALTA       |KM75 010755Z AUTO 26005KT 40SM M08/M12 A3015 RMK AO1 T10771116
TWIN BRIDGES|K7S1 010755Z AUTO 00000KT 40SM M12/M20 A3016 RMK AO1 T11211199






000
SXUS55 KMSO 010743
OSOMSO
MONTANA AWOS SUMMARY
NATIONAL WEATHER SERVICE MISSOULA MT
1243 AM MST SUN MAR 1 2015

Montana AWOS Reports

ROUNDUP     |KRPX 010735Z AUTO 19006KT 40SM M12/M18 A3007 RMK AO1 T11211177






000
SXUS55 KMSO 010723
OSOMSO
MONTANA AWOS SUMMARY
NATIONAL WEATHER SERVICE MISSOULA MT
1223 AM MST SUN MAR 1 2015

Montana AWOS Reports

LAUREL      |K6S8 010715Z AUTO 28004KT 25SM M12/M18 A3014 RMK AO1 T11161182
ROUNDUP     |KRPX 010715Z AUTO 00000KT 40SM M12/M18 A3007 RMK AO1 T11211177






000
SXUS55 KMSO 010723
OSOMSO
MONTANA AWOS SUMMARY
NATIONAL WEATHER SERVICE MISSOULA MT
1223 AM MST SUN MAR 1 2015

Montana AWOS Reports

LAUREL      |K6S8 010715Z AUTO 28004KT 25SM M12/M18 A3014 RMK AO1 T11161182
ROUNDUP     |KRPX 010715Z AUTO 00000KT 40SM M12/M18 A3007 RMK AO1 T11211177






000
SXUS55 KMSO 010704
OSOMSO
MONTANA AWOS SUMMARY
NATIONAL WEATHER SERVICE MISSOULA MT
1203 AM MST SUN MAR 1 2015

Montana AWOS Reports

LAUREL      |K6S8 010655Z AUTO 28004KT 25SM M11/M18 A3014 RMK AO1 T11051177
ROUNDUP     |KRPX 010655Z AUTO 20006KT 40SM M12/M18 A3008 RMK AO1 T11211177
SCOBEY      |K9S2 010655Z AUTO 26009KT 15SM M09/M16 A3008 RMK AO1 T10881155
MALTA       |KM75 010655Z AUTO 26006KT 10SM M07/M10 A3013 RMK AO1 T10661099
TWIN BRIDGES|K7S1 010655Z AUTO 01008KT 40SM M09/M18 A3014 RMK AO1 T10881177






000
SXUS55 KMSO 010704
OSOMSO
MONTANA AWOS SUMMARY
NATIONAL WEATHER SERVICE MISSOULA MT
1203 AM MST SUN MAR 1 2015

Montana AWOS Reports

LAUREL      |K6S8 010655Z AUTO 28004KT 25SM M11/M18 A3014 RMK AO1 T11051177
ROUNDUP     |KRPX 010655Z AUTO 20006KT 40SM M12/M18 A3008 RMK AO1 T11211177
SCOBEY      |K9S2 010655Z AUTO 26009KT 15SM M09/M16 A3008 RMK AO1 T10881155
MALTA       |KM75 010655Z AUTO 26006KT 10SM M07/M10 A3013 RMK AO1 T10661099
TWIN BRIDGES|K7S1 010655Z AUTO 01008KT 40SM M09/M18 A3014 RMK AO1 T10881177






000
SXUS55 KMSO 010643
OSOMSO
MONTANA AWOS SUMMARY
NATIONAL WEATHER SERVICE MISSOULA MT
1142 PM MST SAT FEB 28 2015

Montana AWOS Reports

LAUREL      |K6S8 010635Z AUTO 29006KT 25SM M11/M18 A3014 RMK AO1 T11101177
ROUNDUP     |KRPX 010635Z AUTO 00000KT 40SM M11/M17 A3008 RMK AO1 T11101166






000
SXUS55 KMSO 010643
OSOMSO
MONTANA AWOS SUMMARY
NATIONAL WEATHER SERVICE MISSOULA MT
1142 PM MST SAT FEB 28 2015

Montana AWOS Reports

LAUREL      |K6S8 010635Z AUTO 29006KT 25SM M11/M18 A3014 RMK AO1 T11101177
ROUNDUP     |KRPX 010635Z AUTO 00000KT 40SM M11/M17 A3008 RMK AO1 T11101166






000
SXUS55 KMSO 010623
OSOMSO
MONTANA AWOS SUMMARY
NATIONAL WEATHER SERVICE MISSOULA MT
1123 PM MST SAT FEB 28 2015

Montana AWOS Reports

LAUREL      |K6S8 010615Z AUTO 28004KT 25SM M11/M17 A3014 RMK AO1 T11051171
ROUNDUP     |KRPX 010615Z AUTO 28004KT 40SM M12/M18 A3008 RMK AO1 T11211177






000
SXUS55 KMSO 010623
OSOMSO
MONTANA AWOS SUMMARY
NATIONAL WEATHER SERVICE MISSOULA MT
1123 PM MST SAT FEB 28 2015

Montana AWOS Reports

LAUREL      |K6S8 010615Z AUTO 28004KT 25SM M11/M17 A3014 RMK AO1 T11051171
ROUNDUP     |KRPX 010615Z AUTO 28004KT 40SM M12/M18 A3008 RMK AO1 T11211177






000
SXUS55 KMSO 010603
OSOMSO
MONTANA AWOS SUMMARY
NATIONAL WEATHER SERVICE MISSOULA MT
1103 PM MST SAT FEB 28 2015

Montana AWOS Reports

LAUREL      |K6S8 010555Z AUTO 28004KT 25SM M10/M17 A3014 RMK AO1 T10991171
ROUNDUP     |KRPX 010555Z AUTO 00000KT 40SM M11/M18 A3008 RMK AO1 T11051177
SCOBEY      |K9S2 010555Z AUTO 26008KT 15SM M09/M16 A3008 RMK AO1 T10881155
MALTA       |KM75 010555Z AUTO 00000KT 7SM M07/M10 A3013 RMK AO1 T10661099
TWIN BRIDGES|K7S1 010555Z AUTO 02009G14KT 40SM M10/M19 A3011 RMK AO1 T10991188






000
SXUS55 KMSO 010603
OSOMSO
MONTANA AWOS SUMMARY
NATIONAL WEATHER SERVICE MISSOULA MT
1103 PM MST SAT FEB 28 2015

Montana AWOS Reports

LAUREL      |K6S8 010555Z AUTO 28004KT 25SM M10/M17 A3014 RMK AO1 T10991171
ROUNDUP     |KRPX 010555Z AUTO 00000KT 40SM M11/M18 A3008 RMK AO1 T11051177
SCOBEY      |K9S2 010555Z AUTO 26008KT 15SM M09/M16 A3008 RMK AO1 T10881155
MALTA       |KM75 010555Z AUTO 00000KT 7SM M07/M10 A3013 RMK AO1 T10661099
TWIN BRIDGES|K7S1 010555Z AUTO 02009G14KT 40SM M10/M19 A3011 RMK AO1 T10991188






000
SXUS55 KMSO 010543
OSOMSO
MONTANA AWOS SUMMARY
NATIONAL WEATHER SERVICE MISSOULA MT
1042 PM MST SAT FEB 28 2015

Montana AWOS Reports

LAUREL      |K6S8 010535Z AUTO 00000KT 25SM M09/M17 A3013 RMK AO1 T10881171
ROUNDUP     |KRPX 010535Z AUTO 00000KT 40SM M11/M17 A3007 RMK AO1 T11051171






000
SXUS55 KMSO 010543
OSOMSO
MONTANA AWOS SUMMARY
NATIONAL WEATHER SERVICE MISSOULA MT
1042 PM MST SAT FEB 28 2015

Montana AWOS Reports

LAUREL      |K6S8 010535Z AUTO 00000KT 25SM M09/M17 A3013 RMK AO1 T10881171
ROUNDUP     |KRPX 010535Z AUTO 00000KT 40SM M11/M17 A3007 RMK AO1 T11051171






000
SXUS55 KMSO 010523
OSOMSO
MONTANA AWOS SUMMARY
NATIONAL WEATHER SERVICE MISSOULA MT
1023 PM MST SAT FEB 28 2015

Montana AWOS Reports

LAUREL      |K6S8 010515Z AUTO 30006KT 40SM M09/M17 A3012 RMK AO1 T10881166
ROUNDUP     |KRPX 010515Z AUTO 00000KT 40SM M10/M17 A3007 RMK AO1 T10991171






000
SXUS55 KMSO 010503
OSOMSO
MONTANA AWOS SUMMARY
NATIONAL WEATHER SERVICE MISSOULA MT
1003 PM MST SAT FEB 28 2015

Montana AWOS Reports

LAUREL      |K6S8 010455Z AUTO 30008KT 25SM M09/M17 A3012 RMK AO1 T10881166
ROUNDUP     |KRPX 010455Z AUTO 00000KT 40SM M09/M17 A3007 RMK AO1 T10931171
SCOBEY      |K9S2 010455Z AUTO 29008KT 25SM M10/M17 A3007 RMK AO1 T10991171
MALTA       |KM75 010455Z AUTO 25007KT 5SM M06/M10 A3013 RMK AO1 T10601099
TWIN BRIDGES|K7S1 010455Z AUTO 34008KT 40SM M10/M19 A3009 RMK AO1 T10991188






000
SXUS55 KMSO 010503
OSOMSO
MONTANA AWOS SUMMARY
NATIONAL WEATHER SERVICE MISSOULA MT
1003 PM MST SAT FEB 28 2015

Montana AWOS Reports

LAUREL      |K6S8 010455Z AUTO 30008KT 25SM M09/M17 A3012 RMK AO1 T10881166
ROUNDUP     |KRPX 010455Z AUTO 00000KT 40SM M09/M17 A3007 RMK AO1 T10931171
SCOBEY      |K9S2 010455Z AUTO 29008KT 25SM M10/M17 A3007 RMK AO1 T10991171
MALTA       |KM75 010455Z AUTO 25007KT 5SM M06/M10 A3013 RMK AO1 T10601099
TWIN BRIDGES|K7S1 010455Z AUTO 34008KT 40SM M10/M19 A3009 RMK AO1 T10991188






000
SXUS55 KMSO 010443
OSOMSO
MONTANA AWOS SUMMARY
NATIONAL WEATHER SERVICE MISSOULA MT
942 PM MST SAT FEB 28 2015

Montana AWOS Reports

ROUNDUP     |KRPX 010435Z AUTO 00000KT 40SM M09/M17 A3006 RMK AO1 T10931171
LAUREL      |K6S8 010435Z AUTO 30008KT 25SM M09/M17 A3011 RMK AO1 T10881166






000
SXUS55 KMSO 010443
OSOMSO
MONTANA AWOS SUMMARY
NATIONAL WEATHER SERVICE MISSOULA MT
942 PM MST SAT FEB 28 2015

Montana AWOS Reports

ROUNDUP     |KRPX 010435Z AUTO 00000KT 40SM M09/M17 A3006 RMK AO1 T10931171
LAUREL      |K6S8 010435Z AUTO 30008KT 25SM M09/M17 A3011 RMK AO1 T10881166






000
SXUS55 KMSO 010423
OSOMSO
MONTANA AWOS SUMMARY
NATIONAL WEATHER SERVICE MISSOULA MT
923 PM MST SAT FEB 28 2015

Montana AWOS Reports

LAUREL      |K6S8 010415Z AUTO 31008KT 40SM M09/M17 A3011 RMK AO1 T10881166
ROUNDUP     |KRPX 010415Z AUTO 00000KT 40SM M09/M17 A3006 RMK AO1 T10931166






000
SXUS55 KMSO 010403
OSOMSO
MONTANA AWOS SUMMARY
NATIONAL WEATHER SERVICE MISSOULA MT
903 PM MST SAT FEB 28 2015

Montana AWOS Reports

PLAINS      |KS34 010355Z AUTO 00000KT 7SM M05/M14 A3018 RMK AO1 T10491143
LAUREL      |K6S8 010355Z AUTO 30007KT 40SM M08/M17 A3010 RMK AO1 T10821166
SCOBEY      |K9S2 010355Z AUTO 29004KT 25SM M11/M19 A3007 RMK AO1 T11051188
MALTA       |KM75 010355Z AUTO 27012G16KT 40SM M06/M12 A3012 RMK AO1 T10551116
TWIN BRIDGES|K7S1 010355Z AUTO 35011KT 40SM M09/M18 A3006 RMK AO1 T10881182
ROUNDUP     |KRPX 010355Z AUTO 00000KT 40SM M09/M17 A3005 RMK AO1 T10931166






000
SXUS55 KMSO 010343
OSOMSO
MONTANA AWOS SUMMARY
NATIONAL WEATHER SERVICE MISSOULA MT
842 PM MST SAT FEB 28 2015

Montana AWOS Reports

LAUREL      |K6S8 010335Z AUTO 30006KT 40SM M08/M17 A3009 RMK AO1 T10821166
ROUNDUP     |KRPX 010335Z AUTO 00000KT 40SM M09/M17 A3005 RMK AO1 T10931166






000
SXUS55 KMSO 010343
OSOMSO
MONTANA AWOS SUMMARY
NATIONAL WEATHER SERVICE MISSOULA MT
842 PM MST SAT FEB 28 2015

Montana AWOS Reports

LAUREL      |K6S8 010335Z AUTO 30006KT 40SM M08/M17 A3009 RMK AO1 T10821166
ROUNDUP     |KRPX 010335Z AUTO 00000KT 40SM M09/M17 A3005 RMK AO1 T10931166






000
SXUS55 KMSO 010323
OSOMSO
MONTANA AWOS SUMMARY
NATIONAL WEATHER SERVICE MISSOULA MT
823 PM MST SAT FEB 28 2015

Montana AWOS Reports

LAUREL      |K6S8 010315Z AUTO 30006KT 40SM M08/M17 A3009 RMK AO1 T10771166
ROUNDUP     |KRPX 010315Z AUTO 00000KT 40SM M09/M17 A3005 RMK AO1 T10931166






000
SXUS55 KMSO 010314
OSOMSO
MONTANA AWOS SUMMARY
NATIONAL WEATHER SERVICE MISSOULA MT
813 PM MST SAT FEB 28 2015

Montana AWOS Reports

MALTA       |KM75 010255Z AUTO 25005KT 40SM M06/M12 A3011 RMK AO1 T10551121






000
SXUS55 KMSO 010314
OSOMSO
MONTANA AWOS SUMMARY
NATIONAL WEATHER SERVICE MISSOULA MT
813 PM MST SAT FEB 28 2015

Montana AWOS Reports

MALTA       |KM75 010255Z AUTO 25005KT 40SM M06/M12 A3011 RMK AO1 T10551121






000
SXUS55 KMSO 010303
OSOMSO
MONTANA AWOS SUMMARY
NATIONAL WEATHER SERVICE MISSOULA MT
803 PM MST SAT FEB 28 2015

Montana AWOS Reports

ROUNDUP     |KRPX 010255Z AUTO 00000KT 40SM M09/M17 A3005 RMK AO1 T10881166
SCOBEY      |K9S2 010255Z AUTO 00000KT 25SM M10/M19 A3007 RMK AO1 T10991188
LAUREL      |K6S8 010255Z AUTO 29004KT 40SM M08/M16 A3008 RMK AO1 T10771160






000
SXUS55 KMSO 010303
OSOMSO
MONTANA AWOS SUMMARY
NATIONAL WEATHER SERVICE MISSOULA MT
803 PM MST SAT FEB 28 2015

Montana AWOS Reports

ROUNDUP     |KRPX 010255Z AUTO 00000KT 40SM M09/M17 A3005 RMK AO1 T10881166
SCOBEY      |K9S2 010255Z AUTO 00000KT 25SM M10/M19 A3007 RMK AO1 T10991188
LAUREL      |K6S8 010255Z AUTO 29004KT 40SM M08/M16 A3008 RMK AO1 T10771160






000
SXUS55 KMSO 010243
OSOMSO
MONTANA AWOS SUMMARY
NATIONAL WEATHER SERVICE MISSOULA MT
743 PM MST SAT FEB 28 2015

Montana AWOS Reports

LAUREL      |K6S8 010235Z AUTO 30004KT 40SM M07/M16 A3008 RMK AO1 T10711160
ROUNDUP     |KRPX 010235Z AUTO 00000KT 40SM M09/M17 A3005 RMK AO1 T10931166






000
SXUS55 KMSO 010223
OSOMSO
MONTANA AWOS SUMMARY
NATIONAL WEATHER SERVICE MISSOULA MT
723 PM MST SAT FEB 28 2015

Montana AWOS Reports

LAUREL      |K6S8 010215Z AUTO 00000KT 40SM M08/M17 A3008 RMK AO1 T10821166
ROUNDUP     |KRPX 010215Z AUTO 00000KT 40SM M09/M16 A3004 RMK AO1 T10881160






000
SXUS55 KMSO 010223
OSOMSO
MONTANA AWOS SUMMARY
NATIONAL WEATHER SERVICE MISSOULA MT
723 PM MST SAT FEB 28 2015

Montana AWOS Reports

LAUREL      |K6S8 010215Z AUTO 00000KT 40SM M08/M17 A3008 RMK AO1 T10821166
ROUNDUP     |KRPX 010215Z AUTO 00000KT 40SM M09/M16 A3004 RMK AO1 T10881160






000
SXUS55 KMSO 010213
OSOMSO
MONTANA AWOS SUMMARY
NATIONAL WEATHER SERVICE MISSOULA MT
713 PM MST SAT FEB 28 2015

Montana AWOS Reports

TWIN BRIDGES|K7S1 010155Z AUTO 35010G15KT 40SM M06/M17 A3002 RMK AO1 T10601166






000
SXUS55 KMSO 010203
OSOMSO
MONTANA AWOS SUMMARY
NATIONAL WEATHER SERVICE MISSOULA MT
703 PM MST SAT FEB 28 2015

Montana AWOS Reports

LAUREL      |K6S8 010155Z AUTO 00000KT 40SM M08/M17 A3008 RMK AO1 T10821166
ROUNDUP     |KRPX 010155Z AUTO 00000KT 40SM M09/M17 A3003 RMK AO1 T10881166
SCOBEY      |K9S2 010155Z AUTO 00000KT 25SM M10/M19 A3007 RMK AO1 T10991193






000
SXUS55 KMSO 010144
OSOMSO
MONTANA AWOS SUMMARY
NATIONAL WEATHER SERVICE MISSOULA MT
643 PM MST SAT FEB 28 2015

Montana AWOS Reports

ROUNDUP     |KRPX 010135Z AUTO 00000KT 40SM M08/M16 A3003 RMK AO1 T10821160
LAUREL      |K6S8 010135Z AUTO 00000KT 40SM M08/M17 A3007 RMK AO1 T10821166






000
SXUS55 KMSO 010144
OSOMSO
MONTANA AWOS SUMMARY
NATIONAL WEATHER SERVICE MISSOULA MT
643 PM MST SAT FEB 28 2015

Montana AWOS Reports

ROUNDUP     |KRPX 010135Z AUTO 00000KT 40SM M08/M16 A3003 RMK AO1 T10821160
LAUREL      |K6S8 010135Z AUTO 00000KT 40SM M08/M17 A3007 RMK AO1 T10821166






000
SXUS55 KMSO 010123
OSOMSO
MONTANA AWOS SUMMARY
NATIONAL WEATHER SERVICE MISSOULA MT
623 PM MST SAT FEB 28 2015

Montana AWOS Reports

LAUREL      |K6S8 010115Z AUTO 00000KT 40SM M07/M17 A3007 RMK AO1 T10661166
ROUNDUP     |KRPX 010115Z AUTO 00000KT 40SM M08/M16 A3002 RMK AO1 T10771160






000
SXUS55 KMSO 010123
OSOMSO
MONTANA AWOS SUMMARY
NATIONAL WEATHER SERVICE MISSOULA MT
623 PM MST SAT FEB 28 2015

Montana AWOS Reports

LAUREL      |K6S8 010115Z AUTO 00000KT 40SM M07/M17 A3007 RMK AO1 T10661166
ROUNDUP     |KRPX 010115Z AUTO 00000KT 40SM M08/M16 A3002 RMK AO1 T10771160






000
SXUS55 KMSO 010103
OSOMSO
MONTANA AWOS SUMMARY
NATIONAL WEATHER SERVICE MISSOULA MT
603 PM MST SAT FEB 28 2015

Montana AWOS Reports

ROUNDUP     |KRPX 010055Z AUTO 00000KT 40SM M07/M16 A3002 RMK AO1 T10661155
SCOBEY      |K9S2 010055Z AUTO 00000KT 40SM M10/M20 A3007 RMK AO1 T10991199
MALTA       |KM75 010055Z AUTO 23006KT 40SM M06/M13 A3010 RMK AO1 T10551132
TWIN BRIDGES|K7S1 010055Z AUTO 33013G20KT 40SM M05/M17 A2999 RMK AO1 T10491171
LAUREL      |K6S8 010055Z AUTO 00000KT 40SM M05/M16 A3006 RMK AO1 T10491160






000
SXUS55 KMSO 010103
OSOMSO
MONTANA AWOS SUMMARY
NATIONAL WEATHER SERVICE MISSOULA MT
603 PM MST SAT FEB 28 2015

Montana AWOS Reports

ROUNDUP     |KRPX 010055Z AUTO 00000KT 40SM M07/M16 A3002 RMK AO1 T10661155
SCOBEY      |K9S2 010055Z AUTO 00000KT 40SM M10/M20 A3007 RMK AO1 T10991199
MALTA       |KM75 010055Z AUTO 23006KT 40SM M06/M13 A3010 RMK AO1 T10551132
TWIN BRIDGES|K7S1 010055Z AUTO 33013G20KT 40SM M05/M17 A2999 RMK AO1 T10491171
LAUREL      |K6S8 010055Z AUTO 00000KT 40SM M05/M16 A3006 RMK AO1 T10491160






000
SXUS55 KMSO 010053
OSOMSO
MONTANA AWOS SUMMARY
NATIONAL WEATHER SERVICE MISSOULA MT
552 PM MST SAT FEB 28 2015

Montana AWOS Reports

LAUREL      |K6S8 010035Z AUTO 28005KT 40SM M04/M16 A3006 RMK AO1 T10381155
ROUNDUP     |KRPX 010035Z AUTO 00000KT 40SM M06/M15 A3002 RMK AO1 T10551149
SCOBEY      |K9S2 282355Z AUTO 29010KT 40SM M08/M19 A3007 RMK AO1 T10771193
MALTA       |KM75 282355Z AUTO 24011G18KT 40SM M04/M13 A3010 RMK AO1 T10431132






000
SXUS55 KMSO 010053
OSOMSO
MONTANA AWOS SUMMARY
NATIONAL WEATHER SERVICE MISSOULA MT
552 PM MST SAT FEB 28 2015

Montana AWOS Reports

LAUREL      |K6S8 010035Z AUTO 28005KT 40SM M04/M16 A3006 RMK AO1 T10381155
ROUNDUP     |KRPX 010035Z AUTO 00000KT 40SM M06/M15 A3002 RMK AO1 T10551149
SCOBEY      |K9S2 282355Z AUTO 29010KT 40SM M08/M19 A3007 RMK AO1 T10771193
MALTA       |KM75 282355Z AUTO 24011G18KT 40SM M04/M13 A3010 RMK AO1 T10431132






000
SXUS55 KMSO 010023
OSOMSO
MONTANA AWOS SUMMARY
NATIONAL WEATHER SERVICE MISSOULA MT
523 PM MST SAT FEB 28 2015

Montana AWOS Reports

ROUNDUP     |KRPX 010015Z AUTO 00000KT 40SM M04/M15 A3001 RMK AO1 T10431149
LAUREL      |K6S8 010015Z AUTO 27005KT 40SM M04/M16 A3006 RMK AO1 T10381155






000
SXUS55 KMSO 010003
OSOMSO
MONTANA AWOS SUMMARY
NATIONAL WEATHER SERVICE MISSOULA MT
503 PM MST SAT FEB 28 2015

Montana AWOS Reports

ROUNDUP     |KRPX 282355Z AUTO 00000KT 40SM M04/M15 A3001 RMK AO1 T10381149
LAUREL      |K6S8 282355Z AUTO 00000KT 40SM M03/M16 A3005 RMK AO1 T10271155
TWIN BRIDGES|K7S1 282355Z AUTO 34016G21KT 40SM M03/M17 A2998 RMK AO1 T10321166






000
SXUS55 KMSO 010003
OSOMSO
MONTANA AWOS SUMMARY
NATIONAL WEATHER SERVICE MISSOULA MT
503 PM MST SAT FEB 28 2015

Montana AWOS Reports

ROUNDUP     |KRPX 282355Z AUTO 00000KT 40SM M04/M15 A3001 RMK AO1 T10381149
LAUREL      |K6S8 282355Z AUTO 00000KT 40SM M03/M16 A3005 RMK AO1 T10271155
TWIN BRIDGES|K7S1 282355Z AUTO 34016G21KT 40SM M03/M17 A2998 RMK AO1 T10321166






000
SXUS55 KMSO 282344
OSOMSO
MONTANA AWOS SUMMARY
NATIONAL WEATHER SERVICE MISSOULA MT
443 PM MST SAT FEB 28 2015

Montana AWOS Reports

LAUREL      |K6S8 282335Z AUTO 27004KT 40SM M03/M16 A3005 RMK AO1 T10271160
ROUNDUP     |KRPX 282335Z AUTO 03004KT 40SM M04/M15 A3000 RMK AO1 T10431149






000
SXUS55 KMSO 282344
OSOMSO
MONTANA AWOS SUMMARY
NATIONAL WEATHER SERVICE MISSOULA MT
443 PM MST SAT FEB 28 2015

Montana AWOS Reports

LAUREL      |K6S8 282335Z AUTO 27004KT 40SM M03/M16 A3005 RMK AO1 T10271160
ROUNDUP     |KRPX 282335Z AUTO 03004KT 40SM M04/M15 A3000 RMK AO1 T10431149






000
SXUS55 KMSO 282323
OSOMSO
MONTANA AWOS SUMMARY
NATIONAL WEATHER SERVICE MISSOULA MT
423 PM MST SAT FEB 28 2015

Montana AWOS Reports

ROUNDUP     |KRPX 282315Z AUTO 02004KT 40SM M04/M15 A3000 RMK AO1 T10431149
MALTA       |KM75 282255Z AUTO 25014G18KT 40SM M03/M14 A3009 RMK AO1 T10321143
LAUREL      |K6S8 282315Z AUTO 00000KT 40SM M02/M16 A3005 RMK AO1 T10211160






000
SXUS55 KMSO 282323
OSOMSO
MONTANA AWOS SUMMARY
NATIONAL WEATHER SERVICE MISSOULA MT
423 PM MST SAT FEB 28 2015

Montana AWOS Reports

ROUNDUP     |KRPX 282315Z AUTO 02004KT 40SM M04/M15 A3000 RMK AO1 T10431149
MALTA       |KM75 282255Z AUTO 25014G18KT 40SM M03/M14 A3009 RMK AO1 T10321143
LAUREL      |K6S8 282315Z AUTO 00000KT 40SM M02/M16 A3005 RMK AO1 T10211160






000
SXUS55 KMSO 282313
OSOMSO
MONTANA AWOS SUMMARY
NATIONAL WEATHER SERVICE MISSOULA MT
413 PM MST SAT FEB 28 2015

Montana AWOS Reports

LAUREL      |K6S8 282255Z AUTO 00000KT 40SM M02/M15 A3005 RMK AO1 T10211149






000
SXUS55 KMSO 282303
OSOMSO
MONTANA AWOS SUMMARY
NATIONAL WEATHER SERVICE MISSOULA MT
402 PM MST SAT FEB 28 2015

Montana AWOS Reports

ROUNDUP     |KRPX 282255Z AUTO 00000KT 40SM M04/M14 A3000 RMK AO1 T10381138
SCOBEY      |K9S2 282255Z AUTO 28013G17KT 40SM M08/M20 A3007 RMK AO1 T10771199
TWIN BRIDGES|K7S1 282255Z AUTO 35015G19KT 40SM M03/M17 A2996 RMK AO1 T10271171






000
SXUS55 KMSO 282303
OSOMSO
MONTANA AWOS SUMMARY
NATIONAL WEATHER SERVICE MISSOULA MT
402 PM MST SAT FEB 28 2015

Montana AWOS Reports

ROUNDUP     |KRPX 282255Z AUTO 00000KT 40SM M04/M14 A3000 RMK AO1 T10381138
SCOBEY      |K9S2 282255Z AUTO 28013G17KT 40SM M08/M20 A3007 RMK AO1 T10771199
TWIN BRIDGES|K7S1 282255Z AUTO 35015G19KT 40SM M03/M17 A2996 RMK AO1 T10271171






000
SXUS55 KMSO 282253
OSOMSO
MONTANA AWOS SUMMARY
NATIONAL WEATHER SERVICE MISSOULA MT
352 PM MST SAT FEB 28 2015

Montana AWOS Reports

MALTA       |KM75 282155Z AUTO 25013G20KT 40SM M04/M14 A3010 RMK AO1 T10431143






000
SXUS55 KMSO 282253
OSOMSO
MONTANA AWOS SUMMARY
NATIONAL WEATHER SERVICE MISSOULA MT
352 PM MST SAT FEB 28 2015

Montana AWOS Reports

MALTA       |KM75 282155Z AUTO 25013G20KT 40SM M04/M14 A3010 RMK AO1 T10431143






000
SXUS55 KMSO 282243
OSOMSO
MONTANA AWOS SUMMARY
NATIONAL WEATHER SERVICE MISSOULA MT
343 PM MST SAT FEB 28 2015

Montana AWOS Reports

LAUREL      |K6S8 282235Z AUTO 00000KT 40SM M02/M15 A3005 RMK AO1 T10211149
ROUNDUP     |KRPX 282235Z AUTO 02005KT 40SM M04/M14 A3000 RMK AO1 T10431138






000
SXUS55 KMSO 282224
OSOMSO
MONTANA AWOS SUMMARY
NATIONAL WEATHER SERVICE MISSOULA MT
323 PM MST SAT FEB 28 2015

Montana AWOS Reports

LAUREL      |K6S8 282215Z AUTO 00000KT 40SM M03/M15 A3005 RMK AO1 T10271149






000
SXUS55 KMSO 282224
OSOMSO
MONTANA AWOS SUMMARY
NATIONAL WEATHER SERVICE MISSOULA MT
323 PM MST SAT FEB 28 2015

Montana AWOS Reports

LAUREL      |K6S8 282215Z AUTO 00000KT 40SM M03/M15 A3005 RMK AO1 T10271149






000
SXUS55 KMSO 282203
OSOMSO
MONTANA AWOS SUMMARY
NATIONAL WEATHER SERVICE MISSOULA MT
303 PM MST SAT FEB 28 2015

Montana AWOS Reports

ROUNDUP     |KRPX 282155Z AUTO 35006KT 40SM M04/M14 A3000 RMK AO1 T10381143
SCOBEY      |K9S2 282155Z AUTO 28012G18KT 40SM M09/M21 A3008 RMK AO1 T10881205
LAUREL      |K6S8 282155Z AUTO 00000KT 40SM M04/M16 A3005 RMK AO1 T10381155
TWIN BRIDGES|K7S1 282155Z AUTO 34014G19KT 40SM M03/M18 A2996 RMK AO1 T10321177






000
SXUS55 KMSO 282203
OSOMSO
MONTANA AWOS SUMMARY
NATIONAL WEATHER SERVICE MISSOULA MT
303 PM MST SAT FEB 28 2015

Montana AWOS Reports

ROUNDUP     |KRPX 282155Z AUTO 35006KT 40SM M04/M14 A3000 RMK AO1 T10381143
SCOBEY      |K9S2 282155Z AUTO 28012G18KT 40SM M09/M21 A3008 RMK AO1 T10881205
LAUREL      |K6S8 282155Z AUTO 00000KT 40SM M04/M16 A3005 RMK AO1 T10381155
TWIN BRIDGES|K7S1 282155Z AUTO 34014G19KT 40SM M03/M18 A2996 RMK AO1 T10321177






000
SXUS55 KMSO 282144
OSOMSO
MONTANA AWOS SUMMARY
NATIONAL WEATHER SERVICE MISSOULA MT
243 PM MST SAT FEB 28 2015

Montana AWOS Reports

LAUREL      |K6S8 282135Z AUTO 00000KT 40SM M04/M16 A3005 RMK AO1 T10381155
ROUNDUP     |KRPX 282135Z AUTO 00000KT 40SM M04/M16 A3000 RMK AO1 T10431155






000
SXUS55 KMSO 282144
OSOMSO
MONTANA AWOS SUMMARY
NATIONAL WEATHER SERVICE MISSOULA MT
243 PM MST SAT FEB 28 2015

Montana AWOS Reports

LAUREL      |K6S8 282135Z AUTO 00000KT 40SM M04/M16 A3005 RMK AO1 T10381155
ROUNDUP     |KRPX 282135Z AUTO 00000KT 40SM M04/M16 A3000 RMK AO1 T10431155






000
SXUS55 KMSO 282123
OSOMSO
MONTANA AWOS SUMMARY
NATIONAL WEATHER SERVICE MISSOULA MT
223 PM MST SAT FEB 28 2015

Montana AWOS Reports

LAUREL      |K6S8 282115Z AUTO 00000KT 40SM M04/M15 A3005 RMK AO1 T10381149
ROUNDUP     |KRPX 282115Z AUTO 00000KT 40SM M04/M16 A3000 RMK AO1 T10431155






000
SXUS55 KMSO 282103
OSOMSO
MONTANA AWOS SUMMARY
NATIONAL WEATHER SERVICE MISSOULA MT
203 PM MST SAT FEB 28 2015

Montana AWOS Reports

LAUREL      |K6S8 282055Z AUTO 00000KT 40SM M04/M14 A3006 RMK AO1 T10431143
ROUNDUP     |KRPX 282055Z AUTO 00000KT 40SM M04/M16 A3000 RMK AO1 T10431155
SCOBEY      |K9S2 282055Z AUTO 29014G20KT 40SM M09/M19 A3008 RMK AO1 T10881188
TWIN BRIDGES|K7S1 282055Z AUTO 34015G22KT 40SM M04/M16 A2996 RMK AO1 T10381160
MALTA       |KM75 282055Z AUTO 24014G19KT 40SM M05/M14 A3012 RMK AO1 T10491143






000
SXUS55 KMSO 282043
OSOMSO
MONTANA AWOS SUMMARY
NATIONAL WEATHER SERVICE MISSOULA MT
143 PM MST SAT FEB 28 2015

Montana AWOS Reports

ROUNDUP     |KRPX 282035Z AUTO 00000KT 40SM M04/M15 A3000 RMK AO1 T10431149
LAUREL      |K6S8 282035Z AUTO 00000KT 40SM M04/M15 A3006 RMK AO1 T10431149






000
SXUS55 KMSO 282043
OSOMSO
MONTANA AWOS SUMMARY
NATIONAL WEATHER SERVICE MISSOULA MT
143 PM MST SAT FEB 28 2015

Montana AWOS Reports

ROUNDUP     |KRPX 282035Z AUTO 00000KT 40SM M04/M15 A3000 RMK AO1 T10431149
LAUREL      |K6S8 282035Z AUTO 00000KT 40SM M04/M15 A3006 RMK AO1 T10431149






    US Dept of Commerce
    National Oceanic and Atmospheric Administration
    National Weather Service
    1325 East West Highway
    Silver Spring, MD 20910
    Page Author: NWS Internet Services Team
Disclaimer
Information Quality
Credits
Glossary
Privacy Policy
Freedom of Information Act (FOIA)
About Us
Career Opportunities